PWSweather.com
Personal Weather Stations
Station Observations
SKYDIVEKS
Skydive Kansas, Osage City, KS 66523

Skydive KansasOsage City, KS 66523

Lat: 38.636, Lon: -95.803

Elevation: 1080

Station Type: La Crosse

http://www.skydivekansas.com

Latest ConditionsUpdated 8:03:00 PM CDT Saturday, Apr 18, 2015
Currently Today's Max Today's Min Today's Average
Temperature 64.0°F17.8°C 68.9°F20.5°C 58.5°F14.7°C 62.1°F16.7°C
Dew Point 54.1°F12.3°C 58.6°F14.8°C 49.8°F9.9°C 53.6°F12.0°C
Winds Calm Calm 21.5 mph S34.6 kmh S - 4.6 mph 7.4 kmh
Wind Gusts 6.3 mph10.1 kmh 22.1 mph35.6 kmh - -
Humidity 70% 82% 66% 74%
Pressure 28.78 in974.6 mb 28.93 in979.7 mb 28.78 in974.6 mb -
Hour Temp Dew Point Humidity Winds Wind Gusts Pressure Precip Precip Rate Daily Precip Total
08:03 PM 64.0°F17.8°C 54.1°F12.3°C 70% Calm Calm 6.3 mph10.1 kmh 28.78 in974.6 mb 0.00 in0.0 mm 0.00 in0.0 mm 0.00 in0.0 mm
08:02 PM 64.0°F17.8°C 54.1°F12.3°C 70% 1.3 mph SSE2.1 kmh SSE 6.3 mph10.1 kmh 28.78 in974.6 mb 0.00 in0.0 mm 0.00 in0.0 mm 0.00 in0.0 mm
08:01 PM 64.0°F17.8°C 54.1°F12.3°C 70% 1.3 mph SSE2.1 kmh SSE 6.3 mph10.1 kmh 28.78 in974.6 mb 0.00 in0.0 mm 0.00 in0.0 mm 0.00 in0.0 mm
08:00 PM 64.0°F17.8°C 54.1°F12.3°C 70% 3.6 mph SSE5.8 kmh SSE 6.5 mph10.5 kmh 28.78 in974.6 mb 0.00 in0.0 mm 0.00 in0.0 mm 0.00 in0.0 mm
07:59 PM 64.0°F17.8°C 54.1°F12.3°C 70% 2.5 mph SSE4.0 kmh SSE 6.5 mph10.5 kmh 28.78 in974.6 mb 0.00 in0.0 mm 0.00 in0.0 mm 0.00 in0.0 mm
07:58 PM 64.2°F17.9°C 54.3°F12.4°C 70% 2.5 mph SSE4.0 kmh SSE 6.5 mph10.5 kmh 28.78 in974.6 mb 0.00 in0.0 mm 0.00 in0.0 mm 0.00 in0.0 mm
07:57 PM 64.2°F17.9°C 54.3°F12.4°C 70% 3.1 mph SSE5.0 kmh SSE 8.5 mph13.7 kmh 28.78 in974.6 mb 0.00 in0.0 mm 0.00 in0.0 mm 0.00 in0.0 mm
07:56 PM 64.2°F17.9°C 54.3°F12.4°C 70% 4.7 mph SSE7.6 kmh SSE 9.2 mph14.8 kmh 28.78 in974.6 mb 0.00 in0.0 mm 0.00 in0.0 mm 0.00 in0.0 mm
07:55 PM 64.2°F17.9°C 54.3°F12.4°C 70% 4.9 mph SSE7.9 kmh SSE 9.2 mph14.8 kmh 28.78 in974.6 mb 0.00 in0.0 mm 0.00 in0.0 mm 0.00 in0.0 mm
07:54 PM 64.4°F18.0°C 54.5°F12.5°C 70% 4.0 mph SSE6.4 kmh SSE 9.2 mph14.8 kmh 28.78 in974.6 mb 0.00 in0.0 mm 0.00 in0.0 mm 0.00 in0.0 mm
07:53 PM 64.6°F18.1°C 54.7°F12.6°C 70% 4.9 mph SSE7.9 kmh SSE 9.2 mph14.8 kmh 28.78 in974.6 mb 0.00 in0.0 mm 0.00 in0.0 mm 0.00 in0.0 mm
07:52 PM 64.6°F18.1°C 54.7°F12.6°C 70% 6.3 mph SSE10.1 kmh SSE 9.2 mph14.8 kmh 28.78 in974.6 mb 0.00 in0.0 mm 0.00 in0.0 mm 0.00 in0.0 mm
07:51 PM 64.6°F18.1°C 54.7°F12.6°C 70% 4.9 mph SSE7.9 kmh SSE 9.2 mph14.8 kmh 28.78 in974.6 mb 0.00 in0.0 mm 0.00 in0.0 mm 0.00 in0.0 mm
07:50 PM 64.6°F18.1°C 54.7°F12.6°C 70% 6.5 mph SSE10.5 kmh SSE 10.7 mph17.2 kmh 28.78 in974.6 mb 0.00 in0.0 mm 0.00 in0.0 mm 0.00 in0.0 mm
07:49 PM 64.8°F18.2°C 54.8°F12.7°C 70% 4.9 mph SSE7.9 kmh SSE 10.7 mph17.2 kmh 28.78 in974.6 mb 0.00 in0.0 mm 0.00 in0.0 mm 0.00 in0.0 mm
07:48 PM 64.8°F18.2°C 54.8°F12.7°C 70% 7.2 mph SSE11.6 kmh SSE 10.7 mph17.2 kmh 28.78 in974.6 mb 0.00 in0.0 mm 0.00 in0.0 mm 0.00 in0.0 mm
07:47 PM 64.9°F18.3°C 55.0°F12.8°C 70% 9.2 mph SSE14.8 kmh SSE 10.7 mph17.2 kmh 28.78 in974.6 mb 0.00 in0.0 mm 0.00 in0.0 mm 0.00 in0.0 mm
07:46 PM 64.9°F18.3°C 55.0°F12.8°C 70% 7.4 mph SSE11.9 kmh SSE 11.0 mph17.7 kmh 28.78 in974.6 mb 0.00 in0.0 mm 0.00 in0.0 mm 0.00 in0.0 mm
07:45 PM 64.9°F18.3°C 55.0°F12.8°C 70% 7.6 mph SE12.2 kmh SE 13.6 mph21.9 kmh 28.78 in974.6 mb 0.00 in0.0 mm 0.00 in0.0 mm 0.00 in0.0 mm
07:44 PM 65.1°F18.4°C 55.1°F12.8°C 70% 6.9 mph SE11.1 kmh SE 13.6 mph21.9 kmh 28.78 in974.6 mb 0.00 in0.0 mm 0.00 in0.0 mm 0.00 in0.0 mm
07:43 PM 65.1°F18.4°C 55.1°F12.8°C 70% 7.6 mph SE12.2 kmh SE 13.6 mph21.9 kmh 28.78 in974.6 mb 0.00 in0.0 mm 0.00 in0.0 mm 0.00 in0.0 mm
07:42 PM 65.1°F18.4°C 55.1°F12.8°C 70% 7.2 mph SE11.6 kmh SE 13.6 mph21.9 kmh 28.78 in974.6 mb 0.00 in0.0 mm 0.00 in0.0 mm 0.00 in0.0 mm
07:41 PM 65.1°F18.4°C 55.1°F12.8°C 70% 4.9 mph SE7.9 kmh SE 13.6 mph21.9 kmh 28.78 in974.6 mb 0.00 in0.0 mm 0.00 in0.0 mm 0.00 in0.0 mm
07:40 PM 65.3°F18.5°C 55.3°F12.9°C 70% 7.4 mph SE11.9 kmh SE 13.6 mph21.9 kmh 28.78 in974.6 mb 0.00 in0.0 mm 0.00 in0.0 mm 0.00 in0.0 mm
07:39 PM 65.3°F18.5°C 55.3°F12.9°C 70% 5.8 mph SE9.3 kmh SE 13.6 mph21.9 kmh 28.78 in974.6 mb 0.00 in0.0 mm 0.00 in0.0 mm 0.00 in0.0 mm
07:38 PM 65.5°F18.6°C 55.5°F13.1°C 70% 7.6 mph SE12.2 kmh SE 13.6 mph21.9 kmh 28.78 in974.6 mb 0.00 in0.0 mm 0.00 in0.0 mm 0.00 in0.0 mm
07:37 PM 65.5°F18.6°C 55.5°F13.1°C 70% 7.6 mph SE12.2 kmh SE 13.6 mph21.9 kmh 28.78 in974.6 mb 0.00 in0.0 mm 0.00 in0.0 mm 0.00 in0.0 mm
07:36 PM 65.5°F18.6°C 55.5°F13.1°C 70% 9.8 mph SE15.8 kmh SE 13.6 mph21.9 kmh 28.78 in974.6 mb 0.00 in0.0 mm 0.00 in0.0 mm 0.00 in0.0 mm
07:35 PM 65.5°F18.6°C 55.5°F13.1°C 70% 11.0 mph SE17.7 kmh SE 13.2 mph21.2 kmh 28.78 in974.6 mb 0.00 in0.0 mm 0.00 in0.0 mm 0.00 in0.0 mm
07:34 PM 65.5°F18.6°C 55.5°F13.1°C 70% 8.7 mph SE14.0 kmh SE 13.2 mph21.2 kmh 28.78 in974.6 mb 0.00 in0.0 mm 0.00 in0.0 mm 0.00 in0.0 mm
07:33 PM 65.7°F18.7°C 55.6°F13.1°C 70% 7.4 mph SE11.9 kmh SE 13.2 mph21.2 kmh 28.78 in974.6 mb 0.00 in0.0 mm 0.00 in0.0 mm 0.00 in0.0 mm
07:32 PM 65.7°F18.7°C 55.6°F13.1°C 70% 11.9 mph SE19.2 kmh SE 13.2 mph21.2 kmh 28.78 in974.6 mb 0.00 in0.0 mm 0.00 in0.0 mm 0.00 in0.0 mm
07:31 PM 65.8°F18.8°C 56.2°F13.4°C 71% 12.1 mph SE19.5 kmh SE 13.2 mph21.2 kmh 28.79 in974.9 mb 0.00 in0.0 mm 0.00 in0.0 mm 0.00 in0.0 mm
07:30 PM 65.8°F18.8°C 56.2°F13.4°C 71% 8.9 mph SE14.3 kmh SE 13.2 mph21.2 kmh 28.78 in974.6 mb 0.00 in0.0 mm 0.00 in0.0 mm 0.00 in0.0 mm
07:29 PM 65.8°F18.8°C 56.2°F13.4°C 71% 10.3 mph SE16.6 kmh SE 13.2 mph21.2 kmh 28.78 in974.6 mb 0.00 in0.0 mm 0.00 in0.0 mm 0.00 in0.0 mm
07:28 PM 65.8°F18.8°C 55.8°F13.2°C 70% 7.2 mph SE11.6 kmh SE 13.2 mph21.2 kmh 28.78 in974.6 mb 0.00 in0.0 mm 0.00 in0.0 mm 0.00 in0.0 mm
07:27 PM 65.8°F18.8°C 55.8°F13.2°C 70% 7.8 mph SE12.6 kmh SE 13.2 mph21.2 kmh 28.78 in974.6 mb 0.00 in0.0 mm 0.00 in0.0 mm 0.00 in0.0 mm
07:26 PM 65.8°F18.8°C 55.8°F13.2°C 70% 7.4 mph SE11.9 kmh SE 16.6 mph26.7 kmh 28.78 in974.6 mb 0.00 in0.0 mm 0.00 in0.0 mm 0.00 in0.0 mm
07:25 PM 65.8°F18.8°C 55.8°F13.2°C 70% 6.7 mph SE10.8 kmh SE 16.6 mph26.7 kmh 28.78 in974.6 mb 0.00 in0.0 mm 0.00 in0.0 mm 0.00 in0.0 mm
07:24 PM 65.8°F18.8°C 55.8°F13.2°C 70% 8.1 mph SE13.0 kmh SE 16.6 mph26.7 kmh 28.78 in974.6 mb 0.00 in0.0 mm 0.00 in0.0 mm 0.00 in0.0 mm
07:23 PM 66.0°F18.9°C 56.0°F13.3°C 70% 8.1 mph SE13.0 kmh SE 16.6 mph26.7 kmh 28.78 in974.6 mb 0.00 in0.0 mm 0.00 in0.0 mm 0.00 in0.0 mm
07:22 PM 66.0°F18.9°C 55.5°F13.1°C 69% 11.9 mph SE19.2 kmh SE 16.6 mph26.7 kmh 28.78 in974.6 mb 0.00 in0.0 mm 0.00 in0.0 mm 0.00 in0.0 mm
07:21 PM 66.0°F18.9°C 55.5°F13.1°C 69% 5.4 mph SE8.7 kmh SE 16.6 mph26.7 kmh 28.78 in974.6 mb 0.00 in0.0 mm 0.00 in0.0 mm 0.00 in0.0 mm
07:20 PM 66.0°F18.9°C 55.5°F13.1°C 69% 7.6 mph SE12.2 kmh SE 17.0 mph27.4 kmh 28.78 in974.6 mb 0.00 in0.0 mm 0.00 in0.0 mm 0.00 in0.0 mm
07:19 PM 66.0°F18.9°C 55.5°F13.1°C 69% 11.6 mph SE18.7 kmh SE 17.0 mph27.4 kmh 28.78 in974.6 mb 0.00 in0.0 mm 0.00 in0.0 mm 0.00 in0.0 mm
07:18 PM 66.0°F18.9°C 55.5°F13.1°C 69% 7.6 mph SE12.2 kmh SE 17.0 mph27.4 kmh 28.78 in974.6 mb 0.00 in0.0 mm 0.00 in0.0 mm 0.00 in0.0 mm
07:17 PM 66.0°F18.9°C 55.5°F13.1°C 69% 11.2 mph SE18.0 kmh SE 17.0 mph27.4 kmh 28.78 in974.6 mb 0.00 in0.0 mm 0.00 in0.0 mm 0.00 in0.0 mm
07:16 PM 66.0°F18.9°C 56.0°F13.3°C 70% 13.2 mph SE21.2 kmh SE 17.0 mph27.4 kmh 28.78 in974.6 mb 0.00 in0.0 mm 0.00 in0.0 mm 0.00 in0.0 mm
07:15 PM 66.0°F18.9°C 56.0°F13.3°C 70% 10.5 mph SE16.9 kmh SE 17.0 mph27.4 kmh 28.78 in974.6 mb 0.00 in0.0 mm 0.00 in0.0 mm 0.00 in0.0 mm
07:14 PM 66.0°F18.9°C 56.0°F13.3°C 70% 10.1 mph SE16.3 kmh SE 17.0 mph27.4 kmh 28.78 in974.6 mb 0.00 in0.0 mm 0.00 in0.0 mm 0.00 in0.0 mm
07:13 PM 66.0°F18.9°C 56.0°F13.3°C 70% 13.6 mph SE21.9 kmh SE 17.0 mph27.4 kmh 28.79 in974.9 mb 0.00 in0.0 mm 0.00 in0.0 mm 0.00 in0.0 mm
07:12 PM 66.0°F18.9°C 56.0°F13.3°C 70% 9.2 mph SE14.8 kmh SE 17.0 mph27.4 kmh 28.79 in974.9 mb 0.00 in0.0 mm 0.00 in0.0 mm 0.00 in0.0 mm
07:11 PM 66.0°F18.9°C 56.0°F13.3°C 70% 10.7 mph SE17.2 kmh SE 17.0 mph27.4 kmh 28.78 in974.6 mb 0.00 in0.0 mm 0.00 in0.0 mm 0.00 in0.0 mm
07:10 PM 66.0°F18.9°C 56.0°F13.3°C 70% 12.1 mph SE19.5 kmh SE 13.9 mph22.4 kmh 28.78 in974.6 mb 0.00 in0.0 mm 0.00 in0.0 mm 0.00 in0.0 mm
07:09 PM 66.0°F18.9°C 56.3°F13.5°C 71% 9.6 mph SE15.4 kmh SE 13.9 mph22.4 kmh 28.79 in974.9 mb 0.00 in0.0 mm 0.00 in0.0 mm 0.00 in0.0 mm
07:08 PM 66.0°F18.9°C 56.3°F13.5°C 71% 10.5 mph SE16.9 kmh SE 13.9 mph22.4 kmh 28.78 in974.6 mb 0.00 in0.0 mm 0.00 in0.0 mm 0.00 in0.0 mm
07:07 PM 66.0°F18.9°C 56.3°F13.5°C 71% 10.3 mph SE16.6 kmh SE 13.9 mph22.4 kmh 28.78 in974.6 mb 0.00 in0.0 mm 0.00 in0.0 mm 0.00 in0.0 mm
07:06 PM 66.0°F18.9°C 56.3°F13.5°C 71% 10.3 mph SE16.6 kmh SE 13.9 mph22.4 kmh 28.79 in974.9 mb 0.00 in0.0 mm 0.00 in0.0 mm 0.00 in0.0 mm
07:05 PM 66.0°F18.9°C 56.3°F13.5°C 71% 11.9 mph SSE19.2 kmh SSE 13.9 mph22.4 kmh 28.79 in974.9 mb 0.00 in0.0 mm 0.00 in0.0 mm 0.00 in0.0 mm
07:04 PM 66.0°F18.9°C 56.3°F13.5°C 71% 13.0 mph SSE20.9 kmh SSE 13.9 mph22.4 kmh 28.78 in974.6 mb 0.00 in0.0 mm 0.00 in0.0 mm 0.00 in0.0 mm
07:03 PM 66.0°F18.9°C 56.3°F13.5°C 71% 9.8 mph SSE15.8 kmh SSE 12.1 mph19.5 kmh 28.78 in974.6 mb 0.00 in0.0 mm 0.00 in0.0 mm 0.00 in0.0 mm
07:02 PM 66.0°F18.9°C 56.3°F13.5°C 71% 7.6 mph S12.2 kmh S 12.1 mph19.5 kmh 28.78 in974.6 mb 0.00 in0.0 mm 0.00 in0.0 mm 0.00 in0.0 mm
07:01 PM 66.0°F18.9°C 56.0°F13.3°C 70% 10.5 mph S16.9 kmh S 12.1 mph19.5 kmh 28.78 in974.6 mb 0.00 in0.0 mm 0.00 in0.0 mm 0.00 in0.0 mm
07:00 PM 66.2°F19.0°C 56.1°F13.4°C 70% 8.7 mph S14.0 kmh S 12.1 mph19.5 kmh 28.78 in974.6 mb 0.00 in0.0 mm 0.00 in0.0 mm 0.00 in0.0 mm
06:59 PM 66.0°F18.9°C 56.0°F13.3°C 70% 6.7 mph SSW10.8 kmh SSW 12.1 mph19.5 kmh 28.78 in974.6 mb 0.00 in0.0 mm 0.00 in0.0 mm 0.00 in0.0 mm
06:58 PM 66.2°F19.0°C 56.1°F13.4°C 70% 11.0 mph SSW17.7 kmh SSW 12.5 mph20.1 kmh 28.78 in974.6 mb 0.00 in0.0 mm 0.00 in0.0 mm 0.00 in0.0 mm
06:57 PM 66.2°F19.0°C 56.1°F13.4°C 70% 9.2 mph SSW14.8 kmh SSW 12.5 mph20.1 kmh 28.78 in974.6 mb 0.00 in0.0 mm 0.00 in0.0 mm 0.00 in0.0 mm
06:56 PM 66.4°F19.1°C 56.3°F13.5°C 70% 5.1 mph SSW8.2 kmh SSW 12.5 mph20.1 kmh 28.78 in974.6 mb 0.00 in0.0 mm 0.00 in0.0 mm 0.00 in0.0 mm
06:55 PM 66.4°F19.1°C 56.3°F13.5°C 70% 8.1 mph SW13.0 kmh SW 12.5 mph20.1 kmh 28.78 in974.6 mb 0.00 in0.0 mm 0.00 in0.0 mm 0.00 in0.0 mm
06:54 PM 66.4°F19.1°C 56.3°F13.5°C 70% 8.7 mph SSW14.0 kmh SSW 14.8 mph23.8 kmh 28.78 in974.6 mb 0.00 in0.0 mm 0.00 in0.0 mm 0.00 in0.0 mm
06:53 PM 66.4°F19.1°C 56.3°F13.5°C 70% 11.2 mph SSW18.0 kmh SSW 14.8 mph23.8 kmh 28.78 in974.6 mb 0.00 in0.0 mm 0.00 in0.0 mm 0.00 in0.0 mm
06:52 PM 66.4°F19.1°C 56.3°F13.5°C 70% 8.1 mph SSW13.0 kmh SSW 14.8 mph23.8 kmh 28.78 in974.6 mb 0.00 in0.0 mm 0.00 in0.0 mm 0.00 in0.0 mm
06:51 PM 66.6°F19.2°C 56.3°F13.5°C 70% 5.8 mph SW9.3 kmh SW 14.8 mph23.8 kmh 28.78 in974.6 mb 0.00 in0.0 mm 0.00 in0.0 mm 0.00 in0.0 mm
06:50 PM 66.6°F19.2°C 56.0°F13.3°C 69% 8.9 mph SW14.3 kmh SW 14.8 mph23.8 kmh 28.78 in974.6 mb 0.00 in0.0 mm 0.00 in0.0 mm 0.00 in0.0 mm
06:49 PM 66.6°F19.2°C 56.0°F13.3°C 69% 9.6 mph SW15.4 kmh SW 14.8 mph23.8 kmh 28.78 in974.6 mb 0.00 in0.0 mm 0.00 in0.0 mm 0.00 in0.0 mm
06:48 PM 66.6°F19.2°C 56.0°F13.3°C 69% 8.7 mph SW14.0 kmh SW 14.8 mph23.8 kmh 28.78 in974.6 mb 0.00 in0.0 mm 0.00 in0.0 mm 0.00 in0.0 mm
06:47 PM 66.6°F19.2°C 56.0°F13.3°C 69% 11.2 mph SW18.0 kmh SW 14.8 mph23.8 kmh 28.78 in974.6 mb 0.00 in0.0 mm 0.00 in0.0 mm 0.00 in0.0 mm
06:46 PM 66.7°F19.3°C 56.2°F13.4°C 69% 8.7 mph SW14.0 kmh SW 14.8 mph23.8 kmh 28.78 in974.6 mb 0.00 in0.0 mm 0.00 in0.0 mm 0.00 in0.0 mm
06:45 PM 66.7°F19.3°C 56.7°F13.7°C 70% 10.1 mph SW16.3 kmh SW 14.8 mph23.8 kmh 28.78 in974.6 mb 0.00 in0.0 mm 0.00 in0.0 mm 0.00 in0.0 mm
06:44 PM 66.7°F19.3°C 56.7°F13.7°C 70% 11.4 mph SW18.3 kmh SW 13.4 mph21.6 kmh 28.78 in974.6 mb 0.00 in0.0 mm 0.00 in0.0 mm 0.00 in0.0 mm
06:43 PM 66.7°F19.3°C 56.7°F13.7°C 70% 9.2 mph WSW14.8 kmh WSW 13.2 mph21.2 kmh 28.78 in974.6 mb 0.00 in0.0 mm 0.00 in0.0 mm 0.00 in0.0 mm
06:42 PM 66.7°F19.3°C 56.7°F13.7°C 70% 10.7 mph SW17.2 kmh SW 13.0 mph20.9 kmh 28.78 in974.6 mb 0.00 in0.0 mm 0.00 in0.0 mm 0.00 in0.0 mm
06:41 PM 66.7°F19.3°C 56.7°F13.7°C 70% 8.1 mph SW13.0 kmh SW 14.3 mph23.0 kmh 28.78 in974.6 mb 0.00 in0.0 mm 0.00 in0.0 mm 0.00 in0.0 mm
06:40 PM 66.7°F19.3°C 56.7°F13.7°C 70% 9.2 mph SW14.8 kmh SW 14.3 mph23.0 kmh 28.78 in974.6 mb 0.00 in0.0 mm 0.00 in0.0 mm 0.00 in0.0 mm
06:39 PM 66.7°F19.3°C 56.2°F13.4°C 69% 7.8 mph SW12.6 kmh SW 14.3 mph23.0 kmh 28.78 in974.6 mb 0.00 in0.0 mm 0.00 in0.0 mm 0.00 in0.0 mm
06:38 PM 66.7°F19.3°C 56.2°F13.4°C 69% 5.4 mph SW8.7 kmh SW 14.3 mph23.0 kmh 28.78 in974.6 mb 0.00 in0.0 mm 0.00 in0.0 mm 0.00 in0.0 mm
06:37 PM 66.7°F19.3°C 56.2°F13.4°C 69% 12.1 mph SW19.5 kmh SW 14.3 mph23.0 kmh 28.78 in974.6 mb 0.00 in0.0 mm 0.00 in0.0 mm 0.00 in0.0 mm
06:36 PM 66.7°F19.3°C 56.2°F13.4°C 69% 3.1 mph SW5.0 kmh SW 14.3 mph23.0 kmh 28.78 in974.6 mb 0.00 in0.0 mm 0.00 in0.0 mm 0.00 in0.0 mm
06:35 PM 66.7°F19.3°C 56.2°F13.4°C 69% 6.5 mph SW10.5 kmh SW 14.3 mph23.0 kmh 28.78 in974.6 mb 0.00 in0.0 mm 0.00 in0.0 mm 0.00 in0.0 mm
06:34 PM 66.7°F19.3°C 56.2°F13.4°C 69% 10.7 mph SW17.2 kmh SW 14.3 mph23.0 kmh 28.78 in974.6 mb 0.00 in0.0 mm 0.00 in0.0 mm 0.00 in0.0 mm
06:33 PM 66.7°F19.3°C 56.2°F13.4°C 69% 8.7 mph SW14.0 kmh SW 15.2 mph24.5 kmh 28.78 in974.6 mb 0.00 in0.0 mm 0.00 in0.0 mm 0.00 in0.0 mm
06:32 PM 66.7°F19.3°C 56.2°F13.4°C 69% 9.6 mph SW15.4 kmh SW 15.2 mph24.5 kmh 28.78 in974.6 mb 0.00 in0.0 mm 0.00 in0.0 mm 0.00 in0.0 mm
06:31 PM 66.7°F19.3°C 56.2°F13.4°C 69% 12.3 mph SW19.8 kmh SW 15.2 mph24.5 kmh 28.78 in974.6 mb 0.00 in0.0 mm 0.00 in0.0 mm 0.00 in0.0 mm
06:30 PM 66.7°F19.3°C 56.2°F13.4°C 69% 13.6 mph SW21.9 kmh SW 15.2 mph24.5 kmh 28.78 in974.6 mb 0.00 in0.0 mm 0.00 in0.0 mm 0.00 in0.0 mm
06:29 PM 66.7°F19.3°C 56.2°F13.4°C 69% 9.6 mph SW15.4 kmh SW 15.2 mph24.5 kmh 28.78 in974.6 mb 0.00 in0.0 mm 0.00 in0.0 mm 0.00 in0.0 mm
06:28 PM 66.7°F19.3°C 56.2°F13.4°C 69% 8.5 mph SW13.7 kmh SW 15.2 mph24.5 kmh 28.78 in974.6 mb 0.00 in0.0 mm 0.00 in0.0 mm 0.00 in0.0 mm
06:27 PM 66.7°F19.3°C 56.7°F13.7°C 70% 10.7 mph SSW17.2 kmh SSW 15.2 mph24.5 kmh 28.78 in974.6 mb 0.00 in0.0 mm 0.00 in0.0 mm 0.00 in0.0 mm
06:26 PM 66.7°F19.3°C 56.7°F13.7°C 70% 13.2 mph SSW21.2 kmh SSW 15.2 mph24.5 kmh 28.78 in974.6 mb 0.00 in0.0 mm 0.00 in0.0 mm 0.00 in0.0 mm
06:25 PM 66.7°F19.3°C 56.7°F13.7°C 70% 9.2 mph S14.8 kmh S 15.2 mph24.5 kmh 28.78 in974.6 mb 0.00 in0.0 mm 0.00 in0.0 mm 0.00 in0.0 mm
06:24 PM 66.7°F19.3°C 56.7°F13.7°C 70% 10.5 mph S16.9 kmh S 15.2 mph24.5 kmh 28.78 in974.6 mb 0.00 in0.0 mm 0.00 in0.0 mm 0.00 in0.0 mm
06:23 PM 66.6°F19.2°C 56.5°F13.6°C 70% 8.3 mph S13.4 kmh S 13.9 mph22.4 kmh 28.78 in974.6 mb 0.00 in0.0 mm 0.00 in0.0 mm 0.00 in0.0 mm
06:22 PM 66.6°F19.2°C 56.5°F13.6°C 70% 11.2 mph SSE18.0 kmh SSE 13.9 mph22.4 kmh 28.78 in974.6 mb 0.00 in0.0 mm 0.00 in0.0 mm 0.00 in0.0 mm
06:21 PM 66.6°F19.2°C 56.5°F13.6°C 70% 7.8 mph SSE12.6 kmh SSE 13.9 mph22.4 kmh 28.78 in974.6 mb 0.00 in0.0 mm 0.00 in0.0 mm 0.00 in0.0 mm
06:20 PM 66.6°F19.2°C 56.5°F13.6°C 70% 8.3 mph SSE13.4 kmh SSE 13.9 mph22.4 kmh 28.78 in974.6 mb 0.00 in0.0 mm 0.00 in0.0 mm 0.00 in0.0 mm
06:19 PM 66.6°F19.2°C 56.5°F13.6°C 70% 9.8 mph SSE15.8 kmh SSE 13.9 mph22.4 kmh 28.78 in974.6 mb 0.00 in0.0 mm 0.00 in0.0 mm 0.00 in0.0 mm
06:18 PM 66.6°F19.2°C 56.5°F13.6°C 70% 8.3 mph SSE13.4 kmh SSE 13.9 mph22.4 kmh 28.79 in974.9 mb 0.00 in0.0 mm 0.00 in0.0 mm 0.00 in0.0 mm
06:17 PM 66.4°F19.1°C 56.3°F13.5°C 70% 10.3 mph SSE16.6 kmh SSE 16.6 mph26.7 kmh 28.78 in974.6 mb 0.00 in0.0 mm 0.00 in0.0 mm 0.00 in0.0 mm
06:16 PM 66.4°F19.1°C 56.3°F13.5°C 70% 7.2 mph SSE11.6 kmh SSE 16.6 mph26.7 kmh 28.79 in974.9 mb 0.00 in0.0 mm 0.00 in0.0 mm 0.00 in0.0 mm
06:15 PM 66.4°F19.1°C 56.3°F13.5°C 70% 12.5 mph SSE20.1 kmh SSE 16.6 mph26.7 kmh 28.78 in974.6 mb 0.00 in0.0 mm 0.00 in0.0 mm 0.00 in0.0 mm
06:14 PM 66.4°F19.1°C 56.3°F13.5°C 70% 9.4 mph SE15.1 kmh SE 16.6 mph26.7 kmh 28.79 in974.9 mb 0.00 in0.0 mm 0.00 in0.0 mm 0.00 in0.0 mm
06:13 PM 66.4°F19.1°C 55.9°F13.3°C 69% 9.4 mph SE15.1 kmh SE 16.6 mph26.7 kmh 28.78 in974.6 mb 0.00 in0.0 mm 0.00 in0.0 mm 0.00 in0.0 mm
06:12 PM 66.4°F19.1°C 55.9°F13.3°C 69% 6.3 mph SE10.1 kmh SE 16.6 mph26.7 kmh 28.78 in974.6 mb 0.00 in0.0 mm 0.00 in0.0 mm 0.00 in0.0 mm
06:11 PM 66.6°F19.2°C 56.0°F13.3°C 69% 8.1 mph SE13.0 kmh SE 16.6 mph26.7 kmh 28.78 in974.6 mb 0.00 in0.0 mm 0.00 in0.0 mm 0.00 in0.0 mm
06:10 PM 66.4°F19.1°C 55.9°F13.3°C 69% 6.9 mph SE11.1 kmh SE 16.6 mph26.7 kmh 28.78 in974.6 mb 0.00 in0.0 mm 0.00 in0.0 mm 0.00 in0.0 mm
06:09 PM 66.6°F19.2°C 56.0°F13.3°C 69% 11.0 mph SE17.7 kmh SE 16.6 mph26.7 kmh 28.78 in974.6 mb 0.00 in0.0 mm 0.00 in0.0 mm 0.00 in0.0 mm
06:08 PM 66.6°F19.2°C 56.5°F13.6°C 70% 12.1 mph SE19.5 kmh SE 16.6 mph26.7 kmh 28.78 in974.6 mb 0.00 in0.0 mm 0.00 in0.0 mm 0.00 in0.0 mm
06:07 PM 66.6°F19.2°C 56.0°F13.3°C 69% 10.1 mph SE16.3 kmh SE 13.2 mph21.2 kmh 28.78 in974.6 mb 0.00 in0.0 mm 0.00 in0.0 mm 0.00 in0.0 mm
06:06 PM 66.6°F19.2°C 56.0°F13.3°C 69% 10.7 mph SE17.2 kmh SE 13.4 mph21.6 kmh 28.78 in974.6 mb 0.00 in0.0 mm 0.00 in0.0 mm 0.00 in0.0 mm
06:05 PM 66.6°F19.2°C 56.0°F13.3°C 69% 10.5 mph SE16.9 kmh SE 13.4 mph21.6 kmh 28.78 in974.6 mb 0.00 in0.0 mm 0.00 in0.0 mm 0.00 in0.0 mm
06:04 PM 66.6°F19.2°C 56.5°F13.6°C 70% 5.1 mph S8.2 kmh S 15.7 mph25.3 kmh 28.78 in974.6 mb 0.00 in0.0 mm 0.00 in0.0 mm 0.00 in0.0 mm
06:03 PM 66.6°F19.2°C 56.5°F13.6°C 70% 8.3 mph SSW13.4 kmh SSW 15.7 mph25.3 kmh 28.78 in974.6 mb 0.00 in0.0 mm 0.00 in0.0 mm 0.00 in0.0 mm
06:02 PM 66.6°F19.2°C 56.5°F13.6°C 70% 6.7 mph SW10.8 kmh SW 15.7 mph25.3 kmh 28.78 in974.6 mb 0.00 in0.0 mm 0.00 in0.0 mm 0.00 in0.0 mm
06:01 PM 66.4°F19.1°C 56.3°F13.5°C 70% 8.5 mph SW13.7 kmh SW 15.7 mph25.3 kmh 28.78 in974.6 mb 0.00 in0.0 mm 0.00 in0.0 mm 0.00 in0.0 mm
06:00 PM 66.4°F19.1°C 56.3°F13.5°C 70% 11.0 mph SW17.7 kmh SW 15.7 mph25.3 kmh 28.78 in974.6 mb 0.00 in0.0 mm 0.00 in0.0 mm 0.00 in0.0 mm
05:59 PM 66.4°F19.1°C 56.3°F13.5°C 70% 10.1 mph SW16.3 kmh SW 15.7 mph25.3 kmh 28.78 in974.6 mb 0.00 in0.0 mm 0.00 in0.0 mm 0.00 in0.0 mm
05:58 PM 66.4°F19.1°C 56.3°F13.5°C 70% 13.2 mph SW21.2 kmh SW 15.7 mph25.3 kmh 28.78 in974.6 mb 0.00 in0.0 mm 0.00 in0.0 mm 0.00 in0.0 mm
05:57 PM 66.4°F19.1°C 56.3°F13.5°C 70% 7.6 mph SSW12.2 kmh SSW 15.7 mph25.3 kmh 28.78 in974.6 mb 0.00 in0.0 mm 0.00 in0.0 mm 0.00 in0.0 mm
05:56 PM 66.4°F19.1°C 56.3°F13.5°C 70% 11.9 mph S19.2 kmh S 15.7 mph25.3 kmh 28.78 in974.6 mb 0.00 in0.0 mm 0.00 in0.0 mm 0.00 in0.0 mm
05:55 PM 66.4°F19.1°C 56.3°F13.5°C 70% 13.4 mph S21.6 kmh S 15.7 mph25.3 kmh 28.78 in974.6 mb 0.00 in0.0 mm 0.00 in0.0 mm 0.00 in0.0 mm
05:54 PM 66.4°F19.1°C 56.3°F13.5°C 70% 14.5 mph SSE23.3 kmh SSE 14.5 mph23.3 kmh 28.78 in974.6 mb 0.00 in0.0 mm 0.00 in0.0 mm 0.00 in0.0 mm
05:53 PM 66.4°F19.1°C 56.3°F13.5°C 70% 6.3 mph SE10.1 kmh SE 14.3 mph23.0 kmh 28.78 in974.6 mb 0.00 in0.0 mm 0.00 in0.0 mm 0.00 in0.0 mm
05:52 PM 66.2°F19.0°C 56.1°F13.4°C 70% 8.1 mph SE13.0 kmh SE 14.3 mph23.0 kmh 28.78 in974.6 mb 0.00 in0.0 mm 0.00 in0.0 mm 0.00 in0.0 mm
05:51 PM 66.2°F19.0°C 56.1°F13.4°C 70% 8.3 mph SE13.4 kmh SE 14.3 mph23.0 kmh 28.78 in974.6 mb 0.00 in0.0 mm 0.00 in0.0 mm 0.00 in0.0 mm
05:50 PM 66.4°F19.1°C 56.3°F13.5°C 70% 8.5 mph SE13.7 kmh SE 11.4 mph18.3 kmh 28.78 in974.6 mb 0.00 in0.0 mm 0.00 in0.0 mm 0.00 in0.0 mm
05:49 PM 66.4°F19.1°C 56.3°F13.5°C 70% 8.7 mph SE14.0 kmh SE 11.4 mph18.3 kmh 28.78 in974.6 mb 0.00 in0.0 mm 0.00 in0.0 mm 0.00 in0.0 mm
05:48 PM 66.4°F19.1°C 56.3°F13.5°C 70% 8.3 mph SE13.4 kmh SE 11.4 mph18.3 kmh 28.78 in974.6 mb 0.00 in0.0 mm 0.00 in0.0 mm 0.00 in0.0 mm
05:47 PM 66.4°F19.1°C 56.3°F13.5°C 70% 7.4 mph SE11.9 kmh SE 11.4 mph18.3 kmh 28.78 in974.6 mb 0.00 in0.0 mm 0.00 in0.0 mm 0.00 in0.0 mm
05:46 PM 66.4°F19.1°C 56.3°F13.5°C 70% 10.7 mph SE17.2 kmh SE 11.0 mph17.7 kmh 28.78 in974.6 mb 0.00 in0.0 mm 0.00 in0.0 mm 0.00 in0.0 mm
05:45 PM 66.4°F19.1°C 56.3°F13.5°C 70% 8.9 mph ESE14.3 kmh ESE 10.3 mph16.6 kmh 28.78 in974.6 mb 0.00 in0.0 mm 0.00 in0.0 mm 0.00 in0.0 mm
05:44 PM 66.2°F19.0°C 56.1°F13.4°C 70% 6.9 mph SE11.1 kmh SE 10.3 mph16.6 kmh 28.78 in974.6 mb 0.00 in0.0 mm 0.00 in0.0 mm 0.00 in0.0 mm
05:43 PM 66.4°F19.1°C 55.9°F13.3°C 69% 6.0 mph SE9.7 kmh SE 11.9 mph19.2 kmh 28.78 in974.6 mb 0.00 in0.0 mm 0.00 in0.0 mm 0.00 in0.0 mm
05:42 PM 66.2°F19.0°C 55.7°F13.2°C 69% 7.6 mph SE12.2 kmh SE 11.9 mph19.2 kmh 28.78 in974.6 mb 0.00 in0.0 mm 0.00 in0.0 mm 0.00 in0.0 mm
05:41 PM 66.2°F19.0°C 55.7°F13.2°C 69% 5.4 mph SE8.7 kmh SE 11.9 mph19.2 kmh 28.78 in974.6 mb 0.00 in0.0 mm 0.00 in0.0 mm 0.00 in0.0 mm
05:40 PM 66.2°F19.0°C 55.7°F13.2°C 69% 6.3 mph SE10.1 kmh SE 11.9 mph19.2 kmh 28.78 in974.6 mb 0.00 in0.0 mm 0.00 in0.0 mm 0.00 in0.0 mm
05:39 PM 66.2°F19.0°C 55.7°F13.2°C 69% 5.8 mph SE9.3 kmh SE 11.9 mph19.2 kmh 28.78 in974.6 mb 0.00 in0.0 mm 0.00 in0.0 mm 0.00 in0.0 mm
05:38 PM 66.2°F19.0°C 55.7°F13.2°C 69% 5.6 mph SE9.0 kmh SE 11.9 mph19.2 kmh 28.78 in974.6 mb 0.00 in0.0 mm 0.00 in0.0 mm 0.00 in0.0 mm
05:37 PM 66.4°F19.1°C 55.9°F13.3°C 69% 6.5 mph SE10.5 kmh SE 11.9 mph19.2 kmh 28.78 in974.6 mb 0.00 in0.0 mm 0.00 in0.0 mm 0.00 in0.0 mm
05:36 PM 66.2°F19.0°C 55.7°F13.2°C 69% 5.6 mph SE9.0 kmh SE 11.9 mph19.2 kmh 28.78 in974.6 mb 0.00 in0.0 mm 0.00 in0.0 mm 0.00 in0.0 mm
05:35 PM 66.2°F19.0°C 55.3°F12.9°C 68% 3.6 mph SE5.8 kmh SE 11.9 mph19.2 kmh 28.78 in974.6 mb 0.00 in0.0 mm 0.00 in0.0 mm 0.00 in0.0 mm
05:34 PM 66.4°F19.1°C 55.5°F13.1°C 68% 9.2 mph SE14.8 kmh SE 11.9 mph19.2 kmh 28.78 in974.6 mb 0.00 in0.0 mm 0.00 in0.0 mm 0.00 in0.0 mm
05:33 PM 66.4°F19.1°C 55.5°F13.1°C 68% 11.9 mph SE19.2 kmh SE 11.9 mph19.2 kmh 28.78 in974.6 mb 0.00 in0.0 mm 0.00 in0.0 mm 0.00 in0.0 mm
05:32 PM 66.4°F19.1°C 55.5°F13.1°C 68% 8.7 mph ESE14.0 kmh ESE 11.9 mph19.2 kmh 28.78 in974.6 mb 0.00 in0.0 mm 0.00 in0.0 mm 0.00 in0.0 mm
05:31 PM 66.4°F19.1°C 55.5°F13.1°C 68% 8.9 mph ESE14.3 kmh ESE 11.9 mph19.2 kmh 28.78 in974.6 mb 0.00 in0.0 mm 0.00 in0.0 mm 0.00 in0.0 mm
05:30 PM 66.4°F19.1°C 55.5°F13.1°C 68% 9.6 mph ESE15.4 kmh ESE 11.9 mph19.2 kmh 28.78 in974.6 mb 0.00 in0.0 mm 0.00 in0.0 mm 0.00 in0.0 mm
05:29 PM 66.4°F19.1°C 55.5°F13.1°C 68% 11.2 mph ESE18.0 kmh ESE 11.9 mph19.2 kmh 28.78 in974.6 mb 0.00 in0.0 mm 0.00 in0.0 mm 0.00 in0.0 mm
05:28 PM 66.4°F19.1°C 55.5°F13.1°C 68% 6.0 mph ESE9.7 kmh ESE 11.9 mph19.2 kmh 28.78 in974.6 mb 0.00 in0.0 mm 0.00 in0.0 mm 0.00 in0.0 mm
05:27 PM 66.4°F19.1°C 55.5°F13.1°C 68% 5.1 mph ESE8.2 kmh ESE 11.9 mph19.2 kmh 28.78 in974.6 mb 0.00 in0.0 mm 0.00 in0.0 mm 0.00 in0.0 mm
05:26 PM 66.4°F19.1°C 55.5°F13.1°C 68% 10.1 mph ESE16.3 kmh ESE 11.9 mph19.2 kmh 28.78 in974.6 mb 0.00 in0.0 mm 0.00 in0.0 mm 0.00 in0.0 mm
05:25 PM 66.4°F19.1°C 55.5°F13.1°C 68% 8.5 mph ESE13.7 kmh ESE 11.9 mph19.2 kmh 28.78 in974.6 mb 0.00 in0.0 mm 0.00 in0.0 mm 0.00 in0.0 mm
05:24 PM 66.6°F19.2°C 55.6°F13.1°C 68% 8.1 mph ESE13.0 kmh ESE 12.3 mph19.8 kmh 28.78 in974.6 mb 0.00 in0.0 mm 0.00 in0.0 mm 0.00 in0.0 mm
05:23 PM 66.6°F19.2°C 55.6°F13.1°C 68% 7.6 mph ESE12.2 kmh ESE 12.3 mph19.8 kmh 28.78 in974.6 mb 0.00 in0.0 mm 0.00 in0.0 mm 0.00 in0.0 mm
05:22 PM 66.7°F19.3°C 55.4°F13.0°C 67% 6.5 mph ESE10.5 kmh ESE 12.3 mph19.8 kmh 28.78 in974.6 mb 0.00 in0.0 mm 0.00 in0.0 mm 0.00 in0.0 mm
05:21 PM 66.7°F19.3°C 55.4°F13.0°C 67% 6.5 mph ESE10.5 kmh ESE 12.3 mph19.8 kmh 28.78 in974.6 mb 0.00 in0.0 mm 0.00 in0.0 mm 0.00 in0.0 mm
05:20 PM 66.7°F19.3°C 55.4°F13.0°C 67% 4.7 mph ESE7.6 kmh ESE 12.3 mph19.8 kmh 28.78 in974.6 mb 0.00 in0.0 mm 0.00 in0.0 mm 0.00 in0.0 mm
05:19 PM 66.7°F19.3°C 55.4°F13.0°C 67% 9.4 mph SE15.1 kmh SE 12.3 mph19.8 kmh 28.78 in974.6 mb 0.00 in0.0 mm 0.00 in0.0 mm 0.00 in0.0 mm
05:18 PM 66.9°F19.4°C 55.1°F12.8°C 66% 5.8 mph SE9.3 kmh SE 15.7 mph25.3 kmh 28.78 in974.6 mb 0.00 in0.0 mm 0.00 in0.0 mm 0.00 in0.0 mm
05:17 PM 66.9°F19.4°C 55.1°F12.8°C 66% 9.6 mph SE15.4 kmh SE 15.7 mph25.3 kmh 28.78 in974.6 mb 0.00 in0.0 mm 0.00 in0.0 mm 0.00 in0.0 mm
05:16 PM 67.1°F19.5°C 55.3°F12.9°C 66% 6.5 mph SE10.5 kmh SE 15.7 mph25.3 kmh 28.78 in974.6 mb 0.00 in0.0 mm 0.00 in0.0 mm 0.00 in0.0 mm
05:15 PM 67.3°F19.6°C 55.9°F13.3°C 67% 11.2 mph ESE18.0 kmh ESE 15.7 mph25.3 kmh 28.78 in974.6 mb 0.00 in0.0 mm 0.00 in0.0 mm 0.00 in0.0 mm
05:14 PM 67.3°F19.6°C 55.5°F13.1°C 66% 10.5 mph ESE16.9 kmh ESE 15.7 mph25.3 kmh 28.78 in974.6 mb 0.00 in0.0 mm 0.00 in0.0 mm 0.00 in0.0 mm
05:13 PM 67.5°F19.7°C 55.7°F13.2°C 66% 6.3 mph ESE10.1 kmh ESE 15.7 mph25.3 kmh 28.78 in974.6 mb 0.00 in0.0 mm 0.00 in0.0 mm 0.00 in0.0 mm
05:12 PM 67.6°F19.8°C 55.8°F13.2°C 66% 7.6 mph SE12.2 kmh SE 15.7 mph25.3 kmh 28.78 in974.6 mb 0.00 in0.0 mm 0.00 in0.0 mm 0.00 in0.0 mm
05:11 PM 67.6°F19.8°C 55.8°F13.2°C 66% 10.7 mph SE17.2 kmh SE 15.7 mph25.3 kmh 28.78 in974.6 mb 0.00 in0.0 mm 0.00 in0.0 mm 0.00 in0.0 mm
05:10 PM 67.8°F19.9°C 56.0°F13.3°C 66% 7.4 mph SE11.9 kmh SE 15.7 mph25.3 kmh 28.78 in974.6 mb 0.00 in0.0 mm 0.00 in0.0 mm 0.00 in0.0 mm
05:09 PM 67.8°F19.9°C 56.0°F13.3°C 66% 6.9 mph SE11.1 kmh SE 15.7 mph25.3 kmh 28.78 in974.6 mb 0.00 in0.0 mm 0.00 in0.0 mm 0.00 in0.0 mm
05:08 PM 67.8°F19.9°C 56.0°F13.3°C 66% 8.9 mph SE14.3 kmh SE 13.9 mph22.4 kmh 28.78 in974.6 mb 0.00 in0.0 mm 0.00 in0.0 mm 0.00 in0.0 mm
05:07 PM 68.2°F20.1°C 56.4°F13.6°C 66% 9.4 mph SE15.1 kmh SE 13.9 mph22.4 kmh 28.78 in974.6 mb 0.00 in0.0 mm 0.00 in0.0 mm 0.00 in0.0 mm
05:06 PM 68.2°F20.1°C 56.4°F13.6°C 66% 8.7 mph SE14.0 kmh SE 13.9 mph22.4 kmh 28.78 in974.6 mb 0.00 in0.0 mm 0.00 in0.0 mm 0.00 in0.0 mm
05:05 PM 68.4°F20.2°C 56.5°F13.6°C 66% 7.8 mph SE12.6 kmh SE 13.9 mph22.4 kmh 28.78 in974.6 mb 0.00 in0.0 mm 0.00 in0.0 mm 0.00 in0.0 mm
05:04 PM 68.5°F20.3°C 56.7°F13.7°C 66% 8.3 mph SE13.4 kmh SE 13.9 mph22.4 kmh 28.78 in974.6 mb 0.00 in0.0 mm 0.00 in0.0 mm 0.00 in0.0 mm
05:03 PM 68.5°F20.3°C 56.7°F13.7°C 66% 10.7 mph SE17.2 kmh SE 13.9 mph22.4 kmh 28.78 in974.6 mb 0.00 in0.0 mm 0.00 in0.0 mm 0.00 in0.0 mm
05:02 PM 68.7°F20.4°C 56.9°F13.8°C 66% 10.1 mph SE16.3 kmh SE 13.9 mph22.4 kmh 28.78 in974.6 mb 0.00 in0.0 mm 0.00 in0.0 mm 0.00 in0.0 mm
05:01 PM 68.7°F20.4°C 56.9°F13.8°C 66% 13.0 mph SE20.9 kmh SE 13.9 mph22.4 kmh 28.78 in974.6 mb 0.00 in0.0 mm 0.00 in0.0 mm 0.00 in0.0 mm
05:00 PM 68.9°F20.5°C 57.0°F13.9°C 66% 7.6 mph SSE12.2 kmh SSE 13.9 mph22.4 kmh 28.78 in974.6 mb 0.00 in0.0 mm 0.00 in0.0 mm 0.00 in0.0 mm
04:59 PM 68.9°F20.5°C 57.5°F14.2°C 67% 12.5 mph S20.1 kmh S 13.9 mph22.4 kmh 28.78 in974.6 mb 0.00 in0.0 mm 0.00 in0.0 mm 0.00 in0.0 mm
04:58 PM 68.9°F20.5°C 57.5°F14.2°C 67% 13.9 mph SSW22.4 kmh SSW 13.9 mph22.4 kmh 28.78 in974.6 mb 0.00 in0.0 mm 0.00 in0.0 mm 0.00 in0.0 mm
04:57 PM 68.9°F20.5°C 57.5°F14.2°C 67% 6.3 mph SW10.1 kmh SW 13.2 mph21.2 kmh 28.78 in974.6 mb 0.00 in0.0 mm 0.00 in0.0 mm 0.00 in0.0 mm
04:56 PM 68.9°F20.5°C 57.9°F14.4°C 68% 8.1 mph SW13.0 kmh SW 13.2 mph21.2 kmh 28.79 in974.9 mb 0.00 in0.0 mm 0.00 in0.0 mm 0.00 in0.0 mm
04:55 PM 68.7°F20.4°C 57.7°F14.3°C 68% 8.7 mph SW14.0 kmh SW 13.2 mph21.2 kmh 28.79 in974.9 mb 0.00 in0.0 mm 0.00 in0.0 mm 0.00 in0.0 mm
04:54 PM 68.7°F20.4°C 57.3°F14.1°C 67% 10.7 mph SW17.2 kmh SW 13.2 mph21.2 kmh 28.79 in974.9 mb 0.00 in0.0 mm 0.00 in0.0 mm 0.00 in0.0 mm
04:53 PM 68.7°F20.4°C 57.3°F14.1°C 67% 4.0 mph WSW6.4 kmh WSW 13.2 mph21.2 kmh 28.78 in974.6 mb 0.00 in0.0 mm 0.00 in0.0 mm 0.00 in0.0 mm
04:52 PM 68.7°F20.4°C 57.3°F14.1°C 67% 8.3 mph WSW13.4 kmh WSW 13.2 mph21.2 kmh 28.78 in974.6 mb 0.00 in0.0 mm 0.00 in0.0 mm 0.00 in0.0 mm
04:51 PM 68.7°F20.4°C 57.3°F14.1°C 67% 8.3 mph WSW13.4 kmh WSW 13.2 mph21.2 kmh 28.78 in974.6 mb 0.00 in0.0 mm 0.00 in0.0 mm 0.00 in0.0 mm
04:50 PM 68.7°F20.4°C 57.3°F14.1°C 67% 12.1 mph WSW19.5 kmh WSW 13.2 mph21.2 kmh 28.79 in974.9 mb 0.00 in0.0 mm 0.00 in0.0 mm 0.00 in0.0 mm
04:49 PM 68.9°F20.5°C 57.5°F14.2°C 67% 8.9 mph WSW14.3 kmh WSW 13.2 mph21.2 kmh 28.79 in974.9 mb 0.00 in0.0 mm 0.00 in0.0 mm 0.00 in0.0 mm
04:48 PM 68.9°F20.5°C 57.5°F14.2°C 67% 6.9 mph WSW11.1 kmh WSW 12.8 mph20.6 kmh 28.79 in974.9 mb 0.00 in0.0 mm 0.00 in0.0 mm 0.00 in0.0 mm
04:47 PM 68.9°F20.5°C 57.5°F14.2°C 67% 8.1 mph WSW13.0 kmh WSW 12.8 mph20.6 kmh 28.79 in974.9 mb 0.00 in0.0 mm 0.00 in0.0 mm 0.00 in0.0 mm
04:46 PM 68.7°F20.4°C 57.7°F14.3°C 68% 11.4 mph WSW18.3 kmh WSW 12.8 mph20.6 kmh 28.79 in974.9 mb 0.00 in0.0 mm 0.00 in0.0 mm 0.00 in0.0 mm
04:45 PM 68.7°F20.4°C 57.7°F14.3°C 68% 11.4 mph WSW18.3 kmh WSW 12.8 mph20.6 kmh 28.79 in974.9 mb 0.00 in0.0 mm 0.00 in0.0 mm 0.00 in0.0 mm
04:44 PM 68.7°F20.4°C 58.1°F14.5°C 69% 7.4 mph WSW11.9 kmh WSW 12.8 mph20.6 kmh 28.79 in974.9 mb 0.00 in0.0 mm 0.00 in0.0 mm 0.00 in0.0 mm
04:43 PM 68.5°F20.3°C 57.5°F14.2°C 68% 4.3 mph SW6.9 kmh SW 12.8 mph20.6 kmh 28.79 in974.9 mb 0.00 in0.0 mm 0.00 in0.0 mm 0.00 in0.0 mm
04:42 PM 68.7°F20.4°C 57.7°F14.3°C 68% 6.5 mph SW10.5 kmh SW 12.8 mph20.6 kmh 28.79 in974.9 mb 0.00 in0.0 mm 0.00 in0.0 mm 0.00 in0.0 mm
04:41 PM 68.7°F20.4°C 58.1°F14.5°C 69% 10.5 mph SW16.9 kmh SW 12.8 mph20.6 kmh 28.79 in974.9 mb 0.00 in0.0 mm 0.00 in0.0 mm 0.00 in0.0 mm
04:40 PM 68.7°F20.4°C 58.1°F14.5°C 69% 8.1 mph SW13.0 kmh SW 11.0 mph17.7 kmh 28.79 in974.9 mb 0.00 in0.0 mm 0.00 in0.0 mm 0.00 in0.0 mm
04:39 PM 68.7°F20.4°C 58.1°F14.5°C 69% 5.8 mph SW9.3 kmh SW 11.0 mph17.7 kmh 28.79 in974.9 mb 0.00 in0.0 mm 0.00 in0.0 mm 0.00 in0.0 mm
04:38 PM 68.5°F20.3°C 58.4°F14.7°C 70% 6.5 mph SW10.5 kmh SW 11.2 mph18.0 kmh 28.79 in974.9 mb 0.00 in0.0 mm 0.00 in0.0 mm 0.00 in0.0 mm
04:37 PM 68.5°F20.3°C 58.4°F14.7°C 70% 8.1 mph SW13.0 kmh SW 11.2 mph18.0 kmh 28.79 in974.9 mb 0.00 in0.0 mm 0.00 in0.0 mm 0.00 in0.0 mm
04:36 PM 68.5°F20.3°C 58.4°F14.7°C 70% 6.7 mph SSW10.8 kmh SSW 11.2 mph18.0 kmh 28.79 in974.9 mb 0.00 in0.0 mm 0.00 in0.0 mm 0.00 in0.0 mm
04:35 PM 68.5°F20.3°C 58.4°F14.7°C 70% 6.3 mph S10.1 kmh S 11.2 mph18.0 kmh 28.79 in974.9 mb 0.00 in0.0 mm 0.00 in0.0 mm 0.00 in0.0 mm
04:34 PM 68.4°F20.2°C 58.6°F14.8°C 71% 8.7 mph S14.0 kmh S 11.2 mph18.0 kmh 28.80 in975.3 mb 0.00 in0.0 mm 0.00 in0.0 mm 0.00 in0.0 mm
04:33 PM 68.2°F20.1°C 58.5°F14.7°C 71% 9.2 mph S14.8 kmh S 11.2 mph18.0 kmh 28.79 in974.9 mb 0.00 in0.0 mm 0.00 in0.0 mm 0.00 in0.0 mm
04:32 PM 67.8°F19.9°C 58.5°F14.7°C 72% 8.1 mph S13.0 kmh S 11.2 mph18.0 kmh 28.79 in974.9 mb 0.00 in0.0 mm 0.00 in0.0 mm 0.00 in0.0 mm
04:31 PM 67.8°F19.9°C 58.5°F14.7°C 72% 8.3 mph S13.4 kmh S 11.2 mph18.0 kmh 28.80 in975.3 mb 0.00 in0.0 mm 0.00 in0.0 mm 0.00 in0.0 mm
04:30 PM 67.6°F19.8°C 58.3°F14.6°C 72% 5.1 mph S8.2 kmh S 11.2 mph18.0 kmh 28.80 in975.3 mb 0.00 in0.0 mm 0.00 in0.0 mm 0.00 in0.0 mm
04:29 PM 67.3°F19.6°C 58.0°F14.4°C 72% 7.6 mph S12.2 kmh S 11.2 mph18.0 kmh 28.80 in975.3 mb 0.00 in0.0 mm 0.00 in0.0 mm 0.00 in0.0 mm
04:28 PM 67.3°F19.6°C 58.0°F14.4°C 72% 5.1 mph SSE8.2 kmh SSE 10.3 mph16.6 kmh 28.80 in975.3 mb 0.00 in0.0 mm 0.00 in0.0 mm 0.00 in0.0 mm
04:27 PM 66.9°F19.4°C 58.0°F14.4°C 73% 6.0 mph S9.7 kmh S 10.3 mph16.6 kmh 28.80 in975.3 mb 0.00 in0.0 mm 0.00 in0.0 mm 0.00 in0.0 mm
04:26 PM 66.7°F19.3°C 57.8°F14.3°C 73% 6.7 mph S10.8 kmh S 10.3 mph16.6 kmh 28.80 in975.3 mb 0.00 in0.0 mm 0.00 in0.0 mm 0.00 in0.0 mm
04:25 PM 66.6°F19.2°C 57.6°F14.2°C 73% 9.8 mph S15.8 kmh S 10.3 mph16.6 kmh 28.80 in975.3 mb 0.00 in0.0 mm 0.00 in0.0 mm 0.00 in0.0 mm
04:24 PM 66.4°F19.1°C 57.4°F14.1°C 73% 7.2 mph S11.6 kmh S 10.3 mph16.6 kmh 28.80 in975.3 mb 0.00 in0.0 mm 0.00 in0.0 mm 0.00 in0.0 mm
04:23 PM 66.4°F19.1°C 57.4°F14.1°C 73% 9.4 mph S15.1 kmh S 10.3 mph16.6 kmh 28.80 in975.3 mb 0.00 in0.0 mm 0.00 in0.0 mm 0.00 in0.0 mm
04:22 PM 66.0°F18.9°C 57.1°F13.9°C 73% 4.7 mph S7.6 kmh S 10.3 mph16.6 kmh 28.80 in975.3 mb 0.00 in0.0 mm 0.00 in0.0 mm 0.00 in0.0 mm
04:21 PM 65.8°F18.8°C 56.9°F13.8°C 73% 7.6 mph S12.2 kmh S 11.0 mph17.7 kmh 28.80 in975.3 mb 0.00 in0.0 mm 0.00 in0.0 mm 0.00 in0.0 mm
04:20 PM 65.5°F18.6°C 56.6°F13.7°C 73% 8.7 mph S14.0 kmh S 12.5 mph20.1 kmh 28.80 in975.3 mb 0.00 in0.0 mm 0.00 in0.0 mm 0.00 in0.0 mm
04:19 PM 65.5°F18.6°C 56.6°F13.7°C 73% 4.9 mph SSE7.9 kmh SSE 12.5 mph20.1 kmh 28.80 in975.3 mb 0.00 in0.0 mm 0.00 in0.0 mm 0.00 in0.0 mm
04:18 PM 65.3°F18.5°C 56.0°F13.3°C 72% 4.5 mph SSE7.2 kmh SSE 13.4 mph21.6 kmh 28.80 in975.3 mb 0.00 in0.0 mm 0.00 in0.0 mm 0.00 in0.0 mm
04:17 PM 65.3°F18.5°C 56.0°F13.3°C 72% 6.5 mph SSE10.5 kmh SSE 14.5 mph23.3 kmh 28.80 in975.3 mb 0.00 in0.0 mm 0.00 in0.0 mm 0.00 in0.0 mm
04:16 PM 65.3°F18.5°C 56.0°F13.3°C 72% 5.6 mph SSE9.0 kmh SSE 14.5 mph23.3 kmh 28.80 in975.3 mb 0.00 in0.0 mm 0.00 in0.0 mm 0.00 in0.0 mm
04:15 PM 65.3°F18.5°C 56.0°F13.3°C 72% 6.9 mph SSE11.1 kmh SSE 14.5 mph23.3 kmh 28.80 in975.3 mb 0.00 in0.0 mm 0.00 in0.0 mm 0.00 in0.0 mm
04:14 PM 65.3°F18.5°C 56.0°F13.3°C 72% 7.8 mph SSE12.6 kmh SSE 14.5 mph23.3 kmh 28.80 in975.3 mb 0.00 in0.0 mm 0.00 in0.0 mm 0.00 in0.0 mm
04:13 PM 65.3°F18.5°C 56.0°F13.3°C 72% 9.4 mph SSE15.1 kmh SSE 14.5 mph23.3 kmh 28.80 in975.3 mb 0.00 in0.0 mm 0.00 in0.0 mm 0.00 in0.0 mm
04:12 PM 65.5°F18.6°C 56.2°F13.4°C 72% 7.6 mph SSE12.2 kmh SSE 14.5 mph23.3 kmh 28.80 in975.3 mb 0.00 in0.0 mm 0.00 in0.0 mm 0.00 in0.0 mm
04:11 PM 65.5°F18.6°C 56.2°F13.4°C 72% 8.3 mph SSE13.4 kmh SSE 14.5 mph23.3 kmh 28.80 in975.3 mb 0.00 in0.0 mm 0.00 in0.0 mm 0.00 in0.0 mm
04:10 PM 65.5°F18.6°C 56.2°F13.4°C 72% 10.3 mph SSE16.6 kmh SSE 14.5 mph23.3 kmh 28.80 in975.3 mb 0.00 in0.0 mm 0.00 in0.0 mm 0.00 in0.0 mm
04:09 PM 65.5°F18.6°C 56.2°F13.4°C 72% 9.8 mph SSE15.8 kmh SSE 14.5 mph23.3 kmh 28.80 in975.3 mb 0.00 in0.0 mm 0.00 in0.0 mm 0.00 in0.0 mm
04:08 PM 65.5°F18.6°C 56.2°F13.4°C 72% 7.8 mph SSE12.6 kmh SSE 14.5 mph23.3 kmh 28.80 in975.3 mb 0.00 in0.0 mm 0.00 in0.0 mm 0.00 in0.0 mm
04:07 PM 65.5°F18.6°C 56.6°F13.7°C 73% 14.5 mph SSE23.3 kmh SSE 14.5 mph23.3 kmh 28.80 in975.3 mb 0.00 in0.0 mm 0.00 in0.0 mm 0.00 in0.0 mm
04:06 PM 65.5°F18.6°C 56.6°F13.7°C 73% 9.6 mph SSE15.4 kmh SSE 15.4 mph24.8 kmh 28.80 in975.3 mb 0.00 in0.0 mm 0.00 in0.0 mm 0.00 in0.0 mm
04:05 PM 65.5°F18.6°C 56.6°F13.7°C 73% 9.2 mph SSE14.8 kmh SSE 15.4 mph24.8 kmh 28.80 in975.3 mb 0.00 in0.0 mm 0.00 in0.0 mm 0.00 in0.0 mm
04:04 PM 65.7°F18.7°C 56.8°F13.8°C 73% 10.3 mph SSE16.6 kmh SSE 15.4 mph24.8 kmh 28.80 in975.3 mb 0.00 in0.0 mm 0.00 in0.0 mm 0.00 in0.0 mm
04:03 PM 65.7°F18.7°C 56.8°F13.8°C 73% 8.3 mph SSE13.4 kmh SSE 15.4 mph24.8 kmh 28.80 in975.3 mb 0.00 in0.0 mm 0.00 in0.0 mm 0.00 in0.0 mm
04:02 PM 65.7°F18.7°C 56.8°F13.8°C 73% 13.4 mph SSE21.6 kmh SSE 15.4 mph24.8 kmh 28.80 in975.3 mb 0.00 in0.0 mm 0.00 in0.0 mm 0.00 in0.0 mm
04:01 PM 65.7°F18.7°C 56.8°F13.8°C 73% 9.8 mph SSE15.8 kmh SSE 15.4 mph24.8 kmh 28.80 in975.3 mb 0.00 in0.0 mm 0.00 in0.0 mm 0.00 in0.0 mm
04:00 PM 65.7°F18.7°C 56.8°F13.8°C 73% 10.3 mph SSE16.6 kmh SSE 15.4 mph24.8 kmh 28.80 in975.3 mb 0.00 in0.0 mm 0.00 in0.0 mm 0.00 in0.0 mm
03:59 PM 65.7°F18.7°C 57.1°F13.9°C 74% 9.2 mph SSE14.8 kmh SSE 15.4 mph24.8 kmh 28.81 in975.6 mb 0.00 in0.0 mm 0.00 in0.0 mm 0.00 in0.0 mm
03:58 PM 65.7°F18.7°C 57.1°F13.9°C 74% 11.0 mph SSE17.7 kmh SSE 15.4 mph24.8 kmh 28.81 in975.6 mb 0.00 in0.0 mm 0.00 in0.0 mm 0.00 in0.0 mm
03:57 PM 65.7°F18.7°C 57.1°F13.9°C 74% 11.4 mph SSE18.3 kmh SSE 15.4 mph24.8 kmh 28.81 in975.6 mb 0.00 in0.0 mm 0.00 in0.0 mm 0.00 in0.0 mm
03:56 PM 65.7°F18.7°C 57.1°F13.9°C 74% 12.5 mph SSE20.1 kmh SSE 14.1 mph22.7 kmh 28.81 in975.6 mb 0.00 in0.0 mm 0.00 in0.0 mm 0.00 in0.0 mm
03:55 PM 65.7°F18.7°C 57.1°F13.9°C 74% 13.2 mph SSE21.2 kmh SSE 14.1 mph22.7 kmh 28.81 in975.6 mb 0.00 in0.0 mm 0.00 in0.0 mm 0.00 in0.0 mm
03:54 PM 65.7°F18.7°C 57.1°F13.9°C 74% 9.8 mph SSE15.8 kmh SSE 14.1 mph22.7 kmh 28.81 in975.6 mb 0.00 in0.0 mm 0.00 in0.0 mm 0.00 in0.0 mm
03:53 PM 65.7°F18.7°C 57.1°F13.9°C 74% 12.8 mph SSE20.6 kmh SSE 13.4 mph21.6 kmh 28.81 in975.6 mb 0.00 in0.0 mm 0.00 in0.0 mm 0.00 in0.0 mm
03:52 PM 65.5°F18.6°C 57.3°F14.1°C 75% 13.2 mph SSE21.2 kmh SSE 13.2 mph21.2 kmh 28.81 in975.6 mb 0.00 in0.0 mm 0.00 in0.0 mm 0.00 in0.0 mm
03:51 PM 65.5°F18.6°C 57.3°F14.1°C 75% 7.2 mph SSE11.6 kmh SSE 12.5 mph20.1 kmh 28.81 in975.6 mb 0.00 in0.0 mm 0.00 in0.0 mm 0.00 in0.0 mm
03:50 PM 65.5°F18.6°C 57.3°F14.1°C 75% 6.0 mph SSE9.7 kmh SSE 12.5 mph20.1 kmh 28.81 in975.6 mb 0.00 in0.0 mm 0.00 in0.0 mm 0.00 in0.0 mm
03:49 PM 65.3°F18.5°C 57.1°F13.9°C 75% 8.9 mph SSE14.3 kmh SSE 12.5 mph20.1 kmh 28.81 in975.6 mb 0.00 in0.0 mm 0.00 in0.0 mm 0.00 in0.0 mm
03:48 PM 65.3°F18.5°C 57.1°F13.9°C 75% 8.5 mph SSE13.7 kmh SSE 12.1 mph19.5 kmh 28.82 in976.0 mb 0.00 in0.0 mm 0.00 in0.0 mm 0.00 in0.0 mm
03:47 PM 65.1°F18.4°C 57.0°F13.9°C 75% 9.4 mph SSE15.1 kmh SSE 12.1 mph19.5 kmh 28.82 in976.0 mb 0.00 in0.0 mm 0.00 in0.0 mm 0.00 in0.0 mm
03:46 PM 65.1°F18.4°C 57.0°F13.9°C 75% 7.6 mph SSE12.2 kmh SSE 12.1 mph19.5 kmh 28.82 in976.0 mb 0.00 in0.0 mm 0.00 in0.0 mm 0.00 in0.0 mm
03:45 PM 65.1°F18.4°C 57.0°F13.9°C 75% 6.7 mph SSE10.8 kmh SSE 12.1 mph19.5 kmh 28.82 in976.0 mb 0.00 in0.0 mm 0.00 in0.0 mm 0.00 in0.0 mm
03:44 PM 65.1°F18.4°C 57.0°F13.9°C 75% 8.7 mph SSE14.0 kmh SSE 12.1 mph19.5 kmh 28.82 in976.0 mb 0.00 in0.0 mm 0.00 in0.0 mm 0.00 in0.0 mm
03:43 PM 65.1°F18.4°C 57.0°F13.9°C 75% 5.4 mph SSE8.7 kmh SSE 12.1 mph19.5 kmh 28.83 in976.3 mb 0.00 in0.0 mm 0.00 in0.0 mm 0.00 in0.0 mm
03:42 PM 65.1°F18.4°C 57.0°F13.9°C 75% 5.8 mph SSE9.3 kmh SSE 12.1 mph19.5 kmh 28.82 in976.0 mb 0.00 in0.0 mm 0.00 in0.0 mm 0.00 in0.0 mm
03:41 PM 64.9°F18.3°C 57.2°F14.0°C 76% 10.5 mph SSE16.9 kmh SSE 12.1 mph19.5 kmh 28.82 in976.0 mb 0.00 in0.0 mm 0.00 in0.0 mm 0.00 in0.0 mm
03:40 PM 64.9°F18.3°C 57.2°F14.0°C 76% 11.6 mph SSE18.7 kmh SSE 11.6 mph18.7 kmh 28.83 in976.3 mb 0.00 in0.0 mm 0.00 in0.0 mm 0.00 in0.0 mm
03:39 PM 64.9°F18.3°C 57.2°F14.0°C 76% 9.4 mph SSE15.1 kmh SSE 11.4 mph18.3 kmh 28.83 in976.3 mb 0.00 in0.0 mm 0.00 in0.0 mm 0.00 in0.0 mm
03:38 PM 64.8°F18.2°C 57.0°F13.9°C 76% 9.2 mph SSE14.8 kmh SSE 13.0 mph20.9 kmh 28.83 in976.3 mb 0.00 in0.0 mm 0.00 in0.0 mm 0.00 in0.0 mm
03:37 PM 64.8°F18.2°C 57.0°F13.9°C 76% 2.9 mph S4.7 kmh S 13.0 mph20.9 kmh 28.83 in976.3 mb 0.00 in0.0 mm 0.00 in0.0 mm 0.00 in0.0 mm
03:36 PM 64.6°F18.1°C 56.8°F13.8°C 76% 3.1 mph S5.0 kmh S 13.0 mph20.9 kmh 28.83 in976.3 mb 0.00 in0.0 mm 0.00 in0.0 mm 0.00 in0.0 mm
03:35 PM 64.6°F18.1°C 56.8°F13.8°C 76% 6.5 mph S10.5 kmh S 13.0 mph20.9 kmh 28.83 in976.3 mb 0.00 in0.0 mm 0.00 in0.0 mm 0.00 in0.0 mm
03:34 PM 64.6°F18.1°C 57.2°F14.0°C 77% 9.6 mph S15.4 kmh S 13.0 mph20.9 kmh 28.83 in976.3 mb 0.00 in0.0 mm 0.00 in0.0 mm 0.00 in0.0 mm
03:33 PM 64.2°F17.9°C 56.8°F13.8°C 77% 3.4 mph S5.5 kmh S 13.0 mph20.9 kmh 28.83 in976.3 mb 0.00 in0.0 mm 0.00 in0.0 mm 0.00 in0.0 mm
03:32 PM 64.2°F17.9°C 56.8°F13.8°C 77% 8.3 mph SSE13.4 kmh SSE 13.0 mph20.9 kmh 28.83 in976.3 mb 0.00 in0.0 mm 0.00 in0.0 mm 0.00 in0.0 mm
03:31 PM 64.2°F17.9°C 56.8°F13.8°C 77% 7.4 mph SSE11.9 kmh SSE 13.0 mph20.9 kmh 28.83 in976.3 mb 0.00 in0.0 mm 0.00 in0.0 mm 0.00 in0.0 mm
03:30 PM 64.2°F17.9°C 56.8°F13.8°C 77% 7.4 mph SSE11.9 kmh SSE 13.0 mph20.9 kmh 28.83 in976.3 mb 0.00 in0.0 mm 0.00 in0.0 mm 0.00 in0.0 mm
03:29 PM 64.2°F17.9°C 56.8°F13.8°C 77% 6.5 mph SSE10.5 kmh SSE 14.3 mph23.0 kmh 28.83 in976.3 mb 0.00 in0.0 mm 0.00 in0.0 mm 0.00 in0.0 mm
03:28 PM 64.2°F17.9°C 56.8°F13.8°C 77% 6.7 mph SSE10.8 kmh SSE 14.3 mph23.0 kmh 28.83 in976.3 mb 0.00 in0.0 mm 0.00 in0.0 mm 0.00 in0.0 mm
03:27 PM 64.2°F17.9°C 56.8°F13.8°C 77% 11.4 mph SSE18.3 kmh SSE 15.2 mph24.5 kmh 28.83 in976.3 mb 0.00 in0.0 mm 0.00 in0.0 mm 0.00 in0.0 mm
03:26 PM 64.2°F17.9°C 56.8°F13.8°C 77% 10.3 mph SSE16.6 kmh SSE 15.2 mph24.5 kmh 28.83 in976.3 mb 0.00 in0.0 mm 0.00 in0.0 mm 0.00 in0.0 mm
03:25 PM 64.0°F17.8°C 56.7°F13.7°C 77% 8.9 mph SSE14.3 kmh SSE 15.4 mph24.8 kmh 28.83 in976.3 mb 0.00 in0.0 mm 0.00 in0.0 mm 0.00 in0.0 mm
03:24 PM 64.0°F17.8°C 56.7°F13.7°C 77% 9.6 mph SSE15.4 kmh SSE 16.8 mph27.0 kmh 28.83 in976.3 mb 0.00 in0.0 mm 0.00 in0.0 mm 0.00 in0.0 mm
03:23 PM 64.0°F17.8°C 56.7°F13.7°C 77% 10.7 mph SSE17.2 kmh SSE 16.8 mph27.0 kmh 28.83 in976.3 mb 0.00 in0.0 mm 0.00 in0.0 mm 0.00 in0.0 mm
03:22 PM 64.2°F17.9°C 56.8°F13.8°C 77% 11.4 mph SSE18.3 kmh SSE 16.8 mph27.0 kmh 28.83 in976.3 mb 0.00 in0.0 mm 0.00 in0.0 mm 0.00 in0.0 mm
03:21 PM 64.0°F17.8°C 56.7°F13.7°C 77% 9.2 mph SSE14.8 kmh SSE 16.8 mph27.0 kmh 28.83 in976.3 mb 0.00 in0.0 mm 0.00 in0.0 mm 0.00 in0.0 mm
03:20 PM 64.0°F17.8°C 56.7°F13.7°C 77% 10.5 mph SSE16.9 kmh SSE 16.8 mph27.0 kmh 28.83 in976.3 mb 0.00 in0.0 mm 0.00 in0.0 mm 0.00 in0.0 mm
03:19 PM 64.0°F17.8°C 56.7°F13.7°C 77% 12.8 mph SSE20.6 kmh SSE 16.8 mph27.0 kmh 28.83 in976.3 mb 0.00 in0.0 mm 0.00 in0.0 mm 0.00 in0.0 mm
03:18 PM 64.0°F17.8°C 57.0°F13.9°C 78% 13.2 mph SSE21.2 kmh SSE 16.8 mph27.0 kmh 28.83 in976.3 mb 0.00 in0.0 mm 0.00 in0.0 mm 0.00 in0.0 mm
03:17 PM 64.0°F17.8°C 57.0°F13.9°C 78% 14.1 mph SSE22.7 kmh SSE 16.8 mph27.0 kmh 28.83 in976.3 mb 0.00 in0.0 mm 0.00 in0.0 mm 0.00 in0.0 mm
03:16 PM 64.0°F17.8°C 57.0°F13.9°C 78% 12.1 mph SSE19.5 kmh SSE 16.8 mph27.0 kmh 28.83 in976.3 mb 0.00 in0.0 mm 0.00 in0.0 mm 0.00 in0.0 mm
03:15 PM 64.0°F17.8°C 57.0°F13.9°C 78% 12.5 mph S20.1 kmh S 16.8 mph27.0 kmh 28.84 in976.6 mb 0.00 in0.0 mm 0.00 in0.0 mm 0.00 in0.0 mm
03:14 PM 64.0°F17.8°C 57.0°F13.9°C 78% 11.6 mph S18.7 kmh S 14.8 mph23.8 kmh 28.84 in976.6 mb 0.00 in0.0 mm 0.00 in0.0 mm 0.00 in0.0 mm
03:13 PM 63.7°F17.6°C 56.7°F13.7°C 78% 11.4 mph S18.3 kmh S 15.0 mph24.1 kmh 28.84 in976.6 mb 0.00 in0.0 mm 0.00 in0.0 mm 0.00 in0.0 mm
03:12 PM 63.7°F17.6°C 56.7°F13.7°C 78% 7.6 mph S12.2 kmh S 15.0 mph24.1 kmh 28.83 in976.3 mb 0.00 in0.0 mm 0.00 in0.0 mm 0.00 in0.0 mm
03:11 PM 63.7°F17.6°C 56.7°F13.7°C 78% 9.6 mph S15.4 kmh S 15.0 mph24.1 kmh 28.83 in976.3 mb 0.00 in0.0 mm 0.00 in0.0 mm 0.00 in0.0 mm
03:10 PM 63.7°F17.6°C 56.7°F13.7°C 78% 12.5 mph S20.1 kmh S 15.4 mph24.8 kmh 28.84 in976.6 mb 0.00 in0.0 mm 0.00 in0.0 mm 0.00 in0.0 mm
03:09 PM 63.5°F17.5°C 56.5°F13.6°C 78% 8.7 mph S14.0 kmh S 15.4 mph24.8 kmh 28.84 in976.6 mb 0.00 in0.0 mm 0.00 in0.0 mm 0.00 in0.0 mm
03:08 PM 63.3°F17.4°C 56.3°F13.5°C 78% 10.3 mph S16.6 kmh S 15.4 mph24.8 kmh 28.84 in976.6 mb 0.00 in0.0 mm 0.00 in0.0 mm 0.00 in0.0 mm
03:07 PM 63.3°F17.4°C 56.3°F13.5°C 78% 10.7 mph S17.2 kmh S 15.4 mph24.8 kmh 28.84 in976.6 mb 0.00 in0.0 mm 0.00 in0.0 mm 0.00 in0.0 mm
03:06 PM 63.3°F17.4°C 56.3°F13.5°C 78% 11.9 mph S19.2 kmh S 15.4 mph24.8 kmh 28.84 in976.6 mb 0.00 in0.0 mm 0.00 in0.0 mm 0.00 in0.0 mm
03:05 PM 63.3°F17.4°C 56.3°F13.5°C 78% 11.0 mph S17.7 kmh S 15.7 mph25.3 kmh 28.84 in976.6 mb 0.00 in0.0 mm 0.00 in0.0 mm 0.00 in0.0 mm
03:04 PM 63.3°F17.4°C 56.3°F13.5°C 78% 13.0 mph S20.9 kmh S 15.7 mph25.3 kmh 28.84 in976.6 mb 0.00 in0.0 mm 0.00 in0.0 mm 0.00 in0.0 mm
03:03 PM 63.3°F17.4°C 56.3°F13.5°C 78% 12.5 mph S20.1 kmh S 16.8 mph27.0 kmh 28.84 in976.6 mb 0.00 in0.0 mm 0.00 in0.0 mm 0.00 in0.0 mm
03:02 PM 63.3°F17.4°C 56.7°F13.7°C 79% 13.2 mph S21.2 kmh S 16.8 mph27.0 kmh 28.84 in976.6 mb 0.00 in0.0 mm 0.00 in0.0 mm 0.00 in0.0 mm
03:01 PM 63.3°F17.4°C 56.7°F13.7°C 79% 13.6 mph S21.9 kmh S 16.8 mph27.0 kmh 28.84 in976.6 mb 0.00 in0.0 mm 0.00 in0.0 mm 0.00 in0.0 mm
03:00 PM 63.3°F17.4°C 56.7°F13.7°C 79% 12.8 mph S20.6 kmh S 16.8 mph27.0 kmh 28.84 in976.6 mb 0.00 in0.0 mm 0.00 in0.0 mm 0.00 in0.0 mm
02:59 PM 63.1°F17.3°C 56.5°F13.6°C 79% 7.8 mph S12.6 kmh S 16.8 mph27.0 kmh 28.84 in976.6 mb 0.00 in0.0 mm 0.00 in0.0 mm 0.00 in0.0 mm
02:58 PM 63.1°F17.3°C 56.5°F13.6°C 79% 12.1 mph S19.5 kmh S 16.8 mph27.0 kmh 28.85 in977.0 mb 0.00 in0.0 mm 0.00 in0.0 mm 0.00 in0.0 mm
02:57 PM 63.1°F17.3°C 56.8°F13.8°C 80% 14.3 mph S23.0 kmh S 16.8 mph27.0 kmh 28.85 in977.0 mb 0.00 in0.0 mm 0.00 in0.0 mm 0.00 in0.0 mm
02:56 PM 63.1°F17.3°C 56.8°F13.8°C 80% 8.9 mph S14.3 kmh S 16.8 mph27.0 kmh 28.85 in977.0 mb 0.00 in0.0 mm 0.00 in0.0 mm 0.00 in0.0 mm
02:55 PM 63.1°F17.3°C 56.8°F13.8°C 80% 11.4 mph S18.3 kmh S 16.8 mph27.0 kmh 28.85 in977.0 mb 0.00 in0.0 mm 0.00 in0.0 mm 0.00 in0.0 mm
02:54 PM 63.0°F17.2°C 56.7°F13.7°C 80% 14.1 mph S22.7 kmh S 16.8 mph27.0 kmh 28.85 in977.0 mb 0.00 in0.0 mm 0.00 in0.0 mm 0.00 in0.0 mm
02:53 PM 63.0°F17.2°C 56.7°F13.7°C 80% 8.5 mph S13.7 kmh S 15.2 mph24.5 kmh 28.85 in977.0 mb 0.00 in0.0 mm 0.00 in0.0 mm 0.00 in0.0 mm
02:52 PM 63.0°F17.2°C 56.7°F13.7°C 80% 11.4 mph S18.3 kmh S 15.4 mph24.8 kmh 28.86 in977.3 mb 0.00 in0.0 mm 0.00 in0.0 mm 0.00 in0.0 mm
02:51 PM 63.0°F17.2°C 56.7°F13.7°C 80% 8.1 mph S13.0 kmh S 15.4 mph24.8 kmh 28.86 in977.3 mb 0.00 in0.0 mm 0.00 in0.0 mm 0.00 in0.0 mm
02:50 PM 63.0°F17.2°C 56.7°F13.7°C 80% 7.4 mph S11.9 kmh S 15.4 mph24.8 kmh 28.86 in977.3 mb 0.00 in0.0 mm 0.00 in0.0 mm 0.00 in0.0 mm
02:49 PM 63.0°F17.2°C 56.7°F13.7°C 80% 10.1 mph S16.3 kmh S 15.4 mph24.8 kmh 28.86 in977.3 mb 0.00 in0.0 mm 0.00 in0.0 mm 0.00 in0.0 mm
02:48 PM 63.0°F17.2°C 56.7°F13.7°C 80% 7.6 mph S12.2 kmh S 15.4 mph24.8 kmh 28.86 in977.3 mb 0.00 in0.0 mm 0.00 in0.0 mm 0.00 in0.0 mm
02:47 PM 63.0°F17.2°C 56.7°F13.7°C 80% 13.9 mph S22.4 kmh S 15.4 mph24.8 kmh 28.86 in977.3 mb 0.00 in0.0 mm 0.00 in0.0 mm 0.00 in0.0 mm
02:46 PM 63.0°F17.2°C 56.7°F13.7°C 80% 13.9 mph S22.4 kmh S 15.4 mph24.8 kmh 28.86 in977.3 mb 0.00 in0.0 mm 0.00 in0.0 mm 0.00 in0.0 mm
02:45 PM 62.8°F17.1°C 56.5°F13.6°C 80% 9.8 mph S15.8 kmh S 17.0 mph27.4 kmh 28.86 in977.3 mb 0.00 in0.0 mm 0.00 in0.0 mm 0.00 in0.0 mm
02:44 PM 62.8°F17.1°C 56.5°F13.6°C 80% 12.8 mph S20.6 kmh S 17.0 mph27.4 kmh 28.86 in977.3 mb 0.00 in0.0 mm 0.00 in0.0 mm 0.00 in0.0 mm
02:43 PM 62.8°F17.1°C 56.5°F13.6°C 80% 8.9 mph S14.3 kmh S 17.0 mph27.4 kmh 28.86 in977.3 mb 0.00 in0.0 mm 0.00 in0.0 mm 0.00 in0.0 mm
02:42 PM 62.8°F17.1°C 56.8°F13.8°C 81% 11.9 mph S19.2 kmh S 17.0 mph27.4 kmh 28.86 in977.3 mb 0.00 in0.0 mm 0.00 in0.0 mm 0.00 in0.0 mm
02:41 PM 62.6°F17.0°C 56.6°F13.7°C 81% 10.1 mph S16.3 kmh S 17.0 mph27.4 kmh 28.86 in977.3 mb 0.00 in0.0 mm 0.00 in0.0 mm 0.00 in0.0 mm
02:40 PM 62.6°F17.0°C 56.6°F13.7°C 81% 8.1 mph S13.0 kmh S 17.0 mph27.4 kmh 28.86 in977.3 mb 0.00 in0.0 mm 0.00 in0.0 mm 0.00 in0.0 mm
02:39 PM 62.6°F17.0°C 56.6°F13.7°C 81% 11.2 mph S18.0 kmh S 17.0 mph27.4 kmh 28.86 in977.3 mb 0.00 in0.0 mm 0.00 in0.0 mm 0.00 in0.0 mm
02:38 PM 62.4°F16.9°C 56.5°F13.6°C 81% 10.5 mph S16.9 kmh S 17.0 mph27.4 kmh 28.86 in977.3 mb 0.00 in0.0 mm 0.00 in0.0 mm 0.00 in0.0 mm
02:37 PM 62.4°F16.9°C 56.5°F13.6°C 81% 15.4 mph S24.8 kmh S 17.0 mph27.4 kmh 28.86 in977.3 mb 0.00 in0.0 mm 0.00 in0.0 mm 0.00 in0.0 mm
02:36 PM 62.4°F16.9°C 56.8°F13.8°C 82% 9.4 mph S15.1 kmh S 17.0 mph27.4 kmh 28.86 in977.3 mb 0.00 in0.0 mm 0.00 in0.0 mm 0.00 in0.0 mm
02:35 PM 62.4°F16.9°C 56.8°F13.8°C 82% 9.8 mph S15.8 kmh S 16.3 mph26.2 kmh 28.86 in977.3 mb 0.00 in0.0 mm 0.00 in0.0 mm 0.00 in0.0 mm
02:34 PM 62.4°F16.9°C 56.8°F13.8°C 82% 13.4 mph S21.6 kmh S 15.0 mph24.1 kmh 28.86 in977.3 mb 0.00 in0.0 mm 0.00 in0.0 mm 0.00 in0.0 mm
02:33 PM 62.2°F16.8°C 56.6°F13.7°C 82% 8.9 mph S14.3 kmh S 14.5 mph23.3 kmh 28.86 in977.3 mb 0.00 in0.0 mm 0.00 in0.0 mm 0.00 in0.0 mm
02:32 PM 62.2°F16.8°C 56.6°F13.7°C 82% 10.3 mph S16.6 kmh S 14.5 mph23.3 kmh 28.86 in977.3 mb 0.00 in0.0 mm 0.00 in0.0 mm 0.00 in0.0 mm
02:31 PM 62.2°F16.8°C 56.6°F13.7°C 82% 9.4 mph S15.1 kmh S 15.0 mph24.1 kmh 28.86 in977.3 mb 0.00 in0.0 mm 0.00 in0.0 mm 0.00 in0.0 mm
02:30 PM 62.2°F16.8°C 56.3°F13.5°C 81% 6.0 mph S9.7 kmh S 15.0 mph24.1 kmh 28.86 in977.3 mb 0.00 in0.0 mm 0.00 in0.0 mm 0.00 in0.0 mm
02:29 PM 62.1°F16.7°C 56.1°F13.4°C 81% 7.8 mph S12.6 kmh S 15.4 mph24.8 kmh 28.86 in977.3 mb 0.00 in0.0 mm 0.00 in0.0 mm 0.00 in0.0 mm
02:28 PM 62.1°F16.7°C 56.5°F13.6°C 82% 9.8 mph SSE15.8 kmh SSE 15.4 mph24.8 kmh 28.86 in977.3 mb 0.00 in0.0 mm 0.00 in0.0 mm 0.00 in0.0 mm
02:27 PM 62.1°F16.7°C 56.5°F13.6°C 82% 7.8 mph SSE12.6 kmh SSE 15.4 mph24.8 kmh 28.86 in977.3 mb 0.00 in0.0 mm 0.00 in0.0 mm 0.00 in0.0 mm
02:26 PM 62.1°F16.7°C 56.5°F13.6°C 82% 12.8 mph SSE20.6 kmh SSE 15.4 mph24.8 kmh 28.86 in977.3 mb 0.00 in0.0 mm 0.00 in0.0 mm 0.00 in0.0 mm
02:25 PM 62.1°F16.7°C 56.5°F13.6°C 82% 12.1 mph SSE19.5 kmh SSE 15.4 mph24.8 kmh 28.86 in977.3 mb 0.00 in0.0 mm 0.00 in0.0 mm 0.00 in0.0 mm
02:24 PM 62.1°F16.7°C 56.5°F13.6°C 82% 12.5 mph SSE20.1 kmh SSE 15.4 mph24.8 kmh 28.86 in977.3 mb 0.00 in0.0 mm 0.00 in0.0 mm 0.00 in0.0 mm
02:23 PM 62.1°F16.7°C 56.5°F13.6°C 82% 9.4 mph SSE15.1 kmh SSE 15.4 mph24.8 kmh 28.86 in977.3 mb 0.00 in0.0 mm 0.00 in0.0 mm 0.00 in0.0 mm
02:22 PM 62.1°F16.7°C 56.5°F13.6°C 82% 12.8 mph SSE20.6 kmh SSE 15.4 mph24.8 kmh 28.86 in977.3 mb 0.00 in0.0 mm 0.00 in0.0 mm 0.00 in0.0 mm
02:21 PM 61.9°F16.6°C 56.3°F13.5°C 82% 10.1 mph SSE16.3 kmh SSE 15.4 mph24.8 kmh 28.86 in977.3 mb 0.00 in0.0 mm 0.00 in0.0 mm 0.00 in0.0 mm
02:20 PM 61.9°F16.6°C 56.3°F13.5°C 82% 13.4 mph SSE21.6 kmh SSE 15.4 mph24.8 kmh 28.86 in977.3 mb 0.00 in0.0 mm 0.00 in0.0 mm 0.00 in0.0 mm
02:19 PM 61.9°F16.6°C 56.3°F13.5°C 82% 13.9 mph S22.4 kmh S 14.5 mph23.3 kmh 28.87 in977.7 mb 0.00 in0.0 mm 0.00 in0.0 mm 0.00 in0.0 mm
02:18 PM 61.9°F16.6°C 56.3°F13.5°C 82% 12.8 mph S20.6 kmh S 15.0 mph24.1 kmh 28.86 in977.3 mb 0.00 in0.0 mm 0.00 in0.0 mm 0.00 in0.0 mm
02:17 PM 61.7°F16.5°C 56.2°F13.4°C 82% 11.2 mph S18.0 kmh S 18.1 mph29.1 kmh 28.86 in977.3 mb 0.00 in0.0 mm 0.00 in0.0 mm 0.00 in0.0 mm
02:16 PM 61.7°F16.5°C 56.2°F13.4°C 82% 11.2 mph S18.0 kmh S 18.1 mph29.1 kmh 28.86 in977.3 mb 0.00 in0.0 mm 0.00 in0.0 mm 0.00 in0.0 mm
02:15 PM 61.5°F16.4°C 56.0°F13.3°C 82% 8.3 mph S13.4 kmh S 18.1 mph29.1 kmh 28.87 in977.7 mb 0.00 in0.0 mm 0.00 in0.0 mm 0.00 in0.0 mm
02:14 PM 61.5°F16.4°C 56.0°F13.3°C 82% 10.1 mph S16.3 kmh S 18.1 mph29.1 kmh 28.87 in977.7 mb 0.00 in0.0 mm 0.00 in0.0 mm 0.00 in0.0 mm
02:13 PM 61.5°F16.4°C 56.0°F13.3°C 82% 4.5 mph S7.2 kmh S 18.1 mph29.1 kmh 28.87 in977.7 mb 0.00 in0.0 mm 0.00 in0.0 mm 0.00 in0.0 mm
02:12 PM 61.5°F16.4°C 56.0°F13.3°C 82% 6.9 mph S11.1 kmh S 18.1 mph29.1 kmh 28.87 in977.7 mb 0.00 in0.0 mm 0.00 in0.0 mm 0.00 in0.0 mm
02:11 PM 61.5°F16.4°C 56.0°F13.3°C 82% 7.8 mph S12.6 kmh S 18.1 mph29.1 kmh 28.87 in977.7 mb 0.00 in0.0 mm 0.00 in0.0 mm 0.00 in0.0 mm
02:10 PM 61.3°F16.3°C 55.8°F13.2°C 82% 10.5 mph SSE16.9 kmh SSE 18.1 mph29.1 kmh 28.87 in977.7 mb 0.00 in0.0 mm 0.00 in0.0 mm 0.00 in0.0 mm
02:09 PM 61.3°F16.3°C 55.8°F13.2°C 82% 15.0 mph SSE24.1 kmh SSE 18.1 mph29.1 kmh 28.86 in977.3 mb 0.00 in0.0 mm 0.00 in0.0 mm 0.00 in0.0 mm
02:08 PM 61.3°F16.3°C 55.8°F13.2°C 82% 13.6 mph SSE21.9 kmh SSE 18.1 mph29.1 kmh 28.87 in977.7 mb 0.00 in0.0 mm 0.00 in0.0 mm 0.00 in0.0 mm
02:07 PM 61.3°F16.3°C 55.8°F13.2°C 82% 14.3 mph SSE23.0 kmh SSE 16.8 mph27.0 kmh 28.87 in977.7 mb 0.00 in0.0 mm 0.00 in0.0 mm 0.00 in0.0 mm
02:06 PM 61.3°F16.3°C 55.8°F13.2°C 82% 10.5 mph SSE16.9 kmh SSE 16.8 mph27.0 kmh 28.86 in977.3 mb 0.00 in0.0 mm 0.00 in0.0 mm 0.00 in0.0 mm
02:05 PM 61.3°F16.3°C 55.8°F13.2°C 82% 11.0 mph SSE17.7 kmh SSE 16.8 mph27.0 kmh 28.87 in977.7 mb 0.00 in0.0 mm 0.00 in0.0 mm 0.00 in0.0 mm
02:04 PM 61.3°F16.3°C 55.8°F13.2°C 82% 8.9 mph SSE14.3 kmh SSE 16.8 mph27.0 kmh 28.86 in977.3 mb 0.00 in0.0 mm 0.00 in0.0 mm 0.00 in0.0 mm
02:03 PM 61.3°F16.3°C 55.8°F13.2°C 82% 13.9 mph SSE22.4 kmh SSE 16.8 mph27.0 kmh 28.87 in977.7 mb 0.00 in0.0 mm 0.00 in0.0 mm 0.00 in0.0 mm
02:02 PM 61.3°F16.3°C 55.8°F13.2°C 82% 10.7 mph SSE17.2 kmh SSE 16.8 mph27.0 kmh 28.87 in977.7 mb 0.00 in0.0 mm 0.00 in0.0 mm 0.00 in0.0 mm
02:01 PM 61.3°F16.3°C 55.5°F13.1°C 81% 9.6 mph SSE15.4 kmh SSE 16.8 mph27.0 kmh 28.87 in977.7 mb 0.00 in0.0 mm 0.00 in0.0 mm 0.00 in0.0 mm
02:00 PM 61.3°F16.3°C 55.8°F13.2°C 82% 8.5 mph SSE13.7 kmh SSE 17.2 mph27.7 kmh 28.87 in977.7 mb 0.00 in0.0 mm 0.00 in0.0 mm 0.00 in0.0 mm
01:59 PM 61.3°F16.3°C 55.5°F13.1°C 81% 12.1 mph SSE19.5 kmh SSE 17.2 mph27.7 kmh 28.87 in977.7 mb 0.00 in0.0 mm 0.00 in0.0 mm 0.00 in0.0 mm
01:58 PM 61.3°F16.3°C 55.5°F13.1°C 81% 16.8 mph SSE27.0 kmh SSE 17.2 mph27.7 kmh 28.87 in977.7 mb 0.00 in0.0 mm 0.00 in0.0 mm 0.00 in0.0 mm
01:57 PM 61.3°F16.3°C 55.5°F13.1°C 81% 14.3 mph SSE23.0 kmh SSE 17.2 mph27.7 kmh 28.87 in977.7 mb 0.00 in0.0 mm 0.00 in0.0 mm 0.00 in0.0 mm
01:56 PM 61.3°F16.3°C 55.5°F13.1°C 81% 12.5 mph SSE20.1 kmh SSE 17.2 mph27.7 kmh 28.87 in977.7 mb 0.00 in0.0 mm 0.00 in0.0 mm 0.00 in0.0 mm
01:55 PM 61.2°F16.2°C 55.3°F12.9°C 81% 13.0 mph SSE20.9 kmh SSE 17.2 mph27.7 kmh 28.87 in977.7 mb 0.00 in0.0 mm 0.00 in0.0 mm 0.00 in0.0 mm
01:54 PM 61.2°F16.2°C 55.3°F12.9°C 81% 13.9 mph SSE22.4 kmh SSE 17.2 mph27.7 kmh 28.87 in977.7 mb 0.00 in0.0 mm 0.00 in0.0 mm 0.00 in0.0 mm
01:53 PM 61.2°F16.2°C 55.3°F12.9°C 81% 15.2 mph SSE24.5 kmh SSE 17.2 mph27.7 kmh 28.87 in977.7 mb 0.00 in0.0 mm 0.00 in0.0 mm 0.00 in0.0 mm
01:52 PM 61.3°F16.3°C 55.5°F13.1°C 81% 11.2 mph SE18.0 kmh SE 17.7 mph28.5 kmh 28.87 in977.7 mb 0.00 in0.0 mm 0.00 in0.0 mm 0.00 in0.0 mm
01:51 PM 61.3°F16.3°C 55.5°F13.1°C 81% 12.8 mph SE20.6 kmh SE 17.7 mph28.5 kmh 28.87 in977.7 mb 0.00 in0.0 mm 0.00 in0.0 mm 0.00 in0.0 mm
01:50 PM 61.3°F16.3°C 55.5°F13.1°C 81% 14.5 mph SE23.3 kmh SE 17.7 mph28.5 kmh 28.87 in977.7 mb 0.00 in0.0 mm 0.00 in0.0 mm 0.00 in0.0 mm
01:49 PM 61.3°F16.3°C 55.5°F13.1°C 81% 11.2 mph SE18.0 kmh SE 17.7 mph28.5 kmh 28.87 in977.7 mb 0.00 in0.0 mm 0.00 in0.0 mm 0.00 in0.0 mm
01:48 PM 61.3°F16.3°C 55.5°F13.1°C 81% 9.6 mph SE15.4 kmh SE 17.7 mph28.5 kmh 28.87 in977.7 mb 0.00 in0.0 mm 0.00 in0.0 mm 0.00 in0.0 mm
01:47 PM 61.3°F16.3°C 55.5°F13.1°C 81% 17.0 mph SE27.4 kmh SE 17.7 mph28.5 kmh 28.87 in977.7 mb 0.00 in0.0 mm 0.00 in0.0 mm 0.00 in0.0 mm
01:46 PM 61.3°F16.3°C 55.5°F13.1°C 81% 13.4 mph SE21.6 kmh SE 17.7 mph28.5 kmh 28.87 in977.7 mb 0.00 in0.0 mm 0.00 in0.0 mm 0.00 in0.0 mm
01:45 PM 61.3°F16.3°C 55.5°F13.1°C 81% 13.0 mph SE20.9 kmh SE 17.7 mph28.5 kmh 28.87 in977.7 mb 0.00 in0.0 mm 0.00 in0.0 mm 0.00 in0.0 mm
01:44 PM 61.3°F16.3°C 55.5°F13.1°C 81% 14.3 mph SE23.0 kmh SE 17.7 mph28.5 kmh 28.87 in977.7 mb 0.00 in0.0 mm 0.00 in0.0 mm 0.00 in0.0 mm
01:43 PM 61.3°F16.3°C 55.5°F13.1°C 81% 9.6 mph SE15.4 kmh SE 17.7 mph28.5 kmh 28.87 in977.7 mb 0.00 in0.0 mm 0.00 in0.0 mm 0.00 in0.0 mm
01:42 PM 61.3°F16.3°C 55.5°F13.1°C 81% 11.4 mph SE18.3 kmh SE 15.0 mph24.1 kmh 28.87 in977.7 mb 0.00 in0.0 mm 0.00 in0.0 mm 0.00 in0.0 mm
01:41 PM 61.3°F16.3°C 55.5°F13.1°C 81% 10.1 mph SE16.3 kmh SE 16.3 mph26.2 kmh 28.87 in977.7 mb 0.00 in0.0 mm 0.00 in0.0 mm 0.00 in0.0 mm
01:40 PM 61.2°F16.2°C 55.3°F12.9°C 81% 8.5 mph SE13.7 kmh SE 16.3 mph26.2 kmh 28.87 in977.7 mb 0.00 in0.0 mm 0.00 in0.0 mm 0.00 in0.0 mm
01:39 PM 61.3°F16.3°C 55.5°F13.1°C 81% 11.6 mph SE18.7 kmh SE 16.3 mph26.2 kmh 28.87 in977.7 mb 0.00 in0.0 mm 0.00 in0.0 mm 0.00 in0.0 mm
01:38 PM 61.3°F16.3°C 55.5°F13.1°C 81% 8.7 mph SE14.0 kmh SE 16.3 mph26.2 kmh 28.87 in977.7 mb 0.00 in0.0 mm 0.00 in0.0 mm 0.00 in0.0 mm
01:37 PM 61.3°F16.3°C 55.5°F13.1°C 81% 9.8 mph SE15.8 kmh SE 16.3 mph26.2 kmh 28.87 in977.7 mb 0.00 in0.0 mm 0.00 in0.0 mm 0.00 in0.0 mm
01:36 PM 61.3°F16.3°C 55.5°F13.1°C 81% 13.4 mph SE21.6 kmh SE 16.3 mph26.2 kmh 28.87 in977.7 mb 0.00 in0.0 mm 0.00 in0.0 mm 0.00 in0.0 mm
01:35 PM 61.3°F16.3°C 55.5°F13.1°C 81% 11.4 mph SE18.3 kmh SE 16.3 mph26.2 kmh 28.87 in977.7 mb 0.00 in0.0 mm 0.00 in0.0 mm 0.00 in0.0 mm
01:34 PM 61.3°F16.3°C 55.2°F12.9°C 80% 10.1 mph SE16.3 kmh SE 16.3 mph26.2 kmh 28.87 in977.7 mb 0.00 in0.0 mm 0.00 in0.0 mm 0.00 in0.0 mm
01:33 PM 61.3°F16.3°C 55.2°F12.9°C 80% 9.4 mph SE15.1 kmh SE 22.1 mph35.6 kmh 28.87 in977.7 mb 0.00 in0.0 mm 0.00 in0.0 mm 0.00 in0.0 mm
01:32 PM 61.3°F16.3°C 55.2°F12.9°C 80% 11.0 mph SE17.7 kmh SE 22.1 mph35.6 kmh 28.87 in977.7 mb 0.00 in0.0 mm 0.00 in0.0 mm 0.00 in0.0 mm
01:31 PM 61.3°F16.3°C 55.2°F12.9°C 80% 9.2 mph SE14.8 kmh SE 22.1 mph35.6 kmh 28.87 in977.7 mb 0.00 in0.0 mm 0.00 in0.0 mm 0.00 in0.0 mm
01:30 PM 61.3°F16.3°C 55.2°F12.9°C 80% 10.7 mph SE17.2 kmh SE 22.1 mph35.6 kmh 28.87 in977.7 mb 0.00 in0.0 mm 0.00 in0.0 mm 0.00 in0.0 mm
01:29 PM 61.3°F16.3°C 55.2°F12.9°C 80% 11.0 mph SE17.7 kmh SE 22.1 mph35.6 kmh 28.87 in977.7 mb 0.00 in0.0 mm 0.00 in0.0 mm 0.00 in0.0 mm
01:28 PM 61.3°F16.3°C 55.2°F12.9°C 80% 11.0 mph SE17.7 kmh SE 22.1 mph35.6 kmh 28.87 in977.7 mb 0.00 in0.0 mm 0.00 in0.0 mm 0.00 in0.0 mm
01:27 PM 61.3°F16.3°C 55.2°F12.9°C 80% 14.3 mph SE23.0 kmh SE 22.1 mph35.6 kmh 28.87 in977.7 mb 0.00 in0.0 mm 0.00 in0.0 mm 0.00 in0.0 mm
01:26 PM 61.5°F16.4°C 55.3°F12.9°C 80% 9.8 mph SE15.8 kmh SE 22.1 mph35.6 kmh 28.87 in977.7 mb 0.00 in0.0 mm 0.00 in0.0 mm 0.00 in0.0 mm
01:25 PM 61.5°F16.4°C 55.0°F12.8°C 79% 12.1 mph SE19.5 kmh SE 22.1 mph35.6 kmh 28.87 in977.7 mb 0.00 in0.0 mm 0.00 in0.0 mm 0.00 in0.0 mm
01:24 PM 61.5°F16.4°C 55.0°F12.8°C 79% 10.1 mph SE16.3 kmh SE 22.1 mph35.6 kmh 28.87 in977.7 mb 0.00 in0.0 mm 0.00 in0.0 mm 0.00 in0.0 mm
01:23 PM 61.5°F16.4°C 55.0°F12.8°C 79% 15.0 mph SE24.1 kmh SE 19.9 mph32.0 kmh 28.87 in977.7 mb 0.00 in0.0 mm 0.00 in0.0 mm 0.00 in0.0 mm
01:22 PM 61.5°F16.4°C 55.0°F12.8°C 79% 17.2 mph SE27.7 kmh SE 19.9 mph32.0 kmh 28.87 in977.7 mb 0.00 in0.0 mm 0.00 in0.0 mm 0.00 in0.0 mm
01:21 PM 61.5°F16.4°C 55.0°F12.8°C 79% 12.5 mph SE20.1 kmh SE 19.9 mph32.0 kmh 28.87 in977.7 mb 0.00 in0.0 mm 0.00 in0.0 mm 0.00 in0.0 mm
01:20 PM 61.5°F16.4°C 55.0°F12.8°C 79% 10.3 mph SE16.6 kmh SE 19.9 mph32.0 kmh 28.87 in977.7 mb 0.00 in0.0 mm 0.00 in0.0 mm 0.00 in0.0 mm
01:19 PM 61.7°F16.5°C 55.1°F12.8°C 79% 13.0 mph SE20.9 kmh SE 19.9 mph32.0 kmh 28.87 in977.7 mb 0.00 in0.0 mm 0.00 in0.0 mm 0.00 in0.0 mm
01:18 PM 61.7°F16.5°C 55.1°F12.8°C 79% 11.0 mph SE17.7 kmh SE 19.9 mph32.0 kmh 28.87 in977.7 mb 0.00 in0.0 mm 0.00 in0.0 mm 0.00 in0.0 mm
01:17 PM 61.7°F16.5°C 55.1°F12.8°C 79% 12.8 mph SE20.6 kmh SE 18.1 mph29.1 kmh 28.87 in977.7 mb 0.00 in0.0 mm 0.00 in0.0 mm 0.00 in0.0 mm
01:16 PM 61.7°F16.5°C 55.1°F12.8°C 79% 15.7 mph SE25.3 kmh SE 18.1 mph29.1 kmh 28.87 in977.7 mb 0.00 in0.0 mm 0.00 in0.0 mm 0.00 in0.0 mm
01:15 PM 61.7°F16.5°C 55.1°F12.8°C 79% 15.7 mph SE25.3 kmh SE 18.1 mph29.1 kmh 28.87 in977.7 mb 0.00 in0.0 mm 0.00 in0.0 mm 0.00 in0.0 mm
01:14 PM 61.7°F16.5°C 55.1°F12.8°C 79% 15.7 mph SE25.3 kmh SE 18.1 mph29.1 kmh 28.87 in977.7 mb 0.00 in0.0 mm 0.00 in0.0 mm 0.00 in0.0 mm
01:13 PM 61.9°F16.6°C 55.3°F12.9°C 79% 18.1 mph SE29.1 kmh SE 18.1 mph29.1 kmh 28.87 in977.7 mb 0.00 in0.0 mm 0.00 in0.0 mm 0.00 in0.0 mm
01:12 PM 61.9°F16.6°C 55.3°F12.9°C 79% 11.4 mph SE18.3 kmh SE 13.9 mph22.4 kmh 28.87 in977.7 mb 0.00 in0.0 mm 0.00 in0.0 mm 0.00 in0.0 mm
01:11 PM 61.7°F16.5°C 55.1°F12.8°C 79% 8.1 mph SE13.0 kmh SE 13.9 mph22.4 kmh 28.87 in977.7 mb 0.00 in0.0 mm 0.00 in0.0 mm 0.00 in0.0 mm
01:10 PM 61.9°F16.6°C 55.3°F12.9°C 79% 7.4 mph SE11.9 kmh SE 13.9 mph22.4 kmh 28.87 in977.7 mb 0.00 in0.0 mm 0.00 in0.0 mm 0.00 in0.0 mm
01:09 PM 61.9°F16.6°C 54.9°F12.7°C 78% 8.1 mph SE13.0 kmh SE 13.9 mph22.4 kmh 28.87 in977.7 mb 0.00 in0.0 mm 0.00 in0.0 mm 0.00 in0.0 mm
01:08 PM 61.9°F16.6°C 54.9°F12.7°C 78% 12.3 mph SE19.8 kmh SE 13.9 mph22.4 kmh 28.87 in977.7 mb 0.00 in0.0 mm 0.00 in0.0 mm 0.00 in0.0 mm
01:07 PM 61.9°F16.6°C 54.9°F12.7°C 78% 12.8 mph SE20.6 kmh SE 13.9 mph22.4 kmh 28.87 in977.7 mb 0.00 in0.0 mm 0.00 in0.0 mm 0.00 in0.0 mm
01:06 PM 62.1°F16.7°C 55.1°F12.8°C 78% 13.4 mph SE21.6 kmh SE 13.4 mph21.6 kmh 28.87 in977.7 mb 0.00 in0.0 mm 0.00 in0.0 mm 0.00 in0.0 mm
01:05 PM 62.1°F16.7°C 55.1°F12.8°C 78% 8.3 mph SSE13.4 kmh SSE 13.2 mph21.2 kmh 28.87 in977.7 mb 0.00 in0.0 mm 0.00 in0.0 mm 0.00 in0.0 mm
01:04 PM 62.2°F16.8°C 55.3°F12.9°C 78% 9.2 mph SSE14.8 kmh SSE 13.2 mph21.2 kmh 28.87 in977.7 mb 0.00 in0.0 mm 0.00 in0.0 mm 0.00 in0.0 mm
01:03 PM 62.2°F16.8°C 55.3°F12.9°C 78% 7.4 mph SSE11.9 kmh SSE 13.2 mph21.2 kmh 28.87 in977.7 mb 0.00 in0.0 mm 0.00 in0.0 mm 0.00 in0.0 mm
01:02 PM 62.2°F16.8°C 55.3°F12.9°C 78% 10.1 mph SSE16.3 kmh SSE 13.2 mph21.2 kmh 28.87 in977.7 mb 0.00 in0.0 mm 0.00 in0.0 mm 0.00 in0.0 mm
01:01 PM 62.2°F16.8°C 54.9°F12.7°C 77% 8.3 mph SE13.4 kmh SE 12.1 mph19.5 kmh 28.87 in977.7 mb 0.00 in0.0 mm 0.00 in0.0 mm 0.00 in0.0 mm
01:00 PM 62.4°F16.9°C 55.1°F12.8°C 77% 10.1 mph SE16.3 kmh SE 12.1 mph19.5 kmh 28.88 in978.0 mb 0.00 in0.0 mm 0.00 in0.0 mm 0.00 in0.0 mm
12:59 PM 62.4°F16.9°C 55.1°F12.8°C 77% 10.5 mph SE16.9 kmh SE 10.7 mph17.2 kmh 28.87 in977.7 mb 0.00 in0.0 mm 0.00 in0.0 mm 0.00 in0.0 mm
12:58 PM 62.4°F16.9°C 55.1°F12.8°C 77% 8.9 mph SE14.3 kmh SE 10.7 mph17.2 kmh 28.87 in977.7 mb 0.00 in0.0 mm 0.00 in0.0 mm 0.00 in0.0 mm
12:57 PM 62.4°F16.9°C 55.1°F12.8°C 77% 7.4 mph SE11.9 kmh SE 10.7 mph17.2 kmh 28.87 in977.7 mb 0.00 in0.0 mm 0.00 in0.0 mm 0.00 in0.0 mm
12:56 PM 62.4°F16.9°C 55.1°F12.8°C 77% 6.9 mph SE11.1 kmh SE 8.5 mph13.7 kmh 28.87 in977.7 mb 0.00 in0.0 mm 0.00 in0.0 mm 0.00 in0.0 mm
12:55 PM 62.4°F16.9°C 55.1°F12.8°C 77% 3.8 mph SE6.1 kmh SE 8.5 mph13.7 kmh 28.87 in977.7 mb 0.00 in0.0 mm 0.00 in0.0 mm 0.00 in0.0 mm
12:54 PM 62.6°F17.0°C 55.2°F12.9°C 77% 6.7 mph SE10.8 kmh SE 8.5 mph13.7 kmh 28.87 in977.7 mb 0.00 in0.0 mm 0.00 in0.0 mm 0.00 in0.0 mm
12:53 PM 62.8°F17.1°C 55.4°F13.0°C 77% 4.3 mph SE6.9 kmh SE 8.5 mph13.7 kmh 28.88 in978.0 mb 0.00 in0.0 mm 0.00 in0.0 mm 0.00 in0.0 mm
12:52 PM 62.8°F17.1°C 55.0°F12.8°C 76% 3.8 mph SE6.1 kmh SE 8.5 mph13.7 kmh 28.87 in977.7 mb 0.00 in0.0 mm 0.00 in0.0 mm 0.00 in0.0 mm
12:51 PM 62.8°F17.1°C 55.0°F12.8°C 76% 6.0 mph ESE9.7 kmh ESE 8.5 mph13.7 kmh 28.87 in977.7 mb 0.00 in0.0 mm 0.00 in0.0 mm 0.00 in0.0 mm
12:50 PM 63.0°F17.2°C 55.2°F12.9°C 76% 4.9 mph ESE7.9 kmh ESE 8.5 mph13.7 kmh 28.87 in977.7 mb 0.00 in0.0 mm 0.00 in0.0 mm 0.00 in0.0 mm
12:49 PM 63.0°F17.2°C 55.2°F12.9°C 76% 3.6 mph ESE5.8 kmh ESE 8.5 mph13.7 kmh 28.87 in977.7 mb 0.00 in0.0 mm 0.00 in0.0 mm 0.00 in0.0 mm
12:48 PM 63.1°F17.3°C 55.4°F13.0°C 76% 5.4 mph ESE8.7 kmh ESE 8.5 mph13.7 kmh 28.87 in977.7 mb 0.00 in0.0 mm 0.00 in0.0 mm 0.00 in0.0 mm
12:47 PM 63.1°F17.3°C 55.4°F13.0°C 76% 4.5 mph ESE7.2 kmh ESE 8.5 mph13.7 kmh 28.87 in977.7 mb 0.00 in0.0 mm 0.00 in0.0 mm 0.00 in0.0 mm
12:46 PM 63.3°F17.4°C 55.6°F13.1°C 76% 4.9 mph ESE7.9 kmh ESE 8.5 mph13.7 kmh 28.86 in977.3 mb 0.00 in0.0 mm 0.00 in0.0 mm 0.00 in0.0 mm
12:45 PM 63.3°F17.4°C 55.6°F13.1°C 76% 5.6 mph ESE9.0 kmh ESE 8.5 mph13.7 kmh 28.87 in977.7 mb 0.00 in0.0 mm 0.00 in0.0 mm 0.00 in0.0 mm
12:44 PM 63.3°F17.4°C 55.2°F12.9°C 75% 4.7 mph ESE7.6 kmh ESE 6.9 mph11.1 kmh 28.86 in977.3 mb 0.00 in0.0 mm 0.00 in0.0 mm 0.00 in0.0 mm
12:43 PM 63.5°F17.5°C 55.4°F13.0°C 75% 6.9 mph ESE11.1 kmh ESE 7.2 mph11.6 kmh 28.87 in977.7 mb 0.00 in0.0 mm 0.00 in0.0 mm 0.00 in0.0 mm
12:42 PM 63.5°F17.5°C 55.4°F13.0°C 75% 4.3 mph ESE6.9 kmh ESE 7.2 mph11.6 kmh 28.87 in977.7 mb 0.00 in0.0 mm 0.00 in0.0 mm 0.00 in0.0 mm
12:41 PM 63.7°F17.6°C 55.6°F13.1°C 75% 5.1 mph ESE8.2 kmh ESE 7.2 mph11.6 kmh 28.87 in977.7 mb 0.00 in0.0 mm 0.00 in0.0 mm 0.00 in0.0 mm
12:40 PM 63.7°F17.6°C 55.6°F13.1°C 75% 4.0 mph ESE6.4 kmh ESE 7.2 mph11.6 kmh 28.87 in977.7 mb 0.00 in0.0 mm 0.00 in0.0 mm 0.00 in0.0 mm
12:39 PM 63.7°F17.6°C 55.6°F13.1°C 75% 4.7 mph ESE7.6 kmh ESE 7.2 mph11.6 kmh 28.87 in977.7 mb 0.00 in0.0 mm 0.00 in0.0 mm 0.00 in0.0 mm
12:38 PM 63.9°F17.7°C 55.8°F13.2°C 75% 3.1 mph ESE5.0 kmh ESE 7.2 mph11.6 kmh 28.87 in977.7 mb 0.00 in0.0 mm 0.00 in0.0 mm 0.00 in0.0 mm
12:37 PM 64.0°F17.8°C 55.9°F13.3°C 75% 3.6 mph ESE5.8 kmh ESE 7.2 mph11.6 kmh 28.87 in977.7 mb 0.00 in0.0 mm 0.00 in0.0 mm 0.00 in0.0 mm
12:36 PM 64.0°F17.8°C 55.9°F13.3°C 75% 3.1 mph ESE5.0 kmh ESE 7.2 mph11.6 kmh 28.87 in977.7 mb 0.00 in0.0 mm 0.00 in0.0 mm 0.00 in0.0 mm
12:35 PM 64.2°F17.9°C 56.1°F13.4°C 75% 3.6 mph ESE5.8 kmh ESE 7.2 mph11.6 kmh 28.87 in977.7 mb 0.00 in0.0 mm 0.00 in0.0 mm 0.00 in0.0 mm
12:34 PM 64.2°F17.9°C 56.1°F13.4°C 75% 5.6 mph ESE9.0 kmh ESE 7.2 mph11.6 kmh 28.88 in978.0 mb 0.00 in0.0 mm 0.00 in0.0 mm 0.00 in0.0 mm
12:33 PM 64.2°F17.9°C 56.1°F13.4°C 75% 5.4 mph ESE8.7 kmh ESE 5.8 mph9.3 kmh 28.88 in978.0 mb 0.00 in0.0 mm 0.00 in0.0 mm 0.00 in0.0 mm
12:32 PM 64.2°F17.9°C 56.1°F13.4°C 75% 5.8 mph SE9.3 kmh SE 5.8 mph9.3 kmh 28.87 in977.7 mb 0.00 in0.0 mm 0.00 in0.0 mm 0.00 in0.0 mm
12:31 PM 64.2°F17.9°C 56.1°F13.4°C 75% 2.0 mph SE3.2 kmh SE 2.7 mph4.3 kmh 28.88 in978.0 mb 0.00 in0.0 mm 0.00 in0.0 mm 0.00 in0.0 mm
12:30 PM 64.2°F17.9°C 56.1°F13.4°C 75% 0.7 mph SSE1.1 kmh SSE 0.7 mph1.1 kmh 28.88 in978.0 mb 0.00 in0.0 mm 0.00 in0.0 mm 0.00 in0.0 mm
12:29 PM 64.2°F17.9°C 56.1°F13.4°C 75% Calm Calm -- 28.87 in977.7 mb 0.00 in0.0 mm 0.00 in0.0 mm 0.00 in0.0 mm
12:28 PM 64.2°F17.9°C 56.1°F13.4°C 75% Calm Calm -- 28.87 in977.7 mb 0.00 in0.0 mm 0.00 in0.0 mm 0.00 in0.0 mm
12:27 PM 64.0°F17.8°C 55.9°F13.3°C 75% Calm Calm -- 28.87 in977.7 mb 0.00 in0.0 mm 0.00 in0.0 mm 0.00 in0.0 mm
12:26 PM 64.0°F17.8°C 56.3°F13.5°C 76% Calm Calm -- 28.87 in977.7 mb 0.00 in0.0 mm 0.00 in0.0 mm 0.00 in0.0 mm
12:25 PM 64.0°F17.8°C 56.3°F13.5°C 76% Calm Calm -- 28.87 in977.7 mb 0.00 in0.0 mm 0.00 in0.0 mm 0.00 in0.0 mm
12:24 PM 64.0°F17.8°C 56.3°F13.5°C 76% Calm Calm -- 28.87 in977.7 mb 0.00 in0.0 mm 0.00 in0.0 mm 0.00 in0.0 mm
12:23 PM 64.0°F17.8°C 56.3°F13.5°C 76% Calm Calm -- 28.87 in977.7 mb 0.00 in0.0 mm 0.00 in0.0 mm 0.00 in0.0 mm
12:22 PM 64.0°F17.8°C 56.3°F13.5°C 76% Calm Calm -- 28.87 in977.7 mb 0.00 in0.0 mm 0.00 in0.0 mm 0.00 in0.0 mm
12:21 PM 64.0°F17.8°C 56.3°F13.5°C 76% Calm Calm -- 28.87 in977.7 mb 0.00 in0.0 mm 0.00 in0.0 mm 0.00 in0.0 mm
12:20 PM 64.0°F17.8°C 56.3°F13.5°C 76% Calm Calm -- 28.87 in977.7 mb 0.00 in0.0 mm 0.00 in0.0 mm 0.00 in0.0 mm
12:19 PM 64.0°F17.8°C 56.3°F13.5°C 76% Calm Calm 0.4 mph0.6 kmh 28.87 in977.7 mb 0.00 in0.0 mm 0.00 in0.0 mm 0.00 in0.0 mm
12:18 PM 63.9°F17.7°C 56.1°F13.4°C 76% Calm Calm 0.7 mph1.1 kmh 28.87 in977.7 mb 0.00 in0.0 mm 0.00 in0.0 mm 0.00 in0.0 mm
12:17 PM 63.7°F17.6°C 55.9°F13.3°C 76% Calm Calm 0.7 mph1.1 kmh 28.87 in977.7 mb 0.00 in0.0 mm 0.00 in0.0 mm 0.00 in0.0 mm
12:16 PM 63.7°F17.6°C 55.9°F13.3°C 76% Calm Calm 1.6 mph2.6 kmh 28.87 in977.7 mb 0.00 in0.0 mm 0.00 in0.0 mm 0.00 in0.0 mm
12:15 PM 63.7°F17.6°C 55.9°F13.3°C 76% Calm Calm 1.6 mph2.6 kmh 28.88 in978.0 mb 0.00 in0.0 mm 0.00 in0.0 mm 0.00 in0.0 mm
12:14 PM 63.7°F17.6°C 55.9°F13.3°C 76% Calm Calm 1.8 mph2.9 kmh 28.87 in977.7 mb 0.00 in0.0 mm 0.00 in0.0 mm 0.00 in0.0 mm
12:13 PM 63.7°F17.6°C 55.9°F13.3°C 76% Calm Calm 1.8 mph2.9 kmh 28.87 in977.7 mb 0.00 in0.0 mm 0.00 in0.0 mm 0.00 in0.0 mm
12:12 PM 63.7°F17.6°C 55.9°F13.3°C 76% Calm Calm 1.8 mph2.9 kmh 28.87 in977.7 mb 0.00 in0.0 mm 0.00 in0.0 mm 0.00 in0.0 mm
12:11 PM 63.7°F17.6°C 55.9°F13.3°C 76% Calm Calm 1.8 mph2.9 kmh 28.88 in978.0 mb 0.00 in0.0 mm 0.00 in0.0 mm 0.00 in0.0 mm
12:10 PM 63.7°F17.6°C 55.9°F13.3°C 76% Calm Calm 3.1 mph5.0 kmh 28.87 in977.7 mb 0.00 in0.0 mm 0.00 in0.0 mm 0.00 in0.0 mm
12:09 PM 63.7°F17.6°C 55.9°F13.3°C 76% Calm Calm 3.1 mph5.0 kmh 28.87 in977.7 mb 0.00 in0.0 mm 0.00 in0.0 mm 0.00 in0.0 mm
12:08 PM 63.7°F17.6°C 55.9°F13.3°C 76% Calm Calm 3.1 mph5.0 kmh 28.87 in977.7 mb 0.00 in0.0 mm 0.00 in0.0 mm 0.00 in0.0 mm
12:07 PM 63.7°F17.6°C 55.9°F13.3°C 76% Calm Calm 3.1 mph5.0 kmh 28.88 in978.0 mb 0.00 in0.0 mm 0.00 in0.0 mm 0.00 in0.0 mm
12:06 PM 63.5°F17.5°C 55.4°F13.0°C 76% 1.6 mph SW2.6 kmh SW 3.1 mph5.0 kmh 28.88 in978.0 mb 0.00 in0.0 mm 0.00 in0.0 mm 0.00 in0.0 mm
12:05 PM 63.7°F17.6°C 55.9°F13.3°C 76% 0.4 mph SW0.6 kmh SW 3.1 mph5.0 kmh 28.87 in977.7 mb 0.00 in0.0 mm 0.00 in0.0 mm 0.00 in0.0 mm
12:04 PM 63.5°F17.5°C 55.4°F13.0°C 75% Calm Calm 5.4 mph8.7 kmh 28.88 in978.0 mb 0.00 in0.0 mm 0.00 in0.0 mm 0.00 in0.0 mm
12:03 PM 63.5°F17.5°C 55.4°F13.0°C 75% Calm Calm 5.4 mph8.7 kmh 28.87 in977.7 mb 0.00 in0.0 mm 0.00 in0.0 mm 0.00 in0.0 mm
12:02 PM 63.5°F17.5°C 55.4°F13.0°C 75% Calm Calm 5.4 mph8.7 kmh 28.87 in977.7 mb 0.00 in0.0 mm 0.00 in0.0 mm 0.00 in0.0 mm
12:01 PM 63.5°F17.5°C 55.4°F13.0°C 75% 2.7 mph SW4.3 kmh SW 5.4 mph8.7 kmh 28.87 in977.7 mb 0.00 in0.0 mm 0.00 in0.0 mm 0.00 in0.0 mm
12:00 PM 63.5°F17.5°C 55.4°F13.0°C 75% 2.2 mph SW3.5 kmh SW 5.4 mph8.7 kmh 28.88 in978.0 mb 0.00 in0.0 mm 0.00 in0.0 mm 0.00 in0.0 mm
11:59 AM 63.5°F17.5°C 55.4°F13.0°C 75% 1.3 mph SW2.1 kmh SW 5.4 mph8.7 kmh 28.88 in978.0 mb 0.00 in0.0 mm 0.00 in0.0 mm 0.00 in0.0 mm
11:58 AM 63.5°F17.5°C 55.4°F13.0°C 75% Calm Calm 5.4 mph8.7 kmh 28.88 in978.0 mb 0.00 in0.0 mm 0.00 in0.0 mm 0.00 in0.0 mm
11:57 AM 63.5°F17.5°C 55.4°F13.0°C 75% 1.8 mph SW2.9 kmh SW 5.4 mph8.7 kmh 28.88 in978.0 mb 0.00 in0.0 mm 0.00 in0.0 mm 0.00 in0.0 mm
11:56 AM 63.3°F17.4°C 55.2°F12.9°C 75% 2.9 mph SW4.7 kmh SW 5.4 mph8.7 kmh 28.87 in977.7 mb 0.00 in0.0 mm 0.00 in0.0 mm 0.00 in0.0 mm
11:55 AM 63.3°F17.4°C 55.2°F12.9°C 75% 4.0 mph SW6.4 kmh SW 5.4 mph8.7 kmh 28.88 in978.0 mb 0.00 in0.0 mm 0.00 in0.0 mm 0.00 in0.0 mm
11:54 AM 63.3°F17.4°C 55.2°F12.9°C 75% 1.1 mph SW1.8 kmh SW 5.4 mph8.7 kmh 28.88 in978.0 mb 0.00 in0.0 mm 0.00 in0.0 mm 0.00 in0.0 mm
11:53 AM 63.3°F17.4°C 55.2°F12.9°C 75% 0.9 mph SW1.4 kmh SW 5.8 mph9.3 kmh 28.87 in977.7 mb 0.00 in0.0 mm 0.00 in0.0 mm 0.00 in0.0 mm
11:52 AM 63.3°F17.4°C 55.2°F12.9°C 75% Calm Calm 5.8 mph9.3 kmh 28.88 in978.0 mb 0.00 in0.0 mm 0.00 in0.0 mm 0.00 in0.0 mm
11:51 AM 63.3°F17.4°C 55.6°F13.1°C 76% Calm Calm 5.8 mph9.3 kmh 28.88 in978.0 mb 0.00 in0.0 mm 0.00 in0.0 mm 0.00 in0.0 mm
11:50 AM 63.3°F17.4°C 55.6°F13.1°C 76% 0.7 mph SW1.1 kmh SW 5.8 mph9.3 kmh 28.88 in978.0 mb 0.00 in0.0 mm 0.00 in0.0 mm 0.00 in0.0 mm
11:49 AM 63.3°F17.4°C 55.6°F13.1°C 76% 2.7 mph SW4.3 kmh SW 5.8 mph9.3 kmh 28.88 in978.0 mb 0.00 in0.0 mm 0.00 in0.0 mm 0.00 in0.0 mm
11:48 AM 63.3°F17.4°C 55.6°F13.1°C 76% 3.4 mph SW5.5 kmh SW 5.8 mph9.3 kmh 28.88 in978.0 mb 0.00 in0.0 mm 0.00 in0.0 mm 0.00 in0.0 mm
11:47 AM 63.3°F17.4°C 55.6°F13.1°C 76% Calm Calm 5.8 mph9.3 kmh 28.88 in978.0 mb 0.00 in0.0 mm 0.00 in0.0 mm 0.00 in0.0 mm
11:46 AM 63.3°F17.4°C 55.6°F13.1°C 76% 1.6 mph SSW2.6 kmh SSW 5.8 mph9.3 kmh 28.88 in978.0 mb 0.00 in0.0 mm 0.00 in0.0 mm 0.00 in0.0 mm
11:45 AM 63.3°F17.4°C 55.6°F13.1°C 76% 2.9 mph SSW4.7 kmh SSW 5.8 mph9.3 kmh 28.88 in978.0 mb 0.00 in0.0 mm 0.00 in0.0 mm 0.00 in0.0 mm
11:44 AM 63.3°F17.4°C 55.6°F13.1°C 76% 4.9 mph SSW7.9 kmh SSW 5.8 mph9.3 kmh 28.88 in978.0 mb 0.00 in0.0 mm 0.00 in0.0 mm 0.00 in0.0 mm
11:43 AM 63.1°F17.3°C 55.4°F13.0°C 76% 4.7 mph SSW7.6 kmh SSW 5.4 mph8.7 kmh 28.88 in978.0 mb 0.00 in0.0 mm 0.00 in0.0 mm 0.00 in0.0 mm
11:42 AM 63.1°F17.3°C 55.4°F13.0°C 76% 2.7 mph SSW4.3 kmh SSW 5.4 mph8.7 kmh 28.88 in978.0 mb 0.00 in0.0 mm 0.00 in0.0 mm 0.00 in0.0 mm
11:41 AM 63.1°F17.3°C 55.4°F13.0°C 76% 5.4 mph SSW8.7 kmh SSW 5.4 mph8.7 kmh 28.88 in978.0 mb 0.00 in0.0 mm 0.00 in0.0 mm 0.00 in0.0 mm
11:40 AM 63.1°F17.3°C 55.4°F13.0°C 76% 2.5 mph SSW4.0 kmh SSW 2.9 mph4.7 kmh 28.88 in978.0 mb 0.00 in0.0 mm 0.00 in0.0 mm 0.00 in0.0 mm
11:39 AM 63.1°F17.3°C 55.4°F13.0°C 76% Calm Calm 2.5 mph4.0 kmh 28.88 in978.0 mb 0.00 in0.0 mm 0.00 in0.0 mm 0.00 in0.0 mm
11:38 AM 63.1°F17.3°C 55.4°F13.0°C 76% Calm Calm 2.5 mph4.0 kmh 28.88 in978.0 mb 0.00 in0.0 mm 0.00 in0.0 mm 0.00 in0.0 mm
11:37 AM 63.0°F17.2°C 55.6°F13.1°C 77% 1.3 mph SSW2.1 kmh SSW 2.5 mph4.0 kmh 28.88 in978.0 mb 0.00 in0.0 mm 0.00 in0.0 mm 0.00 in0.0 mm
11:36 AM 63.0°F17.2°C 55.6°F13.1°C 77% Calm Calm 2.5 mph4.0 kmh 28.87 in977.7 mb 0.00 in0.0 mm 0.00 in0.0 mm 0.00 in0.0 mm
11:35 AM 62.8°F17.1°C 55.4°F13.0°C 77% Calm Calm 2.5 mph4.0 kmh 28.88 in978.0 mb 0.00 in0.0 mm 0.00 in0.0 mm 0.00 in0.0 mm
11:34 AM 62.8°F17.1°C 55.4°F13.0°C 77% Calm Calm 2.5 mph4.0 kmh 28.88 in978.0 mb 0.00 in0.0 mm 0.00 in0.0 mm 0.00 in0.0 mm
11:33 AM 62.8°F17.1°C 55.4°F13.0°C 77% Calm Calm -- 28.88 in978.0 mb 0.00 in0.0 mm 0.00 in0.0 mm 0.00 in0.0 mm
11:32 AM 62.8°F17.1°C 55.4°F13.0°C 77% Calm Calm -- 28.88 in978.0 mb 0.00 in0.0 mm 0.00 in0.0 mm 0.00 in0.0 mm
11:31 AM 62.6°F17.0°C 55.2°F12.9°C 77% Calm Calm -- 28.88 in978.0 mb 0.00 in0.0 mm 0.00 in0.0 mm 0.00 in0.0 mm
11:30 AM 62.6°F17.0°C 55.2°F12.9°C 77% Calm Calm -- 28.88 in978.0 mb 0.00 in0.0 mm 0.00 in0.0 mm 0.00 in0.0 mm
11:29 AM 62.4°F16.9°C 55.1°F12.8°C 77% Calm Calm -- 28.88 in978.0 mb 0.00 in0.0 mm 0.00 in0.0 mm 0.00 in0.0 mm
11:28 AM 62.4°F16.9°C 55.1°F12.8°C 77% Calm Calm -- 28.88 in978.0 mb 0.00 in0.0 mm 0.00 in0.0 mm 0.00 in0.0 mm
11:27 AM 62.4°F16.9°C 55.1°F12.8°C 77% Calm Calm -- 28.88 in978.0 mb 0.00 in0.0 mm 0.00 in0.0 mm 0.00 in0.0 mm
11:26 AM 62.4°F16.9°C 55.1°F12.8°C 77% Calm Calm -- 28.88 in978.0 mb 0.00 in0.0 mm 0.00 in0.0 mm 0.00 in0.0 mm
11:25 AM 62.2°F16.8°C 54.9°F12.7°C 77% Calm Calm -- 28.88 in978.0 mb 0.00 in0.0 mm 0.00 in0.0 mm 0.00 in0.0 mm
11:24 AM 62.2°F16.8°C 54.9°F12.7°C 77% Calm Calm -- 28.88 in978.0 mb 0.00 in0.0 mm 0.00 in0.0 mm 0.00 in0.0 mm
11:23 AM 62.2°F16.8°C 54.9°F12.7°C 77% Calm Calm -- 28.88 in978.0 mb 0.00 in0.0 mm 0.00 in0.0 mm 0.00 in0.0 mm
11:22 AM 62.1°F16.7°C 54.7°F12.6°C 77% Calm Calm -- 28.88 in978.0 mb 0.00 in0.0 mm 0.00 in0.0 mm 0.00 in0.0 mm
11:21 AM 62.1°F16.7°C 54.7°F12.6°C 77% Calm Calm -- 28.88 in978.0 mb 0.00 in0.0 mm 0.00 in0.0 mm 0.00 in0.0 mm
11:20 AM 61.9°F16.6°C 54.6°F12.6°C 77% Calm Calm -- 28.88 in978.0 mb 0.00 in0.0 mm 0.00 in0.0 mm 0.00 in0.0 mm
11:19 AM 61.9°F16.6°C 54.6°F12.6°C 77% Calm Calm -- 28.88 in978.0 mb 0.00 in0.0 mm 0.00 in0.0 mm 0.00 in0.0 mm
11:18 AM 61.9°F16.6°C 54.6°F12.6°C 77% Calm Calm -- 28.88 in978.0 mb 0.00 in0.0 mm 0.00 in0.0 mm 0.00 in0.0 mm
11:17 AM 61.7°F16.5°C 54.4°F12.4°C 77% Calm Calm -- 28.88 in978.0 mb 0.00 in0.0 mm 0.00 in0.0 mm 0.00 in0.0 mm
11:16 AM 61.7°F16.5°C 54.4°F12.4°C 77% Calm Calm -- 28.88 in978.0 mb 0.00 in0.0 mm 0.00 in0.0 mm 0.00 in0.0 mm
11:15 AM 61.7°F16.5°C 54.4°F12.4°C 77% Calm Calm -- 28.88 in978.0 mb 0.00 in0.0 mm 0.00 in0.0 mm 0.00 in0.0 mm
11:14 AM 61.5°F16.4°C 54.2°F12.3°C 77% Calm Calm -- 28.88 in978.0 mb 0.00 in0.0 mm 0.00 in0.0 mm 0.00 in0.0 mm
11:13 AM 61.5°F16.4°C 54.2°F12.3°C 77% Calm Calm -- 28.88 in978.0 mb 0.00 in0.0 mm 0.00 in0.0 mm 0.00 in0.0 mm
11:12 AM 61.5°F16.4°C 54.2°F12.3°C 77% Calm Calm -- 28.88 in978.0 mb 0.00 in0.0 mm 0.00 in0.0 mm 0.00 in0.0 mm
11:11 AM 61.5°F16.4°C 54.6°F12.6°C 78% Calm Calm -- 28.88 in978.0 mb 0.00 in0.0 mm 0.00 in0.0 mm 0.00 in0.0 mm
11:10 AM 61.5°F16.4°C 54.6°F12.6°C 78% Calm Calm -- 28.88 in978.0 mb 0.00 in0.0 mm 0.00 in0.0 mm 0.00 in0.0 mm
11:09 AM 61.3°F16.3°C 54.4°F12.4°C 78% Calm Calm -- 28.88 in978.0 mb 0.00 in0.0 mm 0.00 in0.0 mm 0.00 in0.0 mm
11:08 AM 61.3°F16.3°C 54.4°F12.4°C 78% Calm Calm -- 28.88 in978.0 mb 0.00 in0.0 mm 0.00 in0.0 mm 0.00 in0.0 mm
11:07 AM 61.3°F16.3°C 54.4°F12.4°C 78% Calm Calm -- 28.89 in978.3 mb 0.00 in0.0 mm 0.00 in0.0 mm 0.00 in0.0 mm
11:06 AM 61.3°F16.3°C 54.4°F12.4°C 78% Calm Calm -- 28.88 in978.0 mb 0.00 in0.0 mm 0.00 in0.0 mm 0.00 in0.0 mm
11:05 AM 61.2°F16.2°C 54.3°F12.4°C 78% Calm Calm -- 28.88 in978.0 mb 0.00 in0.0 mm 0.00 in0.0 mm 0.00 in0.0 mm
11:04 AM 61.2°F16.2°C 54.3°F12.4°C 78% Calm Calm -- 28.89 in978.3 mb 0.00 in0.0 mm 0.00 in0.0 mm 0.00 in0.0 mm
11:03 AM 61.2°F16.2°C 54.3°F12.4°C 78% Calm Calm -- 28.89 in978.3 mb 0.00 in0.0 mm 0.00 in0.0 mm 0.00 in0.0 mm
11:02 AM 61.0°F16.1°C 54.1°F12.3°C 78% Calm Calm -- 28.89 in978.3 mb 0.00 in0.0 mm 0.00 in0.0 mm 0.00 in0.0 mm
11:01 AM 61.0°F16.1°C 54.5°F12.5°C 79% Calm Calm -- 28.89 in978.3 mb 0.00 in0.0 mm 0.00 in0.0 mm 0.00 in0.0 mm
11:00 AM 61.0°F16.1°C 54.5°F12.5°C 79% Calm Calm -- 28.89 in978.3 mb 0.00 in0.0 mm 0.00 in0.0 mm 0.00 in0.0 mm
10:59 AM 61.0°F16.1°C 54.5°F12.5°C 79% Calm Calm -- 28.89 in978.3 mb 0.00 in0.0 mm 0.00 in0.0 mm 0.00 in0.0 mm
10:58 AM 60.8°F16.0°C 54.3°F12.4°C 79% Calm Calm -- 28.89 in978.3 mb 0.00 in0.0 mm 0.00 in0.0 mm 0.00 in0.0 mm
10:57 AM 60.6°F15.9°C 54.1°F12.3°C 79% Calm Calm -- 28.89 in978.3 mb 0.00 in0.0 mm 0.00 in0.0 mm 0.00 in0.0 mm
10:56 AM 60.6°F15.9°C 54.1°F12.3°C 79% Calm Calm -- 28.89 in978.3 mb 0.00 in0.0 mm 0.00 in0.0 mm 0.00 in0.0 mm
10:55 AM 60.6°F15.9°C 54.1°F12.3°C 79% Calm Calm -- 28.89 in978.3 mb 0.00 in0.0 mm 0.00 in0.0 mm 0.00 in0.0 mm
10:54 AM 60.6°F15.9°C 54.1°F12.3°C 79% Calm Calm 0.4 mph0.6 kmh 28.89 in978.3 mb 0.00 in0.0 mm 0.00 in0.0 mm 0.00 in0.0 mm
10:53 AM 60.6°F15.9°C 54.1°F12.3°C 79% Calm Calm 0.4 mph0.6 kmh 28.89 in978.3 mb 0.00 in0.0 mm 0.00 in0.0 mm 0.00 in0.0 mm
10:52 AM 60.4°F15.8°C 54.0°F12.2°C 79% Calm Calm 0.4 mph0.6 kmh 28.89 in978.3 mb 0.00 in0.0 mm 0.00 in0.0 mm 0.00 in0.0 mm
10:51 AM 60.4°F15.8°C 54.0°F12.2°C 79% Calm Calm 0.4 mph0.6 kmh 28.90 in978.7 mb 0.00 in0.0 mm 0.00 in0.0 mm 0.00 in0.0 mm
10:50 AM 60.4°F15.8°C 54.0°F12.2°C 79% Calm Calm 0.4 mph0.6 kmh 28.90 in978.7 mb 0.00 in0.0 mm 0.00 in0.0 mm 0.00 in0.0 mm
10:49 AM 60.3°F15.7°C 53.8°F12.1°C 79% Calm Calm 0.4 mph0.6 kmh 28.90 in978.7 mb 0.00 in0.0 mm 0.00 in0.0 mm 0.00 in0.0 mm
10:48 AM 60.1°F15.6°C 54.0°F12.2°C 80% Calm Calm 0.4 mph0.6 kmh 28.90 in978.7 mb 0.00 in0.0 mm 0.00 in0.0 mm 0.00 in0.0 mm
10:47 AM 60.1°F15.6°C 54.0°F12.2°C 80% Calm Calm 0.4 mph0.6 kmh 28.90 in978.7 mb 0.00 in0.0 mm 0.00 in0.0 mm 0.00 in0.0 mm
10:46 AM 59.9°F15.5°C 53.8°F12.1°C 80% Calm Calm 0.4 mph0.6 kmh 28.90 in978.7 mb 0.00 in0.0 mm 0.00 in0.0 mm 0.00 in0.0 mm
10:45 AM 59.9°F15.5°C 53.8°F12.1°C 80% Calm Calm 0.4 mph0.6 kmh 28.90 in978.7 mb 0.00 in0.0 mm 0.00 in0.0 mm 0.00 in0.0 mm
10:44 AM 59.7°F15.4°C 53.6°F12.0°C 80% Calm Calm -- 28.90 in978.7 mb 0.00 in0.0 mm 0.00 in0.0 mm 0.00 in0.0 mm
10:43 AM 59.7°F15.4°C 53.6°F12.0°C 80% Calm Calm 1.6 mph2.6 kmh 28.90 in978.7 mb 0.00 in0.0 mm 0.00 in0.0 mm 0.00 in0.0 mm
10:42 AM 59.5°F15.3°C 53.4°F11.9°C 80% Calm Calm 1.6 mph2.6 kmh 28.90 in978.7 mb 0.00 in0.0 mm 0.00 in0.0 mm 0.00 in0.0 mm
10:41 AM 59.5°F15.3°C 53.4°F11.9°C 80% Calm Calm 1.6 mph2.6 kmh 28.90 in978.7 mb 0.00 in0.0 mm 0.00 in0.0 mm 0.00 in0.0 mm
10:40 AM 59.5°F15.3°C 53.4°F11.9°C 80% Calm Calm 1.6 mph2.6 kmh 28.90 in978.7 mb 0.00 in0.0 mm 0.00 in0.0 mm 0.00 in0.0 mm
10:39 AM 59.4°F15.2°C 53.2°F11.8°C 80% Calm Calm 2.7 mph4.3 kmh 28.90 in978.7 mb 0.00 in0.0 mm 0.00 in0.0 mm 0.00 in0.0 mm
10:38 AM 59.4°F15.2°C 53.2°F11.8°C 80% Calm Calm 3.4 mph5.5 kmh 28.90 in978.7 mb 0.00 in0.0 mm 0.00 in0.0 mm 0.00 in0.0 mm
10:37 AM 59.2°F15.1°C 53.1°F11.7°C 80% Calm Calm 3.4 mph5.5 kmh 28.91 in979.0 mb 0.00 in0.0 mm 0.00 in0.0 mm 0.00 in0.0 mm
10:36 AM 59.0°F15.0°C 52.9°F11.6°C 80% Calm Calm 4.7 mph7.6 kmh 28.91 in979.0 mb 0.00 in0.0 mm 0.00 in0.0 mm 0.00 in0.0 mm
10:35 AM 58.8°F14.9°C 52.7°F11.5°C 80% Calm Calm 4.7 mph7.6 kmh 28.91 in979.0 mb 0.00 in0.0 mm 0.00 in0.0 mm 0.00 in0.0 mm
10:34 AM 58.8°F14.9°C 53.0°F11.7°C 81% Calm Calm 4.7 mph7.6 kmh 28.91 in979.0 mb 0.00 in0.0 mm 0.00 in0.0 mm 0.00 in0.0 mm
10:33 AM 58.8°F14.9°C 53.0°F11.7°C 81% Calm Calm 4.7 mph7.6 kmh 28.91 in979.0 mb 0.00 in0.0 mm 0.00 in0.0 mm 0.00 in0.0 mm
10:32 AM 58.8°F14.9°C 53.0°F11.7°C 81% Calm Calm 4.7 mph7.6 kmh 28.91 in979.0 mb 0.00 in0.0 mm 0.00 in0.0 mm 0.00 in0.0 mm
10:31 AM 58.8°F14.9°C 53.0°F11.7°C 81% Calm Calm 4.9 mph7.9 kmh 28.91 in979.0 mb 0.00 in0.0 mm 0.00 in0.0 mm 0.00 in0.0 mm
10:30 AM 58.8°F14.9°C 53.0°F11.7°C 81% Calm Calm 6.5 mph10.5 kmh 28.91 in979.0 mb 0.00 in0.0 mm 0.00 in0.0 mm 0.00 in0.0 mm
10:29 AM 58.8°F14.9°C 53.0°F11.7°C 81% 3.4 mph S5.5 kmh S 7.2 mph11.6 kmh 28.91 in979.0 mb 0.00 in0.0 mm 0.00 in0.0 mm 0.00 in0.0 mm
10:28 AM 58.8°F14.9°C 53.0°F11.7°C 81% 1.3 mph S2.1 kmh S 7.2 mph11.6 kmh 28.91 in979.0 mb 0.00 in0.0 mm 0.00 in0.0 mm 0.00 in0.0 mm
10:27 AM 58.8°F14.9°C 53.0°F11.7°C 81% 0.9 mph S1.4 kmh S 7.8 mph12.6 kmh 28.91 in979.0 mb 0.00 in0.0 mm 0.00 in0.0 mm 0.00 in0.0 mm
10:26 AM 58.8°F14.9°C 53.0°F11.7°C 81% 4.7 mph S7.6 kmh S 10.1 mph16.3 kmh 28.91 in979.0 mb 0.00 in0.0 mm 0.00 in0.0 mm 0.00 in0.0 mm
10:25 AM 58.8°F14.9°C 53.0°F11.7°C 81% 2.2 mph S3.5 kmh S 10.1 mph16.3 kmh 28.91 in979.0 mb 0.00 in0.0 mm 0.00 in0.0 mm 0.00 in0.0 mm
10:24 AM 58.6°F14.8°C 52.8°F11.6°C 81% 1.6 mph S2.6 kmh S 10.1 mph16.3 kmh 28.91 in979.0 mb 0.00 in0.0 mm 0.00 in0.0 mm 0.00 in0.0 mm
10:23 AM 58.6°F14.8°C 52.8°F11.6°C 81% 3.8 mph S6.1 kmh S 10.1 mph16.3 kmh 28.91 in979.0 mb 0.00 in0.0 mm 0.00 in0.0 mm 0.00 in0.0 mm
10:22 AM 58.6°F14.8°C 52.8°F11.6°C 81% 2.0 mph S3.2 kmh S 11.0 mph17.7 kmh 28.92 in979.3 mb 0.00 in0.0 mm 0.00 in0.0 mm 0.00 in0.0 mm
10:21 AM 58.6°F14.8°C 52.8°F11.6°C 81% 6.5 mph S10.5 kmh S 11.0 mph17.7 kmh 28.92 in979.3 mb 0.00 in0.0 mm 0.00 in0.0 mm 0.00 in0.0 mm
10:20 AM 58.6°F14.8°C 52.8°F11.6°C 81% 4.9 mph S7.9 kmh S 11.0 mph17.7 kmh 28.92 in979.3 mb 0.00 in0.0 mm 0.00 in0.0 mm 0.00 in0.0 mm
10:19 AM 58.6°F14.8°C 52.8°F11.6°C 81% 5.6 mph S9.0 kmh S 11.0 mph17.7 kmh 28.92 in979.3 mb 0.00 in0.0 mm 0.00 in0.0 mm 0.00 in0.0 mm
10:18 AM 58.5°F14.7°C 52.7°F11.5°C 81% 5.8 mph S9.3 kmh S 11.0 mph17.7 kmh 28.92 in979.3 mb 0.00 in0.0 mm 0.00 in0.0 mm 0.00 in0.0 mm
10:17 AM 58.5°F14.7°C 52.3°F11.3°C 81% 6.3 mph S10.1 kmh S 11.0 mph17.7 kmh 28.92 in979.3 mb 0.00 in0.0 mm 0.00 in0.0 mm 0.00 in0.0 mm
10:16 AM 58.5°F14.7°C 52.3°F11.3°C 80% 4.9 mph S7.9 kmh S 11.0 mph17.7 kmh 28.92 in979.3 mb 0.00 in0.0 mm 0.00 in0.0 mm 0.00 in0.0 mm
10:15 AM 58.5°F14.7°C 52.3°F11.3°C 80% 7.4 mph S11.9 kmh S 11.0 mph17.7 kmh 28.92 in979.3 mb 0.00 in0.0 mm 0.00 in0.0 mm 0.00 in0.0 mm
10:14 AM 58.5°F14.7°C 52.3°F11.3°C 80% 6.9 mph S11.1 kmh S 11.0 mph17.7 kmh 28.92 in979.3 mb 0.00 in0.0 mm 0.00 in0.0 mm 0.00 in0.0 mm
10:13 AM 58.5°F14.7°C 52.3°F11.3°C 80% 6.9 mph S11.1 kmh S 11.0 mph17.7 kmh 28.92 in979.3 mb 0.00 in0.0 mm 0.00 in0.0 mm 0.00 in0.0 mm
10:12 AM 58.5°F14.7°C 52.3°F11.3°C 80% 10.3 mph S16.6 kmh S 10.7 mph17.2 kmh 28.92 in979.3 mb 0.00 in0.0 mm 0.00 in0.0 mm 0.00 in0.0 mm
10:11 AM 58.5°F14.7°C 52.3°F11.3°C 80% 8.3 mph S13.4 kmh S 10.7 mph17.2 kmh 28.92 in979.3 mb 0.00 in0.0 mm 0.00 in0.0 mm 0.00 in0.0 mm
10:10 AM 58.5°F14.7°C 52.3°F11.3°C 80% 6.5 mph S10.5 kmh S 9.6 mph15.4 kmh 28.92 in979.3 mb 0.00 in0.0 mm 0.00 in0.0 mm 0.00 in0.0 mm
10:09 AM 58.5°F14.7°C 52.3°F11.3°C 80% 8.3 mph S13.4 kmh S 9.6 mph15.4 kmh 28.92 in979.3 mb 0.00 in0.0 mm 0.00 in0.0 mm 0.00 in0.0 mm
10:08 AM 58.5°F14.7°C 52.3°F11.3°C 80% 9.2 mph S14.8 kmh S 9.6 mph15.4 kmh 28.92 in979.3 mb 0.00 in0.0 mm 0.00 in0.0 mm 0.00 in0.0 mm
10:07 AM 58.5°F14.7°C 52.3°F11.3°C 80% 8.1 mph S13.0 kmh S 9.6 mph15.4 kmh 28.92 in979.3 mb 0.00 in0.0 mm 0.00 in0.0 mm 0.00 in0.0 mm
10:06 AM 58.5°F14.7°C 52.3°F11.3°C 80% 9.6 mph S15.4 kmh S 9.6 mph15.4 kmh 28.92 in979.3 mb 0.00 in0.0 mm 0.00 in0.0 mm 0.00 in0.0 mm
10:05 AM 58.5°F14.7°C 52.3°F11.3°C 80% 5.1 mph S8.2 kmh S 8.7 mph14.0 kmh 28.92 in979.3 mb 0.00 in0.0 mm 0.00 in0.0 mm 0.00 in0.0 mm
10:04 AM 58.5°F14.7°C 52.0°F11.1°C 79% 5.1 mph S8.2 kmh S 8.7 mph14.0 kmh 28.92 in979.3 mb 0.00 in0.0 mm 0.00 in0.0 mm 0.00 in0.0 mm
10:03 AM 58.5°F14.7°C 52.0°F11.1°C 79% 8.1 mph S13.0 kmh S 9.4 mph15.1 kmh 28.92 in979.3 mb 0.00 in0.0 mm 0.00 in0.0 mm 0.00 in0.0 mm
10:02 AM 58.5°F14.7°C 52.0°F11.1°C 79% 5.8 mph S9.3 kmh S 9.4 mph15.1 kmh 28.92 in979.3 mb 0.00 in0.0 mm 0.00 in0.0 mm 0.00 in0.0 mm
10:01 AM 58.5°F14.7°C 52.0°F11.1°C 79% 2.2 mph S3.5 kmh S 9.4 mph15.1 kmh 28.92 in979.3 mb 0.00 in0.0 mm 0.00 in0.0 mm 0.00 in0.0 mm
10:00 AM 58.5°F14.7°C 52.0°F11.1°C 79% 5.4 mph S8.7 kmh S 9.4 mph15.1 kmh 28.92 in979.3 mb 0.00 in0.0 mm 0.00 in0.0 mm 0.00 in0.0 mm
09:59 AM 58.6°F14.8°C 52.2°F11.2°C 79% 4.5 mph S7.2 kmh S 9.4 mph15.1 kmh 28.92 in979.3 mb 0.00 in0.0 mm 0.00 in0.0 mm 0.00 in0.0 mm
09:58 AM 58.6°F14.8°C 52.2°F11.2°C 79% 5.8 mph S9.3 kmh S 10.7 mph17.2 kmh 28.92 in979.3 mb 0.00 in0.0 mm 0.00 in0.0 mm 0.00 in0.0 mm
09:57 AM 58.6°F14.8°C 52.2°F11.2°C 79% 6.3 mph S10.1 kmh S 10.7 mph17.2 kmh 28.92 in979.3 mb 0.00 in0.0 mm 0.00 in0.0 mm 0.00 in0.0 mm
09:56 AM 58.6°F14.8°C 52.2°F11.2°C 79% 4.9 mph S7.9 kmh S 10.7 mph17.2 kmh 28.92 in979.3 mb 0.00 in0.0 mm 0.00 in0.0 mm 0.00 in0.0 mm
09:55 AM 58.6°F14.8°C 52.2°F11.2°C 79% 6.3 mph S10.1 kmh S 10.7 mph17.2 kmh 28.92 in979.3 mb 0.00 in0.0 mm 0.00 in0.0 mm 0.00 in0.0 mm
09:54 AM 58.6°F14.8°C 52.2°F11.2°C 79% 6.5 mph S10.5 kmh S 10.7 mph17.2 kmh 28.92 in979.3 mb 0.00 in0.0 mm 0.00 in0.0 mm 0.00 in0.0 mm
09:53 AM 58.6°F14.8°C 52.2°F11.2°C 79% 6.0 mph SSW9.7 kmh SSW 10.7 mph17.2 kmh 28.92 in979.3 mb 0.00 in0.0 mm 0.00 in0.0 mm 0.00 in0.0 mm
09:52 AM 58.6°F14.8°C 52.2°F11.2°C 79% 9.2 mph SSW14.8 kmh SSW 10.7 mph17.2 kmh 28.92 in979.3 mb 0.00 in0.0 mm 0.00 in0.0 mm 0.00 in0.0 mm
09:51 AM 58.6°F14.8°C 52.2°F11.2°C 79% 8.7 mph SSW14.0 kmh SSW 10.7 mph17.2 kmh 28.92 in979.3 mb 0.00 in0.0 mm 0.00 in0.0 mm 0.00 in0.0 mm
09:50 AM 58.6°F14.8°C 52.2°F11.2°C 79% 6.7 mph SSW10.8 kmh SSW 12.1 mph19.5 kmh 28.92 in979.3 mb 0.00 in0.0 mm 0.00 in0.0 mm 0.00 in0.0 mm
09:49 AM 58.6°F14.8°C 52.2°F11.2°C 79% 7.6 mph SSW12.2 kmh SSW 12.1 mph19.5 kmh 28.92 in979.3 mb 0.00 in0.0 mm 0.00 in0.0 mm 0.00 in0.0 mm
09:48 AM 58.6°F14.8°C 52.2°F11.2°C 79% 7.6 mph SSW12.2 kmh SSW 12.1 mph19.5 kmh 28.92 in979.3 mb 0.00 in0.0 mm 0.00 in0.0 mm 0.00 in0.0 mm
09:47 AM 58.6°F14.8°C 52.2°F11.2°C 79% 5.6 mph SSW9.0 kmh SSW 12.1 mph19.5 kmh 28.92 in979.3 mb 0.00 in0.0 mm 0.00 in0.0 mm 0.00 in0.0 mm
09:46 AM 58.6°F14.8°C 52.2°F11.2°C 79% 4.5 mph SSW7.2 kmh SSW 12.1 mph19.5 kmh 28.92 in979.3 mb 0.00 in0.0 mm 0.00 in0.0 mm 0.00 in0.0 mm
09:45 AM 58.6°F14.8°C 52.2°F11.2°C 79% 4.7 mph SSW7.6 kmh SSW 12.1 mph19.5 kmh 28.92 in979.3 mb 0.00 in0.0 mm 0.00 in0.0 mm 0.00 in0.0 mm
09:44 AM 58.6°F14.8°C 52.2°F11.2°C 79% 2.5 mph SSW4.0 kmh SSW 12.1 mph19.5 kmh 28.92 in979.3 mb 0.00 in0.0 mm 0.00 in0.0 mm 0.00 in0.0 mm
09:43 AM 58.6°F14.8°C 52.2°F11.2°C 79% 4.7 mph SSW7.6 kmh SSW 12.5 mph20.1 kmh 28.92 in979.3 mb 0.00 in0.0 mm 0.00 in0.0 mm 0.00 in0.0 mm
09:42 AM 58.6°F14.8°C 52.2°F11.2°C 79% 9.4 mph SSW15.1 kmh SSW 21.5 mph34.6 kmh 28.92 in979.3 mb 0.00 in0.0 mm 0.00 in0.0 mm 0.00 in0.0 mm
09:41 AM 58.6°F14.8°C 52.2°F11.2°C 79% 3.4 mph SSW5.5 kmh SSW 21.5 mph34.6 kmh 28.92 in979.3 mb 0.00 in0.0 mm 0.00 in0.0 mm 0.00 in0.0 mm
09:40 AM 58.6°F14.8°C 52.2°F11.2°C 79% 6.5 mph SSW10.5 kmh SSW 21.5 mph34.6 kmh 28.92 in979.3 mb 0.00 in0.0 mm 0.00 in0.0 mm 0.00 in0.0 mm
09:39 AM 58.6°F14.8°C 52.2°F11.2°C 79% 6.0 mph SSW9.7 kmh SSW 21.5 mph34.6 kmh 28.92 in979.3 mb 0.00 in0.0 mm 0.00 in0.0 mm 0.00 in0.0 mm
09:38 AM 58.6°F14.8°C 52.2°F11.2°C 79% 8.7 mph SSW14.0 kmh SSW 21.5 mph34.6 kmh 28.92 in979.3 mb 0.00 in0.0 mm 0.00 in0.0 mm 0.00 in0.0 mm
09:37 AM 58.6°F14.8°C 52.2°F11.2°C 79% 5.4 mph SSW8.7 kmh SSW 21.5 mph34.6 kmh 28.92 in979.3 mb 0.00 in0.0 mm 0.00 in0.0 mm 0.00 in0.0 mm
09:36 AM 58.8°F14.9°C 52.3°F11.3°C 79% 6.7 mph S10.8 kmh S 21.5 mph34.6 kmh 28.92 in979.3 mb 0.00 in0.0 mm 0.00 in0.0 mm 0.00 in0.0 mm
09:35 AM 58.8°F14.9°C 52.3°F11.3°C 79% 9.2 mph S14.8 kmh S 21.5 mph34.6 kmh 28.92 in979.3 mb 0.00 in0.0 mm 0.00 in0.0 mm 0.00 in0.0 mm
09:34 AM 58.8°F14.9°C 52.3°F11.3°C 79% 5.4 mph S8.7 kmh S 21.5 mph34.6 kmh 28.92 in979.3 mb 0.00 in0.0 mm 0.00 in0.0 mm 0.00 in0.0 mm
09:33 AM 58.8°F14.9°C 52.3°F11.3°C 79% 13.0 mph S20.9 kmh S 21.5 mph34.6 kmh 28.92 in979.3 mb 0.00 in0.0 mm 0.00 in0.0 mm 0.00 in0.0 mm
09:32 AM 58.8°F14.9°C 52.3°F11.3°C 79% 21.5 mph S34.6 kmh S 21.5 mph34.6 kmh 28.93 in979.7 mb 0.00 in0.0 mm 0.00 in0.0 mm 0.00 in0.0 mm
09:31 AM 58.8°F14.9°C 52.3°F11.3°C 79% 16.1 mph S25.9 kmh S 17.0 mph27.4 kmh 28.93 in979.7 mb 0.00 in0.0 mm 0.00 in0.0 mm 0.00 in0.0 mm
09:30 AM 58.8°F14.9°C 52.3°F11.3°C 79% 11.0 mph S17.7 kmh S 17.0 mph27.4 kmh 28.93 in979.7 mb 0.00 in0.0 mm 0.00 in0.0 mm 0.00 in0.0 mm
09:29 AM 58.8°F14.9°C 52.3°F11.3°C 79% 14.1 mph S22.7 kmh S 17.0 mph27.4 kmh 28.92 in979.3 mb 0.00 in0.0 mm 0.00 in0.0 mm 0.00 in0.0 mm
09:28 AM 58.8°F14.9°C 52.3°F11.3°C 79% 13.9 mph S22.4 kmh S 17.0 mph27.4 kmh 28.92 in979.3 mb 0.00 in0.0 mm 0.00 in0.0 mm 0.00 in0.0 mm
09:27 AM 58.8°F14.9°C 52.3°F11.3°C 79% 10.3 mph S16.6 kmh S 18.1 mph29.1 kmh 28.93 in979.7 mb 0.00 in0.0 mm 0.00 in0.0 mm 0.00 in0.0 mm
09:26 AM 58.8°F14.9°C 52.3°F11.3°C 79% 11.0 mph S17.7 kmh S 18.1 mph29.1 kmh 28.93 in979.7 mb 0.00 in0.0 mm 0.00 in0.0 mm 0.00 in0.0 mm
09:25 AM 58.8°F14.9°C 52.3°F11.3°C 79% 11.2 mph S18.0 kmh S 18.8 mph30.3 kmh 28.93 in979.7 mb 0.00 in0.0 mm 0.00 in0.0 mm 0.00 in0.0 mm
09:24 AM 58.8°F14.9°C 52.3°F11.3°C 79% 5.6 mph SSW9.0 kmh SSW 18.8 mph30.3 kmh 28.93 in979.7 mb 0.00 in0.0 mm 0.00 in0.0 mm 0.00 in0.0 mm
09:23 AM 58.8°F14.9°C 52.3°F11.3°C 79% 8.9 mph S14.3 kmh S 18.8 mph30.3 kmh 28.93 in979.7 mb 0.00 in0.0 mm 0.00 in0.0 mm 0.00 in0.0 mm
09:22 AM 58.8°F14.9°C 52.3°F11.3°C 79% 14.3 mph SSW23.0 kmh SSW 18.8 mph30.3 kmh 28.92 in979.3 mb 0.00 in0.0 mm 0.00 in0.0 mm 0.00 in0.0 mm
09:21 AM 58.8°F14.9°C 52.3°F11.3°C 79% 11.0 mph SSW17.7 kmh SSW 18.8 mph30.3 kmh 28.93 in979.7 mb 0.00 in0.0 mm 0.00 in0.0 mm 0.00 in0.0 mm
09:20 AM 58.8°F14.9°C 52.3°F11.3°C 79% 10.7 mph SSW17.2 kmh SSW 18.8 mph30.3 kmh 28.92 in979.3 mb 0.00 in0.0 mm 0.00 in0.0 mm 0.00 in0.0 mm
09:19 AM 58.8°F14.9°C 52.0°F11.1°C 78% 15.9 mph SSW25.6 kmh SSW 21.3 mph34.3 kmh 28.92 in979.3 mb 0.00 in0.0 mm 0.00 in0.0 mm 0.00 in0.0 mm
09:18 AM 58.8°F14.9°C 52.0°F11.1°C 78% 13.6 mph SSW21.9 kmh SSW 22.1 mph35.6 kmh 28.92 in979.3 mb 0.00 in0.0 mm 0.00 in0.0 mm 0.00 in0.0 mm
09:17 AM 58.8°F14.9°C 52.0°F11.1°C 78% 15.4 mph SSW24.8 kmh SSW 22.1 mph35.6 kmh 28.92 in979.3 mb 0.00 in0.0 mm 0.00 in0.0 mm 0.00 in0.0 mm
09:16 AM 58.8°F14.9°C 52.0°F11.1°C 78% 10.5 mph SSW16.9 kmh SSW 22.1 mph35.6 kmh 28.92 in979.3 mb 0.00 in0.0 mm 0.00 in0.0 mm 0.00 in0.0 mm
09:15 AM 58.8°F14.9°C 52.3°F11.3°C 79% 18.8 mph SSW30.3 kmh SSW 22.1 mph35.6 kmh 28.92 in979.3 mb 0.00 in0.0 mm 0.00 in0.0 mm 0.00 in0.0 mm
09:14 AM 58.8°F14.9°C 52.3°F11.3°C 79% 10.3 mph SSW16.6 kmh SSW 22.1 mph35.6 kmh 28.92 in979.3 mb 0.00 in0.0 mm 0.00 in0.0 mm 0.00 in0.0 mm
09:13 AM 59.2°F15.1°C 52.7°F11.5°C 79% 9.6 mph SSW15.4 kmh SSW 22.1 mph35.6 kmh 28.92 in979.3 mb 0.00 in0.0 mm 0.00 in0.0 mm 0.00 in0.0 mm
09:12 AM 59.2°F15.1°C 52.7°F11.5°C 79% 17.7 mph S28.5 kmh S 22.1 mph35.6 kmh 28.92 in979.3 mb 0.00 in0.0 mm 0.00 in0.0 mm 0.00 in0.0 mm
09:11 AM 59.2°F15.1°C 52.7°F11.5°C 79% 16.3 mph S26.2 kmh S 22.1 mph35.6 kmh 28.92 in979.3 mb 0.00 in0.0 mm 0.00 in0.0 mm 0.00 in0.0 mm
09:10 AM 59.2°F15.1°C 52.7°F11.5°C 79% 17.9 mph S28.8 kmh S 22.1 mph35.6 kmh 28.92 in979.3 mb 0.00 in0.0 mm 0.00 in0.0 mm 0.00 in0.0 mm
09:09 AM 59.2°F15.1°C 52.7°F11.5°C 79% 21.3 mph S34.3 kmh S 22.1 mph35.6 kmh 28.92 in979.3 mb 0.00 in0.0 mm 0.00 in0.0 mm 0.00 in0.0 mm
09:08 AM 59.2°F15.1°C 52.7°F11.5°C 79% 15.4 mph S24.8 kmh S 20.8 mph33.5 kmh 28.92 in979.3 mb 0.00 in0.0 mm 0.00 in0.0 mm 0.00 in0.0 mm
09:07 AM 59.4°F15.2°C 52.9°F11.6°C 79% 11.0 mph S17.7 kmh S 20.8 mph33.5 kmh 28.92 in979.3 mb 0.00 in0.0 mm 0.00 in0.0 mm 0.00 in0.0 mm
09:06 AM 59.4°F15.2°C 52.9°F11.6°C 79% 13.0 mph S20.9 kmh S 20.8 mph33.5 kmh 28.92 in979.3 mb 0.00 in0.0 mm 0.00 in0.0 mm 0.00 in0.0 mm
09:05 AM 59.4°F15.2°C 52.5°F11.4°C 78% 13.2 mph S21.2 kmh S 16.8 mph27.0 kmh 28.92 in979.3 mb 0.00 in0.0 mm 0.00 in0.0 mm 0.00 in0.0 mm
09:04 AM 59.4°F15.2°C 52.5°F11.4°C 78% 14.5 mph S23.3 kmh S 16.8 mph27.0 kmh 28.92 in979.3 mb 0.00 in0.0 mm 0.00 in0.0 mm 0.00 in0.0 mm
09:03 AM 59.4°F15.2°C 52.5°F11.4°C 78% 13.0 mph S20.9 kmh S 16.8 mph27.0 kmh 28.92 in979.3 mb 0.00 in0.0 mm 0.00 in0.0 mm 0.00 in0.0 mm
09:02 AM 59.4°F15.2°C 52.5°F11.4°C 78% 8.9 mph S14.3 kmh S 16.8 mph27.0 kmh 28.92 in979.3 mb 0.00 in0.0 mm 0.00 in0.0 mm 0.00 in0.0 mm
09:01 AM 59.4°F15.2°C 52.5°F11.4°C 78% 12.5 mph S20.1 kmh S 16.8 mph27.0 kmh 28.92 in979.3 mb 0.00 in0.0 mm 0.00 in0.0 mm 0.00 in0.0 mm
09:00 AM 59.4°F15.2°C 52.2°F11.2°C 77% 11.6 mph SSW18.7 kmh SSW 16.8 mph27.0 kmh 28.91 in979.0 mb 0.00 in0.0 mm 0.00 in0.0 mm 0.00 in0.0 mm
08:59 AM 59.4°F15.2°C 52.2°F11.2°C 77% 14.5 mph SSW23.3 kmh SSW 16.8 mph27.0 kmh 28.91 in979.0 mb 0.00 in0.0 mm 0.00 in0.0 mm 0.00 in0.0 mm
08:58 AM 59.4°F15.2°C 52.2°F11.2°C 77% 8.5 mph SSW13.7 kmh SSW 16.8 mph27.0 kmh 28.91 in979.0 mb 0.00 in0.0 mm 0.00 in0.0 mm 0.00 in0.0 mm
08:57 AM 59.5°F15.3°C 52.3°F11.3°C 77% 15.2 mph SSW24.5 kmh SSW 16.8 mph27.0 kmh 28.91 in979.0 mb 0.00 in0.0 mm 0.00 in0.0 mm 0.00 in0.0 mm
08:56 AM 59.5°F15.3°C 52.3°F11.3°C 77% 9.4 mph SSW15.1 kmh SSW 16.8 mph27.0 kmh 28.91 in979.0 mb 0.00 in0.0 mm 0.00 in0.0 mm 0.00 in0.0 mm
08:55 AM 59.4°F15.2°C 52.2°F11.2°C 77% 11.0 mph SSW17.7 kmh SSW 18.1 mph29.1 kmh 28.91 in979.0 mb 0.00 in0.0 mm 0.00 in0.0 mm 0.00 in0.0 mm
08:54 AM 59.5°F15.3°C 52.0°F11.1°C 76% 7.6 mph SSW12.2 kmh SSW 18.1 mph29.1 kmh 28.91 in979.0 mb 0.00 in0.0 mm 0.00 in0.0 mm 0.00 in0.0 mm
08:53 AM 59.5°F15.3°C 52.0°F11.1°C 76% 7.6 mph SSW12.2 kmh SSW 18.1 mph29.1 kmh 28.91 in979.0 mb 0.00 in0.0 mm 0.00 in0.0 mm 0.00 in0.0 mm
08:52 AM 59.5°F15.3°C 52.0°F11.1°C 76% 7.6 mph SSW12.2 kmh SSW 18.1 mph29.1 kmh 28.91 in979.0 mb 0.00 in0.0 mm 0.00 in0.0 mm 0.00 in0.0 mm
08:51 AM 59.5°F15.3°C 52.0°F11.1°C 76% 9.2 mph SSW14.8 kmh SSW 18.1 mph29.1 kmh 28.91 in979.0 mb 0.00 in0.0 mm 0.00 in0.0 mm 0.00 in0.0 mm
08:50 AM 59.5°F15.3°C 52.0°F11.1°C 76% 8.3 mph SSW13.4 kmh SSW 18.1 mph29.1 kmh 28.91 in979.0 mb 0.00 in0.0 mm 0.00 in0.0 mm 0.00 in0.0 mm
08:49 AM 59.5°F15.3°C 52.0°F11.1°C 76% 11.6 mph SSW18.7 kmh SSW 18.1 mph29.1 kmh 28.91 in979.0 mb 0.00 in0.0 mm 0.00 in0.0 mm 0.00 in0.0 mm
08:48 AM 59.5°F15.3°C 52.0°F11.1°C 76% 8.3 mph SSW13.4 kmh SSW 18.1 mph29.1 kmh 28.91 in979.0 mb 0.00 in0.0 mm 0.00 in0.0 mm 0.00 in0.0 mm
08:47 AM 59.5°F15.3°C 52.0°F11.1°C 76% 13.9 mph SSW22.4 kmh SSW 18.1 mph29.1 kmh 28.91 in979.0 mb 0.00 in0.0 mm 0.00 in0.0 mm 0.00 in0.0 mm
08:46 AM 59.5°F15.3°C 52.0°F11.1°C 76% 14.5 mph SSW23.3 kmh SSW 18.1 mph29.1 kmh 28.91 in979.0 mb 0.00 in0.0 mm 0.00 in0.0 mm 0.00 in0.0 mm
08:45 AM 59.5°F15.3°C 52.0°F11.1°C 76% 8.9 mph SSW14.3 kmh SSW 13.6 mph21.9 kmh 28.91 in979.0 mb 0.00 in0.0 mm 0.00 in0.0 mm 0.00 in0.0 mm
08:44 AM 59.5°F15.3°C 52.0°F11.1°C 76% 13.4 mph SSW21.6 kmh SSW 13.6 mph21.9 kmh 28.91 in979.0 mb 0.00 in0.0 mm 0.00 in0.0 mm 0.00 in0.0 mm
08:43 AM 59.5°F15.3°C 52.0°F11.1°C 76% 7.8 mph SSW12.6 kmh SSW 13.6 mph21.9 kmh 28.91 in979.0 mb 0.00 in0.0 mm 0.00 in0.0 mm 0.00 in0.0 mm
08:42 AM 59.5°F15.3°C 52.0°F11.1°C 76% 11.4 mph S18.3 kmh S 11.4 mph18.3 kmh 28.91 in979.0 mb 0.00 in0.0 mm 0.00 in0.0 mm 0.00 in0.0 mm
08:41 AM 59.5°F15.3°C 52.0°F11.1°C 76% 10.3 mph S16.6 kmh S 11.2 mph18.0 kmh 28.91 in979.0 mb 0.00 in0.0 mm 0.00 in0.0 mm 0.00 in0.0 mm
08:40 AM 59.5°F15.3°C 52.0°F11.1°C 76% 5.4 mph S8.7 kmh S 11.2 mph18.0 kmh 28.91 in979.0 mb 0.00 in0.0 mm 0.00 in0.0 mm 0.00 in0.0 mm
08:39 AM 59.5°F15.3°C 52.0°F11.1°C 76% 10.7 mph S17.2 kmh S 10.7 mph17.2 kmh 28.90 in978.7 mb 0.00 in0.0 mm 0.00 in0.0 mm 0.00 in0.0 mm
08:38 AM 59.5°F15.3°C 52.0°F11.1°C 76% 5.1 mph S8.2 kmh S 7.2 mph11.6 kmh 28.91 in979.0 mb 0.00 in0.0 mm 0.00 in0.0 mm 0.00 in0.0 mm
08:37 AM 59.5°F15.3°C 52.0°F11.1°C 76% 3.6 mph S5.8 kmh S 7.2 mph11.6 kmh 28.91 in979.0 mb 0.00 in0.0 mm 0.00 in0.0 mm 0.00 in0.0 mm
08:36 AM 59.5°F15.3°C 52.0°F11.1°C 76% 3.8 mph S6.1 kmh S 7.2 mph11.6 kmh 28.90 in978.7 mb 0.00 in0.0 mm 0.00 in0.0 mm 0.00 in0.0 mm
08:35 AM 59.5°F15.3°C 52.0°F11.1°C 76% 4.0 mph S6.4 kmh S 7.2 mph11.6 kmh 28.90 in978.7 mb 0.00 in0.0 mm 0.00 in0.0 mm 0.00 in0.0 mm
08:34 AM 59.5°F15.3°C 52.0°F11.1°C 76% 3.6 mph S5.8 kmh S 7.2 mph11.6 kmh 28.90 in978.7 mb 0.00 in0.0 mm 0.00 in0.0 mm 0.00 in0.0 mm
08:33 AM 59.5°F15.3°C 51.6°F10.9°C 75% 4.5 mph S7.2 kmh S 7.2 mph11.6 kmh 28.90 in978.7 mb 0.00 in0.0 mm 0.00 in0.0 mm 0.00 in0.0 mm
08:32 AM 59.5°F15.3°C 51.6°F10.9°C 75% 4.7 mph S7.6 kmh S 7.2 mph11.6 kmh 28.90 in978.7 mb 0.00 in0.0 mm 0.00 in0.0 mm 0.00 in0.0 mm
08:31 AM 59.5°F15.3°C 51.6°F10.9°C 75% 5.8 mph S9.3 kmh S 7.2 mph11.6 kmh 28.90 in978.7 mb 0.00 in0.0 mm 0.00 in0.0 mm 0.00 in0.0 mm
08:30 AM 59.5°F15.3°C 51.6°F10.9°C 75% 7.2 mph S11.6 kmh S 7.2 mph11.6 kmh 28.89 in978.3 mb 0.00 in0.0 mm 0.00 in0.0 mm 0.00 in0.0 mm
08:29 AM 59.5°F15.3°C 51.3°F10.7°C 74% 4.9 mph SSW7.9 kmh SSW 6.9 mph11.1 kmh 28.89 in978.3 mb 0.00 in0.0 mm 0.00 in0.0 mm 0.00 in0.0 mm
08:28 AM 59.5°F15.3°C 51.3°F10.7°C 74% 3.8 mph SSW6.1 kmh SSW 6.9 mph11.1 kmh 28.89 in978.3 mb 0.00 in0.0 mm 0.00 in0.0 mm 0.00 in0.0 mm
08:27 AM 59.5°F15.3°C 51.3°F10.7°C 74% 2.9 mph SSW4.7 kmh SSW 6.9 mph11.1 kmh 28.89 in978.3 mb 0.00 in0.0 mm 0.00 in0.0 mm 0.00 in0.0 mm
08:26 AM 59.5°F15.3°C 51.3°F10.7°C 74% 6.7 mph SSW10.8 kmh SSW 6.9 mph11.1 kmh 28.89 in978.3 mb 0.00 in0.0 mm 0.00 in0.0 mm 0.00 in0.0 mm
08:25 AM 59.5°F15.3°C 51.3°F10.7°C 74% 4.0 mph SSW6.4 kmh SSW 6.9 mph11.1 kmh 28.89 in978.3 mb 0.00 in0.0 mm 0.00 in0.0 mm 0.00 in0.0 mm
08:24 AM 59.5°F15.3°C 50.9°F10.5°C 73% 5.1 mph SW8.2 kmh SW 6.9 mph11.1 kmh 28.89 in978.3 mb 0.00 in0.0 mm 0.00 in0.0 mm 0.00 in0.0 mm
08:23 AM 59.5°F15.3°C 50.9°F10.5°C 73% 5.4 mph SW8.7 kmh SW 5.6 mph9.0 kmh 28.89 in978.3 mb 0.00 in0.0 mm 0.00 in0.0 mm 0.00 in0.0 mm
08:22 AM 59.5°F15.3°C 50.9°F10.5°C 73% 3.4 mph SW5.5 kmh SW 5.6 mph9.0 kmh 28.89 in978.3 mb 0.00 in0.0 mm 0.00 in0.0 mm 0.00 in0.0 mm
08:21 AM 59.5°F15.3°C 50.9°F10.5°C 73% 4.0 mph SW6.4 kmh SW 5.6 mph9.0 kmh 28.89 in978.3 mb 0.00 in0.0 mm 0.00 in0.0 mm 0.00 in0.0 mm
08:20 AM 59.5°F15.3°C 50.9°F10.5°C 73% 0.7 mph WSW1.1 kmh WSW 5.6 mph9.0 kmh 28.88 in978.0 mb 0.00 in0.0 mm 0.00 in0.0 mm 0.00 in0.0 mm
08:19 AM 59.5°F15.3°C 50.9°F10.5°C 73% 1.6 mph WSW2.6 kmh WSW 5.6 mph9.0 kmh 28.88 in978.0 mb 0.00 in0.0 mm 0.00 in0.0 mm 0.00 in0.0 mm
08:18 AM 59.5°F15.3°C 50.5°F10.3°C 72% Calm Calm 3.6 mph5.8 kmh 28.88 in978.0 mb 0.00 in0.0 mm 0.00 in0.0 mm 0.00 in0.0 mm
08:17 AM 59.5°F15.3°C 50.5°F10.3°C 72% 1.8 mph WSW2.9 kmh WSW 3.6 mph5.8 kmh 28.88 in978.0 mb 0.00 in0.0 mm 0.00 in0.0 mm 0.00 in0.0 mm
08:16 AM 59.5°F15.3°C 50.5°F10.3°C 72% Calm Calm 3.6 mph5.8 kmh 28.87 in977.7 mb 0.00 in0.0 mm 0.00 in0.0 mm 0.00 in0.0 mm
08:15 AM 59.5°F15.3°C 50.5°F10.3°C 72% Calm Calm 3.6 mph5.8 kmh 28.87 in977.7 mb 0.00 in0.0 mm 0.00 in0.0 mm 0.00 in0.0 mm
08:14 AM 59.5°F15.3°C 50.5°F10.3°C 72% 0.7 mph WSW1.1 kmh WSW 3.6 mph5.8 kmh 28.87 in977.7 mb 0.00 in0.0 mm 0.00 in0.0 mm 0.00 in0.0 mm
08:13 AM 59.5°F15.3°C 50.5°F10.3°C 72% Calm Calm 3.6 mph5.8 kmh 28.88 in978.0 mb 0.00 in0.0 mm 0.00 in0.0 mm 0.00 in0.0 mm
08:12 AM 59.5°F15.3°C 50.9°F10.5°C 73% Calm Calm 2.0 mph3.2 kmh 28.87 in977.7 mb 0.00 in0.0 mm 0.00 in0.0 mm 0.00 in0.0 mm
08:11 AM 59.5°F15.3°C 50.9°F10.5°C 73% Calm Calm 1.6 mph2.6 kmh 28.88 in978.0 mb 0.00 in0.0 mm 0.00 in0.0 mm 0.00 in0.0 mm
08:10 AM 59.5°F15.3°C 50.9°F10.5°C 73% Calm Calm 1.6 mph2.6 kmh 28.88 in978.0 mb 0.00 in0.0 mm 0.00 in0.0 mm 0.00 in0.0 mm
08:09 AM 59.5°F15.3°C 50.9°F10.5°C 73% Calm Calm 1.6 mph2.6 kmh 28.88 in978.0 mb 0.00 in0.0 mm 0.00 in0.0 mm 0.00 in0.0 mm
08:08 AM 59.5°F15.3°C 50.9°F10.5°C 73% Calm Calm 1.6 mph2.6 kmh 28.88 in978.0 mb 0.00 in0.0 mm 0.00 in0.0 mm 0.00 in0.0 mm
08:07 AM 59.5°F15.3°C 50.9°F10.5°C 73% Calm Calm 1.6 mph2.6 kmh 28.88 in978.0 mb 0.00 in0.0 mm 0.00 in0.0 mm 0.00 in0.0 mm
08:06 AM 59.5°F15.3°C 50.9°F10.5°C 73% Calm Calm 1.6 mph2.6 kmh 28.88 in978.0 mb 0.00 in0.0 mm 0.00 in0.0 mm 0.00 in0.0 mm
08:05 AM 59.5°F15.3°C 50.9°F10.5°C 73% Calm Calm 1.6 mph2.6 kmh 28.88 in978.0 mb 0.00 in0.0 mm 0.00 in0.0 mm 0.00 in0.0 mm
08:04 AM 59.7°F15.4°C 51.1°F10.6°C 73% Calm Calm 1.1 mph1.8 kmh 28.88 in978.0 mb 0.00 in0.0 mm 0.00 in0.0 mm 0.00 in0.0 mm
08:03 AM 59.5°F15.3°C 50.9°F10.5°C 73% Calm Calm 1.1 mph1.8 kmh 28.89 in978.3 mb 0.00 in0.0 mm 0.00 in0.0 mm 0.00 in0.0 mm
08:02 AM 59.5°F15.3°C 50.9°F10.5°C 73% Calm Calm 1.1 mph1.8 kmh 28.89 in978.3 mb 0.00 in0.0 mm 0.00 in0.0 mm 0.00 in0.0 mm
08:01 AM 59.5°F15.3°C 50.9°F10.5°C 73% 0.2 mph SSW0.3 kmh SSW 1.6 mph2.6 kmh 28.88 in978.0 mb 0.00 in0.0 mm 0.00 in0.0 mm 0.00 in0.0 mm
08:00 AM 59.5°F15.3°C 50.9°F10.5°C 73% Calm Calm 2.7 mph4.3 kmh 28.88 in978.0 mb 0.00 in0.0 mm 0.00 in0.0 mm 0.00 in0.0 mm
07:59 AM 59.5°F15.3°C 50.9°F10.5°C 73% Calm Calm 3.8 mph6.1 kmh 28.88 in978.0 mb 0.00 in0.0 mm 0.00 in0.0 mm 0.00 in0.0 mm
07:58 AM 59.5°F15.3°C 50.9°F10.5°C 73% Calm Calm 3.8 mph6.1 kmh 28.88 in978.0 mb 0.00 in0.0 mm 0.00 in0.0 mm 0.00 in0.0 mm
07:57 AM 59.5°F15.3°C 50.9°F10.5°C 73% Calm Calm 3.8 mph6.1 kmh 28.88 in978.0 mb 0.00 in0.0 mm 0.00 in0.0 mm 0.00 in0.0 mm
07:56 AM 59.5°F15.3°C 50.9°F10.5°C 73% Calm Calm 3.8 mph6.1 kmh 28.88 in978.0 mb 0.00 in0.0 mm 0.00 in0.0 mm 0.00 in0.0 mm
07:55 AM 59.5°F15.3°C 50.9°F10.5°C 73% Calm Calm 3.8 mph6.1 kmh 28.88 in978.0 mb 0.00 in0.0 mm 0.00 in0.0 mm 0.00 in0.0 mm
07:54 AM 59.7°F15.4°C 51.1°F10.6°C 73% Calm Calm 3.8 mph6.1 kmh 28.88 in978.0 mb 0.00 in0.0 mm 0.00 in0.0 mm 0.00 in0.0 mm
07:53 AM 59.5°F15.3°C 50.9°F10.5°C 73% Calm Calm 4.7 mph7.6 kmh 28.88 in978.0 mb 0.00 in0.0 mm 0.00 in0.0 mm 0.00 in0.0 mm
07:52 AM 59.7°F15.4°C 51.1°F10.6°C 73% 0.9 mph SSW1.4 kmh SSW 5.4 mph8.7 kmh 28.88 in978.0 mb 0.00 in0.0 mm 0.00 in0.0 mm 0.00 in0.0 mm
07:51 AM 59.5°F15.3°C 50.9°F10.5°C 73% 0.9 mph S1.4 kmh S 5.4 mph8.7 kmh 28.88 in978.0 mb 0.00 in0.0 mm 0.00 in0.0 mm 0.00 in0.0 mm
07:50 AM 59.5°F15.3°C 50.9°F10.5°C 73% 2.7 mph S4.3 kmh S 5.4 mph8.7 kmh 28.88 in978.0 mb 0.00 in0.0 mm 0.00 in0.0 mm 0.00 in0.0 mm
07:49 AM 59.7°F15.4°C 51.1°F10.6°C 73% 2.2 mph S3.5 kmh S 5.4 mph8.7 kmh 28.88 in978.0 mb 0.00 in0.0 mm 0.00 in0.0 mm 0.00 in0.0 mm
07:48 AM 59.7°F15.4°C 51.1°F10.6°C 73% 1.3 mph S2.1 kmh S 5.4 mph8.7 kmh 28.89 in978.3 mb 0.00 in0.0 mm 0.00 in0.0 mm 0.00 in0.0 mm
07:47 AM 59.7°F15.4°C 51.4°F10.8°C 74% 1.6 mph S2.6 kmh S 5.4 mph8.7 kmh 28.88 in978.0 mb 0.00 in0.0 mm 0.00 in0.0 mm 0.00 in0.0 mm
07:46 AM 59.7°F15.4°C 51.4°F10.8°C 74% 1.6 mph S2.6 kmh S 5.4 mph8.7 kmh 28.89 in978.3 mb 0.00 in0.0 mm 0.00 in0.0 mm 0.00 in0.0 mm
07:45 AM 59.7°F15.4°C 51.4°F10.8°C 74% 1.3 mph S2.1 kmh S 5.4 mph8.7 kmh 28.88 in978.0 mb 0.00 in0.0 mm 0.00 in0.0 mm 0.00 in0.0 mm
07:44 AM 59.7°F15.4°C 51.4°F10.8°C 74% 2.2 mph S3.5 kmh S 5.4 mph8.7 kmh 28.88 in978.0 mb 0.00 in0.0 mm 0.00 in0.0 mm 0.00 in0.0 mm
07:43 AM 59.7°F15.4°C 51.4°F10.8°C 74% 5.4 mph S8.7 kmh S 5.4 mph8.7 kmh 28.88 in978.0 mb 0.00 in0.0 mm 0.00 in0.0 mm 0.00 in0.0 mm
07:42 AM 59.7°F15.4°C 51.4°F10.8°C 74% 3.1 mph S5.0 kmh S 3.1 mph5.0 kmh 28.88 in978.0 mb 0.00 in0.0 mm 0.00 in0.0 mm 0.00 in0.0 mm
07:41 AM 59.7°F15.4°C 51.4°F10.8°C 74% 1.6 mph SSE2.6 kmh SSE 1.8 mph2.9 kmh 28.88 in978.0 mb 0.00 in0.0 mm 0.00 in0.0 mm 0.00 in0.0 mm
07:40 AM 59.5°F15.3°C 51.6°F10.9°C 75% 1.3 mph SSE2.1 kmh SSE 1.3 mph2.1 kmh 28.88 in978.0 mb 0.00 in0.0 mm 0.00 in0.0 mm 0.00 in0.0 mm
07:39 AM 59.7°F15.4°C 51.8°F11.0°C 75% Calm Calm -- 28.88 in978.0 mb 0.00 in0.0 mm 0.00 in0.0 mm 0.00 in0.0 mm
07:38 AM 59.7°F15.4°C 51.8°F11.0°C 75% Calm Calm -- 28.88 in978.0 mb 0.00 in0.0 mm 0.00 in0.0 mm 0.00 in0.0 mm
07:37 AM 59.7°F15.4°C 51.8°F11.0°C 75% Calm Calm -- 28.88 in978.0 mb 0.00 in0.0 mm 0.00 in0.0 mm 0.00 in0.0 mm
07:36 AM 59.7°F15.4°C 51.8°F11.0°C 75% Calm Calm -- 28.88 in978.0 mb 0.00 in0.0 mm 0.00 in0.0 mm 0.00 in0.0 mm
07:35 AM 59.7°F15.4°C 51.8°F11.0°C 75% Calm Calm -- 28.88 in978.0 mb 0.00 in0.0 mm 0.00 in0.0 mm 0.00 in0.0 mm
07:34 AM 59.7°F15.4°C 51.8°F11.0°C 75% Calm Calm -- 28.88 in978.0 mb 0.00 in0.0 mm 0.00 in0.0 mm 0.00 in0.0 mm
07:33 AM 59.7°F15.4°C 51.8°F11.0°C 75% Calm Calm -- 28.88 in978.0 mb 0.00 in0.0 mm 0.00 in0.0 mm 0.00 in0.0 mm
07:32 AM 59.7°F15.4°C 51.8°F11.0°C 75% Calm Calm -- 28.88 in978.0 mb 0.00 in0.0 mm 0.00 in0.0 mm 0.00 in0.0 mm
07:31 AM 59.7°F15.4°C 51.8°F11.0°C 75% Calm Calm 2.0 mph3.2 kmh 28.88 in978.0 mb 0.00 in0.0 mm 0.00 in0.0 mm 0.00 in0.0 mm
07:30 AM 59.7°F15.4°C 51.8°F11.0°C 75% Calm Calm 2.2 mph3.5 kmh 28.88 in978.0 mb 0.00 in0.0 mm 0.00 in0.0 mm 0.00 in0.0 mm
07:29 AM 59.5°F15.3°C 51.6°F10.9°C 75% Calm Calm 2.2 mph3.5 kmh 28.88 in978.0 mb 0.00 in0.0 mm 0.00 in0.0 mm 0.00 in0.0 mm
07:28 AM 59.5°F15.3°C 51.6°F10.9°C 75% Calm Calm 4.5 mph7.2 kmh 28.88 in978.0 mb 0.00 in0.0 mm 0.00 in0.0 mm 0.00 in0.0 mm
07:27 AM 59.7°F15.4°C 51.4°F10.8°C 74% Calm Calm 6.3 mph10.1 kmh 28.88 in978.0 mb 0.00 in0.0 mm 0.00 in0.0 mm 0.00 in0.0 mm
07:26 AM 59.5°F15.3°C 51.3°F10.7°C 74% Calm Calm 8.9 mph14.3 kmh 28.88 in978.0 mb 0.00 in0.0 mm 0.00 in0.0 mm 0.00 in0.0 mm
07:25 AM 59.5°F15.3°C 51.3°F10.7°C 74% Calm Calm 11.4 mph18.3 kmh 28.88 in978.0 mb 0.00 in0.0 mm 0.00 in0.0 mm 0.00 in0.0 mm
07:24 AM 59.5°F15.3°C 51.3°F10.7°C 74% Calm Calm 11.4 mph18.3 kmh 28.88 in978.0 mb 0.00 in0.0 mm 0.00 in0.0 mm 0.00 in0.0 mm
07:23 AM 59.5°F15.3°C 50.9°F10.5°C 73% Calm Calm 11.4 mph18.3 kmh 28.88 in978.0 mb 0.00 in0.0 mm 0.00 in0.0 mm 0.00 in0.0 mm
07:22 AM 59.5°F15.3°C 50.9°F10.5°C 73% Calm Calm 11.4 mph18.3 kmh 28.88 in978.0 mb 0.00 in0.0 mm 0.00 in0.0 mm 0.00 in0.0 mm
07:21 AM 59.5°F15.3°C 50.9°F10.5°C 73% 0.9 mph SSE1.4 kmh SSE 11.4 mph18.3 kmh 28.88 in978.0 mb 0.00 in0.0 mm 0.00 in0.0 mm 0.00 in0.0 mm
07:20 AM 59.5°F15.3°C 50.9°F10.5°C 73% Calm Calm 11.4 mph18.3 kmh 28.88 in978.0 mb 0.00 in0.0 mm 0.00 in0.0 mm 0.00 in0.0 mm
07:19 AM 59.5°F15.3°C 50.9°F10.5°C 73% Calm Calm 11.4 mph18.3 kmh 28.88 in978.0 mb 0.00 in0.0 mm 0.00 in0.0 mm 0.00 in0.0 mm
07:18 AM 59.5°F15.3°C 50.9°F10.5°C 73% 4.7 mph SE7.6 kmh SE 11.4 mph18.3 kmh 28.88 in978.0 mb 0.00 in0.0 mm 0.00 in0.0 mm 0.00 in0.0 mm
07:17 AM 59.5°F15.3°C 50.9°F10.5°C 73% 3.6 mph SE5.8 kmh SE 11.4 mph18.3 kmh 28.89 in978.3 mb 0.00 in0.0 mm 0.00 in0.0 mm 0.00 in0.0 mm
07:16 AM 59.5°F15.3°C 50.9°F10.5°C 73% 8.9 mph SE14.3 kmh SE 11.4 mph18.3 kmh 28.88 in978.0 mb 0.00 in0.0 mm 0.00 in0.0 mm 0.00 in0.0 mm
07:15 AM 59.5°F15.3°C 50.9°F10.5°C 73% 9.8 mph SE15.8 kmh SE 10.7 mph17.2 kmh 28.88 in978.0 mb 0.00 in0.0 mm 0.00 in0.0 mm 0.00 in0.0 mm
07:14 AM 59.5°F15.3°C 50.9°F10.5°C 73% 9.6 mph SE15.4 kmh SE 10.7 mph17.2 kmh 28.88 in978.0 mb 0.00 in0.0 mm 0.00 in0.0 mm 0.00 in0.0 mm
07:13 AM 59.5°F15.3°C 50.9°F10.5°C 73% 10.1 mph SE16.3 kmh SE 10.7 mph17.2 kmh 28.88 in978.0 mb 0.00 in0.0 mm 0.00 in0.0 mm 0.00 in0.0 mm
07:12 AM 59.5°F15.3°C 50.9°F10.5°C 73% 3.8 mph SE6.1 kmh SE 10.7 mph17.2 kmh 28.88 in978.0 mb 0.00 in0.0 mm 0.00 in0.0 mm 0.00 in0.0 mm
07:11 AM 59.5°F15.3°C 50.9°F10.5°C 73% 7.2 mph SE11.6 kmh SE 10.7 mph17.2 kmh 28.88 in978.0 mb 0.00 in0.0 mm 0.00 in0.0 mm 0.00 in0.0 mm
07:10 AM 59.5°F15.3°C 50.9°F10.5°C 73% 6.5 mph SE10.5 kmh SE 10.7 mph17.2 kmh 28.88 in978.0 mb 0.00 in0.0 mm 0.00 in0.0 mm 0.00 in0.0 mm
07:09 AM 59.5°F15.3°C 51.3°F10.7°C 74% 8.1 mph SE13.0 kmh SE 9.4 mph15.1 kmh 28.88 in978.0 mb 0.00 in0.0 mm 0.00 in0.0 mm 0.00 in0.0 mm
07:08 AM 59.5°F15.3°C 51.3°F10.7°C 74% 6.5 mph SE10.5 kmh SE 8.1 mph13.0 kmh 28.88 in978.0 mb 0.00 in0.0 mm 0.00 in0.0 mm 0.00 in0.0 mm
07:07 AM 59.5°F15.3°C 51.3°F10.7°C 74% 6.7 mph SE10.8 kmh SE 8.1 mph13.0 kmh 28.88 in978.0 mb 0.00 in0.0 mm 0.00 in0.0 mm 0.00 in0.0 mm
07:06 AM 59.5°F15.3°C 51.3°F10.7°C 74% 3.8 mph SE6.1 kmh SE 8.1 mph13.0 kmh 28.88 in978.0 mb 0.00 in0.0 mm 0.00 in0.0 mm 0.00 in0.0 mm
07:05 AM 59.5°F15.3°C 51.3°F10.7°C 74% 5.8 mph SE9.3 kmh SE 5.8 mph9.3 kmh 28.87 in977.7 mb 0.00 in0.0 mm 0.00 in0.0 mm 0.00 in0.0 mm
07:04 AM 59.5°F15.3°C 50.9°F10.5°C 73% 4.0 mph SE6.4 kmh SE 5.6 mph9.0 kmh 28.87 in977.7 mb 0.00 in0.0 mm 0.00 in0.0 mm 0.00 in0.0 mm
07:03 AM 59.5°F15.3°C 50.9°F10.5°C 73% 4.7 mph SE7.6 kmh SE 5.1 mph8.2 kmh 28.87 in977.7 mb 0.00 in0.0 mm 0.00 in0.0 mm 0.00 in0.0 mm
07:02 AM 59.5°F15.3°C 50.9°F10.5°C 73% 2.9 mph SE4.7 kmh SE 4.5 mph7.2 kmh 28.87 in977.7 mb 0.00 in0.0 mm 0.00 in0.0 mm 0.00 in0.0 mm
07:01 AM 59.5°F15.3°C 51.3°F10.7°C 74% 2.5 mph SE4.0 kmh SE 4.5 mph7.2 kmh 28.87 in977.7 mb 0.00 in0.0 mm 0.00 in0.0 mm 0.00 in0.0 mm
07:00 AM 59.5°F15.3°C 51.3°F10.7°C 74% 3.1 mph ESE5.0 kmh ESE 4.3 mph6.9 kmh 28.87 in977.7 mb 0.00 in0.0 mm 0.00 in0.0 mm 0.00 in0.0 mm
06:59 AM 59.5°F15.3°C 50.9°F10.5°C 73% 2.5 mph ENE4.0 kmh ENE 2.7 mph4.3 kmh 28.87 in977.7 mb 0.00 in0.0 mm 0.00 in0.0 mm 0.00 in0.0 mm
06:58 AM 59.5°F15.3°C 50.9°F10.5°C 73% Calm Calm 2.7 mph4.3 kmh 28.87 in977.7 mb 0.00 in0.0 mm 0.00 in0.0 mm 0.00 in0.0 mm
06:57 AM 59.5°F15.3°C 50.9°F10.5°C 73% Calm Calm 2.9 mph4.7 kmh 28.87 in977.7 mb 0.00 in0.0 mm 0.00 in0.0 mm 0.00 in0.0 mm
06:56 AM 59.5°F15.3°C 50.9°F10.5°C 73% Calm Calm 2.9 mph4.7 kmh 28.86 in977.3 mb 0.00 in0.0 mm 0.00 in0.0 mm 0.00 in0.0 mm
06:55 AM 59.5°F15.3°C 50.9°F10.5°C 73% Calm Calm 2.9 mph4.7 kmh 28.86 in977.3 mb 0.00 in0.0 mm 0.00 in0.0 mm 0.00 in0.0 mm
06:54 AM 59.5°F15.3°C 50.9°F10.5°C 73% 2.5 mph ENE4.0 kmh ENE 2.9 mph4.7 kmh 28.86 in977.3 mb 0.00 in0.0 mm 0.00 in0.0 mm 0.00 in0.0 mm
06:53 AM 59.5°F15.3°C 50.9°F10.5°C 73% Calm Calm 2.9 mph4.7 kmh 28.86 in977.3 mb 0.00 in0.0 mm 0.00 in0.0 mm 0.00 in0.0 mm
06:52 AM 59.5°F15.3°C 50.5°F10.3°C 72% Calm Calm 3.6 mph5.8 kmh 28.86 in977.3 mb 0.00 in0.0 mm 0.00 in0.0 mm 0.00 in0.0 mm
06:51 AM 59.5°F15.3°C 50.5°F10.3°C 72% Calm Calm 3.6 mph5.8 kmh 28.86 in977.3 mb 0.00 in0.0 mm 0.00 in0.0 mm 0.00 in0.0 mm
06:50 AM 59.5°F15.3°C 50.5°F10.3°C 72% 2.0 mph ENE3.2 kmh ENE 3.6 mph5.8 kmh 28.86 in977.3 mb 0.00 in0.0 mm 0.00 in0.0 mm 0.00 in0.0 mm
06:49 AM 59.7°F15.4°C 50.7°F10.4°C 72% Calm Calm 3.6 mph5.8 kmh 28.86 in977.3 mb 0.00 in0.0 mm 0.00 in0.0 mm 0.00 in0.0 mm
06:48 AM 59.7°F15.4°C 50.7°F10.4°C 72% 1.3 mph ENE2.1 kmh ENE 3.6 mph5.8 kmh 28.86 in977.3 mb 0.00 in0.0 mm 0.00 in0.0 mm 0.00 in0.0 mm
06:47 AM 59.7°F15.4°C 50.7°F10.4°C 72% 2.5 mph ENE4.0 kmh ENE 3.6 mph5.8 kmh 28.86 in977.3 mb 0.00 in0.0 mm 0.00 in0.0 mm 0.00 in0.0 mm
06:46 AM 59.7°F15.4°C 50.4°F10.2°C 71% Calm Calm 3.6 mph5.8 kmh 28.86 in977.3 mb 0.00 in0.0 mm 0.00 in0.0 mm 0.00 in0.0 mm
06:45 AM 59.7°F15.4°C 50.4°F10.2°C 71% 1.1 mph ENE1.8 kmh ENE 3.6 mph5.8 kmh 28.86 in977.3 mb 0.00 in0.0 mm 0.00 in0.0 mm 0.00 in0.0 mm
06:44 AM 59.7°F15.4°C 50.4°F10.2°C 71% 0.7 mph ENE1.1 kmh ENE 3.6 mph5.8 kmh 28.86 in977.3 mb 0.00 in0.0 mm 0.00 in0.0 mm 0.00 in0.0 mm
06:43 AM 59.7°F15.4°C 50.4°F10.2°C 71% 1.3 mph ENE2.1 kmh ENE 3.6 mph5.8 kmh 28.86 in977.3 mb 0.00 in0.0 mm 0.00 in0.0 mm 0.00 in0.0 mm
06:42 AM 59.5°F15.3°C 50.2°F10.1°C 71% 1.1 mph NE1.8 kmh NE 3.6 mph5.8 kmh 28.86 in977.3 mb 0.00 in0.0 mm 0.00 in0.0 mm 0.00 in0.0 mm
06:41 AM 59.7°F15.4°C 50.4°F10.2°C 71% 2.7 mph NE4.3 kmh NE 3.1 mph5.0 kmh 28.86 in977.3 mb 0.00 in0.0 mm 0.00 in0.0 mm 0.00 in0.0 mm
06:40 AM 59.5°F15.3°C 49.8°F9.9°C 70% 1.3 mph NE2.1 kmh NE 2.7 mph4.3 kmh 28.86 in977.3 mb 0.00 in0.0 mm 0.00 in0.0 mm 0.00 in0.0 mm
06:39 AM 59.7°F15.4°C 50.0°F10.0°C 70% Calm Calm 2.7 mph4.3 kmh 28.86 in977.3 mb 0.00 in0.0 mm 0.00 in0.0 mm 0.00 in0.0 mm
06:38 AM 59.7°F15.4°C 50.0°F10.0°C 70% 1.8 mph SW2.9 kmh SW 2.7 mph4.3 kmh 28.87 in977.7 mb 0.00 in0.0 mm 0.00 in0.0 mm 0.00 in0.0 mm
06:37 AM 59.5°F15.3°C 49.8°F9.9°C 70% Calm Calm -- 28.87 in977.7 mb 0.00 in0.0 mm 0.00 in0.0 mm 0.00 in0.0 mm
06:36 AM 59.7°F15.4°C 50.0°F10.0°C 70% Calm Calm -- 28.86 in977.3 mb 0.00 in0.0 mm 0.00 in0.0 mm 0.00 in0.0 mm
06:35 AM 59.7°F15.4°C 50.0°F10.0°C 70% Calm Calm -- 28.87 in977.7 mb 0.00 in0.0 mm 0.00 in0.0 mm 0.00 in0.0 mm
06:34 AM 59.5°F15.3°C 49.8°F9.9°C 70% Calm Calm 1.1 mph1.8 kmh 28.87 in977.7 mb 0.00 in0.0 mm 0.00 in0.0 mm 0.00 in0.0 mm
06:33 AM 59.5°F15.3°C 49.8°F9.9°C 70% Calm Calm 1.1 mph1.8 kmh 28.87 in977.7 mb 0.00 in0.0 mm 0.00 in0.0 mm 0.00 in0.0 mm
06:32 AM 59.5°F15.3°C 49.8°F9.9°C 70% Calm Calm 1.1 mph1.8 kmh 28.87 in977.7 mb 0.00 in0.0 mm 0.00 in0.0 mm 0.00 in0.0 mm
06:31 AM 59.5°F15.3°C 49.8°F9.9°C 70% Calm Calm 1.1 mph1.8 kmh 28.87 in977.7 mb 0.00 in0.0 mm 0.00 in0.0 mm 0.00 in0.0 mm
06:30 AM 59.5°F15.3°C 49.8°F9.9°C 70% Calm Calm 1.1 mph1.8 kmh 28.87 in977.7 mb 0.00 in0.0 mm 0.00 in0.0 mm 0.00 in0.0 mm
06:29 AM 59.5°F15.3°C 49.8°F9.9°C 70% Calm Calm 1.1 mph1.8 kmh 28.87 in977.7 mb 0.00 in0.0 mm 0.00 in0.0 mm 0.00 in0.0 mm
06:28 AM 59.5°F15.3°C 49.8°F9.9°C 70% Calm Calm 1.1 mph1.8 kmh 28.87 in977.7 mb 0.00 in0.0 mm 0.00 in0.0 mm 0.00 in0.0 mm
06:27 AM 59.5°F15.3°C 49.8°F9.9°C 70% Calm Calm 1.1 mph1.8 kmh 28.87 in977.7 mb 0.00 in0.0 mm 0.00 in0.0 mm 0.00 in0.0 mm
06:26 AM 59.5°F15.3°C 49.8°F9.9°C 70% Calm Calm 1.1 mph1.8 kmh 28.87 in977.7 mb 0.00 in0.0 mm 0.00 in0.0 mm 0.00 in0.0 mm
06:25 AM 59.5°F15.3°C 49.8°F9.9°C 70% Calm Calm 1.1 mph1.8 kmh 28.87 in977.7 mb 0.00 in0.0 mm 0.00 in0.0 mm 0.00 in0.0 mm
06:24 AM 59.5°F15.3°C 49.8°F9.9°C 70% Calm Calm -- 28.87 in977.7 mb 0.00 in0.0 mm 0.00 in0.0 mm 0.00 in0.0 mm
06:23 AM 59.5°F15.3°C 49.8°F9.9°C 70% Calm Calm -- 28.87 in977.7 mb 0.00 in0.0 mm 0.00 in0.0 mm 0.00 in0.0 mm
06:22 AM 59.5°F15.3°C 49.8°F9.9°C 70% Calm Calm -- 28.87 in977.7 mb 0.00 in0.0 mm 0.00 in0.0 mm 0.00 in0.0 mm
06:21 AM 59.5°F15.3°C 49.8°F9.9°C 70% Calm Calm -- 28.87 in977.7 mb 0.00 in0.0 mm 0.00 in0.0 mm 0.00 in0.0 mm
06:20 AM 59.5°F15.3°C 49.8°F9.9°C 70% Calm Calm -- 28.87 in977.7 mb 0.00 in0.0 mm 0.00 in0.0 mm 0.00 in0.0 mm
06:19 AM 59.5°F15.3°C 49.8°F9.9°C 70% Calm Calm -- 28.87 in977.7 mb 0.00 in0.0 mm 0.00 in0.0 mm 0.00 in0.0 mm
06:18 AM 59.5°F15.3°C 49.8°F9.9°C 70% Calm Calm -- 28.87 in977.7 mb 0.00 in0.0 mm 0.00 in0.0 mm 0.00 in0.0 mm
06:17 AM 59.5°F15.3°C 49.8°F9.9°C 70% Calm Calm -- 28.87 in977.7 mb 0.00 in0.0 mm 0.00 in0.0 mm 0.00 in0.0 mm
06:16 AM 59.5°F15.3°C 49.8°F9.9°C 70% Calm Calm -- 28.87 in977.7 mb 0.00 in0.0 mm 0.00 in0.0 mm 0.00 in0.0 mm
06:15 AM 59.5°F15.3°C 49.8°F9.9°C 70% Calm Calm -- 28.87 in977.7 mb 0.00 in0.0 mm 0.00 in0.0 mm 0.00 in0.0 mm
06:14 AM 59.5°F15.3°C 49.8°F9.9°C 70% Calm Calm -- 28.87 in977.7 mb 0.00 in0.0 mm 0.00 in0.0 mm 0.00 in0.0 mm
06:13 AM 59.5°F15.3°C 49.8°F9.9°C 70% Calm Calm -- 28.87 in977.7 mb 0.00 in0.0 mm 0.00 in0.0 mm 0.00 in0.0 mm
06:12 AM 59.5°F15.3°C 50.2°F10.1°C 71% Calm Calm -- 28.87 in977.7 mb 0.00 in0.0 mm 0.00 in0.0 mm 0.00 in0.0 mm
06:11 AM 59.5°F15.3°C 50.2°F10.1°C 71% Calm Calm -- 28.87 in977.7 mb 0.00 in0.0 mm 0.00 in0.0 mm 0.00 in0.0 mm
06:10 AM 59.5°F15.3°C 50.2°F10.1°C 71% Calm Calm -- 28.87 in977.7 mb 0.00 in0.0 mm 0.00 in0.0 mm 0.00 in0.0 mm
06:09 AM 59.5°F15.3°C 50.2°F10.1°C 71% Calm Calm -- 28.87 in977.7 mb 0.00 in0.0 mm 0.00 in0.0 mm 0.00 in0.0 mm
06:08 AM 59.5°F15.3°C 50.2°F10.1°C 71% Calm Calm -- 28.87 in977.7 mb 0.00 in0.0 mm 0.00 in0.0 mm 0.00 in0.0 mm
06:07 AM 59.5°F15.3°C 50.2°F10.1°C 71% Calm Calm -- 28.86 in977.3 mb 0.00 in0.0 mm 0.00 in0.0 mm 0.00 in0.0 mm
06:06 AM 59.5°F15.3°C 50.2°F10.1°C 71% Calm Calm -- 28.87 in977.7 mb 0.00 in0.0 mm 0.00 in0.0 mm 0.00 in0.0 mm
06:05 AM 59.5°F15.3°C 50.2°F10.1°C 71% Calm Calm -- 28.87 in977.7 mb 0.00 in0.0 mm 0.00 in0.0 mm 0.00 in0.0 mm
06:04 AM 59.5°F15.3°C 50.2°F10.1°C 71% Calm Calm -- 28.87 in977.7 mb 0.00 in0.0 mm 0.00 in0.0 mm 0.00 in0.0 mm
06:03 AM 59.5°F15.3°C 50.2°F10.1°C 71% Calm Calm -- 28.87 in977.7 mb 0.00 in0.0 mm 0.00 in0.0 mm 0.00 in0.0 mm
06:02 AM 59.5°F15.3°C 50.2°F10.1°C 71% Calm Calm -- 28.87 in977.7 mb 0.00 in0.0 mm 0.00 in0.0 mm 0.00 in0.0 mm
06:01 AM 59.5°F15.3°C 50.2°F10.1°C 71% Calm Calm -- 28.87 in977.7 mb 0.00 in0.0 mm 0.00 in0.0 mm 0.00 in0.0 mm
06:00 AM 59.5°F15.3°C 50.2°F10.1°C 71% Calm Calm -- 28.87 in977.7 mb 0.00 in0.0 mm 0.00 in0.0 mm 0.00 in0.0 mm
05:59 AM 59.5°F15.3°C 50.2°F10.1°C 71% Calm Calm -- 28.87 in977.7 mb 0.00 in0.0 mm 0.00 in0.0 mm 0.00 in0.0 mm
05:58 AM 59.5°F15.3°C 50.2°F10.1°C 71% Calm Calm -- 28.87 in977.7 mb 0.00 in0.0 mm 0.00 in0.0 mm 0.00 in0.0 mm
05:57 AM 59.5°F15.3°C 50.2°F10.1°C 71% Calm Calm -- 28.87 in977.7 mb 0.00 in0.0 mm 0.00 in0.0 mm 0.00 in0.0 mm
05:56 AM 59.5°F15.3°C 50.2°F10.1°C 71% Calm Calm -- 28.87 in977.7 mb 0.00 in0.0 mm 0.00 in0.0 mm 0.00 in0.0 mm
05:55 AM 59.5°F15.3°C 50.2°F10.1°C 71% Calm Calm -- 28.87 in977.7 mb 0.00 in0.0 mm 0.00 in0.0 mm 0.00 in0.0 mm
05:54 AM 59.5°F15.3°C 50.2°F10.1°C 71% Calm Calm -- 28.87 in977.7 mb 0.00 in0.0 mm 0.00 in0.0 mm 0.00 in0.0 mm
05:53 AM 59.5°F15.3°C 50.2°F10.1°C 71% Calm Calm -- 28.86 in977.3 mb 0.00 in0.0 mm 0.00 in0.0 mm 0.00 in0.0 mm
05:52 AM 59.4°F15.2°C 50.0°F10.0°C 71% Calm Calm -- 28.86 in977.3 mb 0.00 in0.0 mm 0.00 in0.0 mm 0.00 in0.0 mm
05:51 AM 59.4°F15.2°C 50.0°F10.0°C 71% Calm Calm -- 28.86 in977.3 mb 0.00 in0.0 mm 0.00 in0.0 mm 0.00 in0.0 mm
05:50 AM 59.4°F15.2°C 50.0°F10.0°C 71% Calm Calm -- 28.87 in977.7 mb 0.00 in0.0 mm 0.00 in0.0 mm 0.00 in0.0 mm
05:49 AM 59.4°F15.2°C 50.0°F10.0°C 71% Calm Calm -- 28.87 in977.7 mb 0.00 in0.0 mm 0.00 in0.0 mm 0.00 in0.0 mm
05:48 AM 59.4°F15.2°C 50.0°F10.0°C 71% Calm Calm -- 28.87 in977.7 mb 0.00 in0.0 mm 0.00 in0.0 mm 0.00 in0.0 mm
05:47 AM 59.4°F15.2°C 50.0°F10.0°C 71% Calm Calm -- 28.87 in977.7 mb 0.00 in0.0 mm 0.00 in0.0 mm 0.00 in0.0 mm
05:46 AM 59.4°F15.2°C 50.0°F10.0°C 71% Calm Calm -- 28.87 in977.7 mb 0.00 in0.0 mm 0.00 in0.0 mm 0.00 in0.0 mm
05:45 AM 59.4°F15.2°C 50.0°F10.0°C 71% Calm Calm -- 28.87 in977.7 mb 0.00 in0.0 mm 0.00 in0.0 mm 0.00 in0.0 mm
05:44 AM 59.4°F15.2°C 50.4°F10.2°C 72% Calm Calm -- 28.87 in977.7 mb 0.00 in0.0 mm 0.00 in0.0 mm 0.00 in0.0 mm
05:43 AM 59.4°F15.2°C 50.4°F10.2°C 72% Calm Calm -- 28.87 in977.7 mb 0.00 in0.0 mm 0.00 in0.0 mm 0.00 in0.0 mm
05:42 AM 59.4°F15.2°C 50.4°F10.2°C 72% Calm Calm -- 28.87 in977.7 mb 0.00 in0.0 mm 0.00 in0.0 mm 0.00 in0.0 mm
05:41 AM 59.4°F15.2°C 50.4°F10.2°C 72% Calm Calm -- 28.87 in977.7 mb 0.00 in0.0 mm 0.00 in0.0 mm 0.00 in0.0 mm
05:40 AM 59.4°F15.2°C 50.4°F10.2°C 72% Calm Calm -- 28.87 in977.7 mb 0.00 in0.0 mm 0.00 in0.0 mm 0.00 in0.0 mm
05:39 AM 59.4°F15.2°C 50.4°F10.2°C 72% Calm Calm -- 28.87 in977.7 mb 0.00 in0.0 mm 0.00 in0.0 mm 0.00 in0.0 mm
05:38 AM 59.4°F15.2°C 50.4°F10.2°C 72% Calm Calm -- 28.87 in977.7 mb 0.00 in0.0 mm 0.00 in0.0 mm 0.00 in0.0 mm
05:37 AM 59.4°F15.2°C 50.4°F10.2°C 72% Calm Calm -- 28.87 in977.7 mb 0.00 in0.0 mm 0.00 in0.0 mm 0.00 in0.0 mm
05:36 AM 59.4°F15.2°C 50.4°F10.2°C 72% Calm Calm -- 28.87 in977.7 mb 0.00 in0.0 mm 0.00 in0.0 mm 0.00 in0.0 mm
05:35 AM 59.4°F15.2°C 50.4°F10.2°C 72% Calm Calm -- 28.86 in977.3 mb 0.00 in0.0 mm 0.00 in0.0 mm 0.00 in0.0 mm
05:34 AM 59.4°F15.2°C 50.4°F10.2°C 72% Calm Calm -- 28.86 in977.3 mb 0.00 in0.0 mm 0.00 in0.0 mm 0.00 in0.0 mm
05:33 AM 59.4°F15.2°C 50.4°F10.2°C 72% Calm Calm -- 28.86 in977.3 mb 0.00 in0.0 mm 0.00 in0.0 mm 0.00 in0.0 mm
05:32 AM 59.4°F15.2°C 50.4°F10.2°C 72% Calm Calm -- 28.86 in977.3 mb 0.00 in0.0 mm 0.00 in0.0 mm 0.00 in0.0 mm
05:31 AM 59.4°F15.2°C 50.4°F10.2°C 72% Calm Calm -- 28.86 in977.3 mb 0.00 in0.0 mm 0.00 in0.0 mm 0.00 in0.0 mm
05:30 AM 59.4°F15.2°C 50.4°F10.2°C 72% Calm Calm -- 28.86 in977.3 mb 0.00 in0.0 mm 0.00 in0.0 mm 0.00 in0.0 mm
05:29 AM 59.4°F15.2°C 50.4°F10.2°C 72% Calm Calm -- 28.86 in977.3 mb 0.00 in0.0 mm 0.00 in0.0 mm 0.00 in0.0 mm
05:28 AM 59.4°F15.2°C 50.4°F10.2°C 72% Calm Calm -- 28.86 in977.3 mb 0.00 in0.0 mm 0.00 in0.0 mm 0.00 in0.0 mm
05:27 AM 59.4°F15.2°C 50.4°F10.2°C 72% Calm Calm -- 28.86 in977.3 mb 0.00 in0.0 mm 0.00 in0.0 mm 0.00 in0.0 mm
05:26 AM 59.4°F15.2°C 50.4°F10.2°C 72% Calm Calm -- 28.86 in977.3 mb 0.00 in0.0 mm 0.00 in0.0 mm 0.00 in0.0 mm
05:25 AM 59.4°F15.2°C 50.4°F10.2°C 72% Calm Calm -- 28.86 in977.3 mb 0.00 in0.0 mm 0.00 in0.0 mm 0.00 in0.0 mm
05:24 AM 59.4°F15.2°C 50.4°F10.2°C 72% Calm Calm -- 28.86 in977.3 mb 0.00 in0.0 mm 0.00 in0.0 mm 0.00 in0.0 mm
05:23 AM 59.4°F15.2°C 50.4°F10.2°C 72% Calm Calm -- 28.86 in977.3 mb 0.00 in0.0 mm 0.00 in0.0 mm 0.00 in0.0 mm
05:22 AM 59.4°F15.2°C 50.4°F10.2°C 72% Calm Calm -- 28.86 in977.3 mb 0.00 in0.0 mm 0.00 in0.0 mm 0.00 in0.0 mm
05:21 AM 59.4°F15.2°C 50.4°F10.2°C 72% Calm Calm -- 28.86 in977.3 mb 0.00 in0.0 mm 0.00 in0.0 mm 0.00 in0.0 mm
05:20 AM 59.2°F15.1°C 50.2°F10.1°C 72% Calm Calm -- 28.87 in977.7 mb 0.00 in0.0 mm 0.00 in0.0 mm 0.00 in0.0 mm
05:19 AM 59.4°F15.2°C 50.4°F10.2°C 72% Calm Calm -- 28.87 in977.7 mb 0.00 in0.0 mm 0.00 in0.0 mm 0.00 in0.0 mm
05:18 AM 59.2°F15.1°C 50.2°F10.1°C 72% Calm Calm -- 28.87 in977.7 mb 0.00 in0.0 mm 0.00 in0.0 mm 0.00 in0.0 mm
05:17 AM 59.2°F15.1°C 50.2°F10.1°C 72% Calm Calm -- 28.87 in977.7 mb 0.00 in0.0 mm 0.00 in0.0 mm 0.00 in0.0 mm
05:16 AM 59.2°F15.1°C 50.2°F10.1°C 72% Calm Calm -- 28.87 in977.7 mb 0.00 in0.0 mm 0.00 in0.0 mm 0.00 in0.0 mm
05:15 AM 59.2°F15.1°C 50.2°F10.1°C 72% Calm Calm -- 28.87 in977.7 mb 0.00 in0.0 mm 0.00 in0.0 mm 0.00 in0.0 mm
05:14 AM 59.2°F15.1°C 50.2°F10.1°C 72% Calm Calm -- 28.87 in977.7 mb 0.00 in0.0 mm 0.00 in0.0 mm 0.00 in0.0 mm
05:13 AM 59.2°F15.1°C 50.2°F10.1°C 72% Calm Calm -- 28.87 in977.7 mb 0.00 in0.0 mm 0.00 in0.0 mm 0.00 in0.0 mm
05:12 AM 59.2°F15.1°C 50.2°F10.1°C 72% Calm Calm -- 28.87 in977.7 mb 0.00 in0.0 mm 0.00 in0.0 mm 0.00 in0.0 mm
05:11 AM 59.2°F15.1°C 50.5°F10.3°C 73% Calm Calm -- 28.87 in977.7 mb 0.00 in0.0 mm 0.00 in0.0 mm 0.00 in0.0 mm
05:10 AM 59.2°F15.1°C 50.5°F10.3°C 73% Calm Calm -- 28.87 in977.7 mb 0.00 in0.0 mm 0.00 in0.0 mm 0.00 in0.0 mm
05:09 AM 59.2°F15.1°C 50.5°F10.3°C 73% Calm Calm -- 28.87 in977.7 mb 0.00 in0.0 mm 0.00 in0.0 mm 0.00 in0.0 mm
05:08 AM 59.2°F15.1°C 50.5°F10.3°C 73% Calm Calm -- 28.87 in977.7 mb 0.00 in0.0 mm 0.00 in0.0 mm 0.00 in0.0 mm
05:07 AM 59.2°F15.1°C 50.5°F10.3°C 73% Calm Calm -- 28.87 in977.7 mb 0.00 in0.0 mm 0.00 in0.0 mm 0.00 in0.0 mm
05:06 AM 59.2°F15.1°C 50.5°F10.3°C 73% Calm Calm -- 28.87 in977.7 mb 0.00 in0.0 mm 0.00 in0.0 mm 0.00 in0.0 mm
05:05 AM 59.2°F15.1°C 50.5°F10.3°C 73% Calm Calm -- 28.87 in977.7 mb 0.00 in0.0 mm 0.00 in0.0 mm 0.00 in0.0 mm
05:04 AM 59.2°F15.1°C 50.9°F10.5°C 74% Calm Calm -- 28.87 in977.7 mb 0.00 in0.0 mm 0.00 in0.0 mm 0.00 in0.0 mm
05:03 AM 59.2°F15.1°C 50.9°F10.5°C 74% Calm Calm -- 28.87 in977.7 mb 0.00 in0.0 mm 0.00 in0.0 mm 0.00 in0.0 mm
05:02 AM 59.2°F15.1°C 50.9°F10.5°C 74% Calm Calm -- 28.87 in977.7 mb 0.00 in0.0 mm 0.00 in0.0 mm 0.00 in0.0 mm
05:01 AM 59.2°F15.1°C 50.9°F10.5°C 74% Calm Calm -- 28.87 in977.7 mb 0.00 in0.0 mm 0.00 in0.0 mm 0.00 in0.0 mm
05:00 AM 59.2°F15.1°C 50.9°F10.5°C 74% Calm Calm -- 28.87 in977.7 mb 0.00 in0.0 mm 0.00 in0.0 mm 0.00 in0.0 mm
04:59 AM 59.2°F15.1°C 50.9°F10.5°C 74% Calm Calm -- 28.87 in977.7 mb 0.00 in0.0 mm 0.00 in0.0 mm 0.00 in0.0 mm
04:58 AM 59.2°F15.1°C 50.9°F10.5°C 74% Calm Calm -- 28.87 in977.7 mb 0.00 in0.0 mm 0.00 in0.0 mm 0.00 in0.0 mm
04:57 AM 59.4°F15.2°C 50.7°F10.4°C 73% Calm Calm -- 28.87 in977.7 mb 0.00 in0.0 mm 0.00 in0.0 mm 0.00 in0.0 mm
04:56 AM 59.4°F15.2°C 50.7°F10.4°C 73% Calm Calm -- 28.87 in977.7 mb 0.00 in0.0 mm 0.00 in0.0 mm 0.00 in0.0 mm
04:55 AM 59.4°F15.2°C 50.7°F10.4°C 73% Calm Calm -- 28.87 in977.7 mb 0.00 in0.0 mm 0.00 in0.0 mm 0.00 in0.0 mm
04:54 AM 59.4°F15.2°C 50.7°F10.4°C 73% Calm Calm -- 28.87 in977.7 mb 0.00 in0.0 mm 0.00 in0.0 mm 0.00 in0.0 mm
04:53 AM 59.4°F15.2°C 50.7°F10.4°C 73% Calm Calm -- 28.86 in977.3 mb 0.00 in0.0 mm 0.00 in0.0 mm 0.00 in0.0 mm
04:52 AM 59.4°F15.2°C 51.1°F10.6°C 74% Calm Calm -- 28.87 in977.7 mb 0.00 in0.0 mm 0.00 in0.0 mm 0.00 in0.0 mm
04:51 AM 59.4°F15.2°C 51.1°F10.6°C 74% Calm Calm -- 28.87 in977.7 mb 0.00 in0.0 mm 0.00 in0.0 mm 0.00 in0.0 mm
04:50 AM 59.4°F15.2°C 51.1°F10.6°C 74% Calm Calm -- 28.87 in977.7 mb 0.00 in0.0 mm 0.00 in0.0 mm 0.00 in0.0 mm
04:49 AM 59.5°F15.3°C 51.3°F10.7°C 74% Calm Calm -- 28.87 in977.7 mb 0.00 in0.0 mm 0.00 in0.0 mm 0.00 in0.0 mm
04:48 AM 59.5°F15.3°C 51.3°F10.7°C 74% Calm Calm -- 28.87 in977.7 mb 0.00 in0.0 mm 0.00 in0.0 mm 0.00 in0.0 mm
04:47 AM 59.5°F15.3°C 51.3°F10.7°C 74% Calm Calm -- 28.87 in977.7 mb 0.00 in0.0 mm 0.00 in0.0 mm 0.00 in0.0 mm
04:46 AM 59.5°F15.3°C 51.3°F10.7°C 74% Calm Calm -- 28.87 in977.7 mb 0.00 in0.0 mm 0.00 in0.0 mm 0.00 in0.0 mm
04:45 AM 59.5°F15.3°C 51.3°F10.7°C 74% Calm Calm -- 28.87 in977.7 mb 0.00 in0.0 mm 0.00 in0.0 mm 0.00 in0.0 mm
04:44 AM 59.5°F15.3°C 50.9°F10.5°C 73% Calm Calm -- 28.87 in977.7 mb 0.00 in0.0 mm 0.00 in0.0 mm 0.00 in0.0 mm
04:43 AM 59.5°F15.3°C 50.9°F10.5°C 73% Calm Calm -- 28.87 in977.7 mb 0.00 in0.0 mm 0.00 in0.0 mm 0.00 in0.0 mm
04:42 AM 59.5°F15.3°C 50.9°F10.5°C 73% Calm Calm -- 28.87 in977.7 mb 0.00 in0.0 mm 0.00 in0.0 mm 0.00 in0.0 mm
04:41 AM 59.5°F15.3°C 50.9°F10.5°C 73% Calm Calm -- 28.87 in977.7 mb 0.00 in0.0 mm 0.00 in0.0 mm 0.00 in0.0 mm
04:40 AM 59.5°F15.3°C 50.9°F10.5°C 73% Calm Calm -- 28.88 in978.0 mb 0.00 in0.0 mm 0.00 in0.0 mm 0.00 in0.0 mm
04:39 AM 59.5°F15.3°C 50.9°F10.5°C 73% Calm Calm -- 28.88 in978.0 mb 0.00 in0.0 mm 0.00 in0.0 mm 0.00 in0.0 mm
04:38 AM 59.7°F15.4°C 51.1°F10.6°C 73% Calm Calm -- 28.88 in978.0 mb 0.00 in0.0 mm 0.00 in0.0 mm 0.00 in0.0 mm
04:37 AM 59.7°F15.4°C 50.7°F10.4°C 72% Calm Calm -- 28.87 in977.7 mb 0.00 in0.0 mm 0.00 in0.0 mm 0.00 in0.0 mm
04:36 AM 59.7°F15.4°C 50.7°F10.4°C 72% Calm Calm -- 28.88 in978.0 mb 0.00 in0.0 mm 0.00 in0.0 mm 0.00 in0.0 mm
04:35 AM 59.7°F15.4°C 50.7°F10.4°C 72% Calm Calm -- 28.88 in978.0 mb 0.00 in0.0 mm 0.00 in0.0 mm 0.00 in0.0 mm
04:34 AM 59.7°F15.4°C 50.4°F10.2°C 71% Calm Calm -- 28.88 in978.0 mb 0.00 in0.0 mm 0.00 in0.0 mm 0.00 in0.0 mm
04:33 AM 59.7°F15.4°C 50.4°F10.2°C 71% Calm Calm -- 28.88 in978.0 mb 0.00 in0.0 mm 0.00 in0.0 mm 0.00 in0.0 mm
04:32 AM 59.7°F15.4°C 50.4°F10.2°C 71% Calm Calm -- 28.88 in978.0 mb 0.00 in0.0 mm 0.00 in0.0 mm 0.00 in0.0 mm
04:31 AM 59.7°F15.4°C 50.4°F10.2°C 71% Calm Calm -- 28.88 in978.0 mb 0.00 in0.0 mm 0.00 in0.0 mm 0.00 in0.0 mm
04:30 AM 59.7°F15.4°C 50.4°F10.2°C 71% Calm Calm -- 28.88 in978.0 mb 0.00 in0.0 mm 0.00 in0.0 mm 0.00 in0.0 mm
04:29 AM 59.7°F15.4°C 50.4°F10.2°C 71% Calm Calm -- 28.88 in978.0 mb 0.00 in0.0 mm 0.00 in0.0 mm 0.00 in0.0 mm
04:28 AM 59.7°F15.4°C 50.4°F10.2°C 71% Calm Calm -- 28.88 in978.0 mb 0.00 in0.0 mm 0.00 in0.0 mm 0.00 in0.0 mm
04:27 AM 59.7°F15.4°C 50.4°F10.2°C 71% Calm Calm -- 28.88 in978.0 mb 0.00 in0.0 mm 0.00 in0.0 mm 0.00 in0.0 mm
04:26 AM 59.7°F15.4°C 50.4°F10.2°C 71% Calm Calm -- 28.88 in978.0 mb 0.00 in0.0 mm 0.00 in0.0 mm 0.00 in0.0 mm
04:25 AM 59.7°F15.4°C 50.4°F10.2°C 71% Calm Calm -- 28.88 in978.0 mb 0.00 in0.0 mm 0.00 in0.0 mm 0.00 in0.0 mm
04:24 AM 59.7°F15.4°C 50.4°F10.2°C 71% Calm Calm -- 28.88 in978.0 mb 0.00 in0.0 mm 0.00 in0.0 mm 0.00 in0.0 mm
04:23 AM 59.7°F15.4°C 50.4°F10.2°C 71% Calm Calm -- 28.88 in978.0 mb 0.00 in0.0 mm 0.00 in0.0 mm 0.00 in0.0 mm
04:22 AM 59.7°F15.4°C 50.4°F10.2°C 71% Calm Calm -- 28.87 in977.7 mb 0.00 in0.0 mm 0.00 in0.0 mm 0.00 in0.0 mm
04:21 AM 59.9°F15.5°C 50.9°F10.5°C 72% Calm Calm -- 28.87 in977.7 mb 0.00 in0.0 mm 0.00 in0.0 mm 0.00 in0.0 mm
04:20 AM 59.7°F15.4°C 50.7°F10.4°C 72% Calm Calm -- 28.88 in978.0 mb 0.00 in0.0 mm 0.00 in0.0 mm 0.00 in0.0 mm
04:19 AM 59.9°F15.5°C 50.9°F10.5°C 72% Calm Calm -- 28.87 in977.7 mb 0.00 in0.0 mm 0.00 in0.0 mm 0.00 in0.0 mm
04:18 AM 59.9°F15.5°C 50.9°F10.5°C 72% Calm Calm -- 28.87 in977.7 mb 0.00 in0.0 mm 0.00 in0.0 mm 0.00 in0.0 mm
04:17 AM 59.9°F15.5°C 50.9°F10.5°C 72% Calm Calm -- 28.87 in977.7 mb 0.00 in0.0 mm 0.00 in0.0 mm 0.00 in0.0 mm
04:16 AM 59.9°F15.5°C 50.9°F10.5°C 72% Calm Calm -- 28.87 in977.7 mb 0.00 in0.0 mm 0.00 in0.0 mm 0.00 in0.0 mm
04:15 AM 59.9°F15.5°C 50.9°F10.5°C 72% Calm Calm -- 28.87 in977.7 mb 0.00 in0.0 mm 0.00 in0.0 mm 0.00 in0.0 mm
04:14 AM 59.9°F15.5°C 50.9°F10.5°C 72% Calm Calm -- 28.87 in977.7 mb 0.00 in0.0 mm 0.00 in0.0 mm 0.00 in0.0 mm
04:13 AM 59.9°F15.5°C 50.9°F10.5°C 72% Calm Calm -- 28.87 in977.7 mb 0.00 in0.0 mm 0.00 in0.0 mm 0.00 in0.0 mm
04:12 AM 59.9°F15.5°C 50.9°F10.5°C 72% Calm Calm -- 28.87 in977.7 mb 0.00 in0.0 mm 0.00 in0.0 mm 0.00 in0.0 mm
04:11 AM 59.9°F15.5°C 50.9°F10.5°C 72% Calm Calm -- 28.87 in977.7 mb 0.00 in0.0 mm 0.00 in0.0 mm 0.00 in0.0 mm
04:10 AM 59.9°F15.5°C 50.9°F10.5°C 72% Calm Calm -- 28.87 in977.7 mb 0.00 in0.0 mm 0.00 in0.0 mm 0.00 in0.0 mm
04:09 AM 59.9°F15.5°C 51.3°F10.7°C 73% Calm Calm -- 28.87 in977.7 mb 0.00 in0.0 mm 0.00 in0.0 mm 0.00 in0.0 mm
04:08 AM 59.9°F15.5°C 51.3°F10.7°C 73% Calm Calm -- 28.87 in977.7 mb 0.00 in0.0 mm 0.00 in0.0 mm 0.00 in0.0 mm
04:07 AM 59.9°F15.5°C 51.3°F10.7°C 73% Calm Calm -- 28.87 in977.7 mb 0.00 in0.0 mm 0.00 in0.0 mm 0.00 in0.0 mm
04:06 AM 59.9°F15.5°C 51.3°F10.7°C 73% Calm Calm -- 28.87 in977.7 mb 0.00 in0.0 mm 0.00 in0.0 mm 0.00 in0.0 mm
04:05 AM 59.9°F15.5°C 51.3°F10.7°C 73% Calm Calm -- 28.87 in977.7 mb 0.00 in0.0 mm 0.00 in0.0 mm 0.00 in0.0 mm
04:04 AM 59.9°F15.5°C 51.3°F10.7°C 73% Calm Calm -- 28.88 in978.0 mb 0.00 in0.0 mm 0.00 in0.0 mm 0.00 in0.0 mm
04:03 AM 59.9°F15.5°C 51.3°F10.7°C 73% Calm Calm -- 28.88 in978.0 mb 0.00 in0.0 mm 0.00 in0.0 mm 0.00 in0.0 mm
04:02 AM 59.9°F15.5°C 51.3°F10.7°C 73% Calm Calm -- 28.88 in978.0 mb 0.00 in0.0 mm 0.00 in0.0 mm 0.00 in0.0 mm
04:01 AM 59.9°F15.5°C 51.3°F10.7°C 73% Calm Calm -- 28.88 in978.0 mb 0.00 in0.0 mm 0.00 in0.0 mm 0.00 in0.0 mm
04:00 AM 59.9°F15.5°C 51.3°F10.7°C 73% Calm Calm -- 28.88 in978.0 mb 0.00 in0.0 mm 0.00 in0.0 mm 0.00 in0.0 mm
03:59 AM 59.9°F15.5°C 51.3°F10.7°C 73% Calm Calm -- 28.88 in978.0 mb 0.00 in0.0 mm 0.00 in0.0 mm 0.00 in0.0 mm
03:58 AM 59.9°F15.5°C 51.3°F10.7°C 73% Calm Calm 2.0 mph3.2 kmh 28.88 in978.0 mb 0.00 in0.0 mm 0.00 in0.0 mm 0.00 in0.0 mm
03:57 AM 59.9°F15.5°C 51.3°F10.7°C 73% Calm Calm 2.0 mph3.2 kmh 28.88 in978.0 mb 0.00 in0.0 mm 0.00 in0.0 mm 0.00 in0.0 mm
03:56 AM 59.9°F15.5°C 51.3°F10.7°C 73% Calm Calm 2.0 mph3.2 kmh 28.88 in978.0 mb 0.00 in0.0 mm 0.00 in0.0 mm 0.00 in0.0 mm
03:55 AM 59.9°F15.5°C 51.3°F10.7°C 73% Calm Calm 2.0 mph3.2 kmh 28.88 in978.0 mb 0.00 in0.0 mm 0.00 in0.0 mm 0.00 in0.0 mm
03:54 AM 59.9°F15.5°C 51.3°F10.7°C 73% Calm Calm 3.1 mph5.0 kmh 28.88 in978.0 mb 0.00 in0.0 mm 0.00 in0.0 mm 0.00 in0.0 mm
03:53 AM 59.9°F15.5°C 51.3°F10.7°C 73% Calm Calm 3.1 mph5.0 kmh 28.88 in978.0 mb 0.00 in0.0 mm 0.00 in0.0 mm 0.00 in0.0 mm
03:52 AM 59.9°F15.5°C 51.3°F10.7°C 73% Calm Calm 3.6 mph5.8 kmh 28.88 in978.0 mb 0.00 in0.0 mm 0.00 in0.0 mm 0.00 in0.0 mm
03:51 AM 59.9°F15.5°C 51.3°F10.7°C 73% Calm Calm 3.6 mph5.8 kmh 28.88 in978.0 mb 0.00 in0.0 mm 0.00 in0.0 mm 0.00 in0.0 mm
03:50 AM 59.9°F15.5°C 51.3°F10.7°C 73% Calm Calm 3.6 mph5.8 kmh 28.88 in978.0 mb 0.00 in0.0 mm 0.00 in0.0 mm 0.00 in0.0 mm
03:49 AM 59.9°F15.5°C 51.3°F10.7°C 73% Calm Calm 3.6 mph5.8 kmh 28.88 in978.0 mb 0.00 in0.0 mm 0.00 in0.0 mm 0.00 in0.0 mm
03:48 AM 59.9°F15.5°C 51.6°F10.9°C 74% 2.0 mph ESE3.2 kmh ESE 3.6 mph5.8 kmh 28.88 in978.0 mb 0.00 in0.0 mm 0.00 in0.0 mm 0.00 in0.0 mm
03:47 AM 59.9°F15.5°C 51.6°F10.9°C 74% 2.0 mph ESE3.2 kmh ESE 3.6 mph5.8 kmh 28.88 in978.0 mb 0.00 in0.0 mm 0.00 in0.0 mm 0.00 in0.0 mm
03:46 AM 59.9°F15.5°C 51.6°F10.9°C 74% 2.0 mph ESE3.2 kmh ESE 3.6 mph5.8 kmh 28.88 in978.0 mb 0.00 in0.0 mm 0.00 in0.0 mm 0.00 in0.0 mm
03:45 AM 59.9°F15.5°C 51.6°F10.9°C 74% 2.5 mph ESE4.0 kmh ESE 3.6 mph5.8 kmh 28.88 in978.0 mb 0.00 in0.0 mm 0.00 in0.0 mm 0.00 in0.0 mm
03:44 AM 59.9°F15.5°C 51.6°F10.9°C 74% 1.8 mph ESE2.9 kmh ESE 3.6 mph5.8 kmh 28.89 in978.3 mb 0.00 in0.0 mm 0.00 in0.0 mm 0.00 in0.0 mm
03:43 AM 59.9°F15.5°C 51.6°F10.9°C 74% 2.2 mph ESE3.5 kmh ESE 3.6 mph5.8 kmh 28.88 in978.0 mb 0.00 in0.0 mm 0.00 in0.0 mm 0.00 in0.0 mm
03:42 AM 59.9°F15.5°C 51.6°F10.9°C 74% 2.9 mph ESE4.7 kmh ESE 3.1 mph5.0 kmh 28.88 in978.0 mb 0.00 in0.0 mm 0.00 in0.0 mm 0.00 in0.0 mm
03:41 AM 60.1°F15.6°C 51.8°F11.0°C 74% 2.2 mph ESE3.5 kmh ESE 2.2 mph3.5 kmh 28.89 in978.3 mb 0.00 in0.0 mm 0.00 in0.0 mm 0.00 in0.0 mm
03:40 AM 60.1°F15.6°C 51.8°F11.0°C 74% Calm Calm 2.2 mph3.5 kmh 28.89 in978.3 mb 0.00 in0.0 mm 0.00 in0.0 mm 0.00 in0.0 mm
03:39 AM 60.1°F15.6°C 51.8°F11.0°C 74% Calm Calm 2.2 mph3.5 kmh 28.89 in978.3 mb 0.00 in0.0 mm 0.00 in0.0 mm 0.00 in0.0 mm
03:38 AM 60.1°F15.6°C 51.4°F10.8°C 73% Calm Calm 2.2 mph3.5 kmh 28.89 in978.3 mb 0.00 in0.0 mm 0.00 in0.0 mm 0.00 in0.0 mm
03:37 AM 60.1°F15.6°C 51.4°F10.8°C 73% Calm Calm 2.2 mph3.5 kmh 28.89 in978.3 mb 0.00 in0.0 mm 0.00 in0.0 mm 0.00 in0.0 mm
03:36 AM 60.1°F15.6°C 51.4°F10.8°C 73% Calm Calm 2.2 mph3.5 kmh 28.89 in978.3 mb 0.00 in0.0 mm 0.00 in0.0 mm 0.00 in0.0 mm
03:35 AM 60.1°F15.6°C 51.4°F10.8°C 73% 1.6 mph ESE2.6 kmh ESE 2.2 mph3.5 kmh 28.89 in978.3 mb 0.00 in0.0 mm 0.00 in0.0 mm 0.00 in0.0 mm
03:34 AM 60.1°F15.6°C 51.4°F10.8°C 73% Calm Calm 2.2 mph3.5 kmh 28.89 in978.3 mb 0.00 in0.0 mm 0.00 in0.0 mm 0.00 in0.0 mm
03:33 AM 60.1°F15.6°C 51.4°F10.8°C 73% Calm Calm 2.2 mph3.5 kmh 28.89 in978.3 mb 0.00 in0.0 mm 0.00 in0.0 mm 0.00 in0.0 mm
03:32 AM 60.1°F15.6°C 51.1°F10.6°C 72% Calm Calm 0.7 mph1.1 kmh 28.89 in978.3 mb 0.00 in0.0 mm 0.00 in0.0 mm 0.00 in0.0 mm
03:31 AM 60.1°F15.6°C 51.1°F10.6°C 72% Calm Calm 0.7 mph1.1 kmh 28.89 in978.3 mb 0.00 in0.0 mm 0.00 in0.0 mm 0.00 in0.0 mm
03:30 AM 60.1°F15.6°C 51.1°F10.6°C 72% Calm Calm -- 28.89 in978.3 mb 0.00 in0.0 mm 0.00 in0.0 mm 0.00 in0.0 mm
03:29 AM 60.1°F15.6°C 51.1°F10.6°C 72% Calm Calm -- 28.89 in978.3 mb 0.00 in0.0 mm 0.00 in0.0 mm 0.00 in0.0 mm
03:28 AM 60.1°F15.6°C 50.7°F10.4°C 71% Calm Calm -- 28.89 in978.3 mb 0.00 in0.0 mm 0.00 in0.0 mm 0.00 in0.0 mm
03:27 AM 60.1°F15.6°C 50.7°F10.4°C 71% Calm Calm -- 28.89 in978.3 mb 0.00 in0.0 mm 0.00 in0.0 mm 0.00 in0.0 mm
03:26 AM 60.1°F15.6°C 50.7°F10.4°C 71% Calm Calm -- 28.89 in978.3 mb 0.00 in0.0 mm 0.00 in0.0 mm 0.00 in0.0 mm
03:25 AM 60.1°F15.6°C 50.7°F10.4°C 71% Calm Calm -- 28.89 in978.3 mb 0.00 in0.0 mm 0.00 in0.0 mm 0.00 in0.0 mm
03:24 AM 60.1°F15.6°C 50.7°F10.4°C 71% Calm Calm -- 28.89 in978.3 mb 0.00 in0.0 mm 0.00 in0.0 mm 0.00 in0.0 mm
03:23 AM 60.1°F15.6°C 50.7°F10.4°C 71% Calm Calm -- 28.89 in978.3 mb 0.00 in0.0 mm 0.00 in0.0 mm 0.00 in0.0 mm
03:22 AM 60.3°F15.7°C 50.9°F10.5°C 71% Calm Calm -- 28.89 in978.3 mb 0.00 in0.0 mm 0.00 in0.0 mm 0.00 in0.0 mm
03:21 AM 60.3°F15.7°C 50.9°F10.5°C 71% Calm Calm -- 28.89 in978.3 mb 0.00 in0.0 mm 0.00 in0.0 mm 0.00 in0.0 mm
03:20 AM 60.3°F15.7°C 51.3°F10.7°C 72% Calm Calm -- 28.89 in978.3 mb 0.00 in0.0 mm 0.00 in0.0 mm 0.00 in0.0 mm
03:19 AM 60.4°F15.8°C 51.4°F10.8°C 72% Calm Calm -- 28.89 in978.3 mb 0.00 in0.0 mm 0.00 in0.0 mm 0.00 in0.0 mm
03:18 AM 60.4°F15.8°C 51.4°F10.8°C 72% Calm Calm -- 28.89 in978.3 mb 0.00 in0.0 mm 0.00 in0.0 mm 0.00 in0.0 mm
03:17 AM 60.4°F15.8°C 51.4°F10.8°C 72% Calm Calm -- 28.89 in978.3 mb 0.00 in0.0 mm 0.00 in0.0 mm 0.00 in0.0 mm
03:16 AM 60.4°F15.8°C 51.4°F10.8°C 72% Calm Calm -- 28.89 in978.3 mb 0.00 in0.0 mm 0.00 in0.0 mm 0.00 in0.0 mm
03:15 AM 60.4°F15.8°C 51.1°F10.6°C 71% Calm Calm -- 28.89 in978.3 mb 0.00 in0.0 mm 0.00 in0.0 mm 0.00 in0.0 mm
03:14 AM 60.4°F15.8°C 51.1°F10.6°C 71% Calm Calm -- 28.89 in978.3 mb 0.00 in0.0 mm 0.00 in0.0 mm 0.00 in0.0 mm
03:13 AM 60.4°F15.8°C 51.1°F10.6°C 71% Calm Calm -- 28.89 in978.3 mb 0.00 in0.0 mm 0.00 in0.0 mm 0.00 in0.0 mm
03:12 AM 60.4°F15.8°C 51.1°F10.6°C 71% Calm Calm -- 28.89 in978.3 mb 0.00 in0.0 mm 0.00 in0.0 mm 0.00 in0.0 mm
03:11 AM 60.4°F15.8°C 51.1°F10.6°C 71% Calm Calm -- 28.89 in978.3 mb 0.00 in0.0 mm 0.00 in0.0 mm 0.00 in0.0 mm
03:10 AM 60.4°F15.8°C 51.4°F10.8°C 72% Calm Calm -- 28.89 in978.3 mb 0.00 in0.0 mm 0.00 in0.0 mm 0.00 in0.0 mm
03:09 AM 60.4°F15.8°C 51.4°F10.8°C 72% Calm Calm -- 28.89 in978.3 mb 0.00 in0.0 mm 0.00 in0.0 mm 0.00 in0.0 mm
03:08 AM 60.4°F15.8°C 51.4°F10.8°C 72% Calm Calm -- 28.89 in978.3 mb 0.00 in0.0 mm 0.00 in0.0 mm 0.00 in0.0 mm
03:07 AM 60.4°F15.8°C 51.4°F10.8°C 72% Calm Calm -- 28.89 in978.3 mb 0.00 in0.0 mm 0.00 in0.0 mm 0.00 in0.0 mm
03:06 AM 60.4°F15.8°C 51.4°F10.8°C 72% Calm Calm -- 28.89 in978.3 mb 0.00 in0.0 mm 0.00 in0.0 mm 0.00 in0.0 mm
03:05 AM 60.4°F15.8°C 51.4°F10.8°C 72% Calm Calm -- 28.89 in978.3 mb 0.00 in0.0 mm 0.00 in0.0 mm 0.00 in0.0 mm
03:04 AM 60.4°F15.8°C 51.4°F10.8°C 72% Calm Calm -- 28.89 in978.3 mb 0.00 in0.0 mm 0.00 in0.0 mm 0.00 in0.0 mm
03:03 AM 60.4°F15.8°C 51.4°F10.8°C 72% Calm Calm -- 28.89 in978.3 mb 0.00 in0.0 mm 0.00 in0.0 mm 0.00 in0.0 mm
03:02 AM 60.4°F15.8°C 51.4°F10.8°C 72% Calm Calm -- 28.89 in978.3 mb 0.00 in0.0 mm 0.00 in0.0 mm 0.00 in0.0 mm
03:01 AM 60.4°F15.8°C 51.4°F10.8°C 72% Calm Calm -- 28.89 in978.3 mb 0.00 in0.0 mm 0.00 in0.0 mm 0.00 in0.0 mm
03:00 AM 60.4°F15.8°C 51.4°F10.8°C 72% Calm Calm -- 28.89 in978.3 mb 0.00 in0.0 mm 0.00 in0.0 mm 0.00 in0.0 mm
02:59 AM 60.4°F15.8°C 51.4°F10.8°C 72% Calm Calm -- 28.89 in978.3 mb 0.00 in0.0 mm 0.00 in0.0 mm 0.00 in0.0 mm
02:58 AM 60.4°F15.8°C 51.4°F10.8°C 72% Calm Calm -- 28.89 in978.3 mb 0.00 in0.0 mm 0.00 in0.0 mm 0.00 in0.0 mm
02:57 AM 60.4°F15.8°C 51.4°F10.8°C 72% Calm Calm -- 28.89 in978.3 mb 0.00 in0.0 mm 0.00 in0.0 mm 0.00 in0.0 mm
02:56 AM 60.4°F15.8°C 51.4°F10.8°C 72% Calm Calm -- 28.89 in978.3 mb 0.00 in0.0 mm 0.00 in0.0 mm 0.00 in0.0 mm
02:55 AM 60.4°F15.8°C 51.4°F10.8°C 72% Calm Calm -- 28.89 in978.3 mb 0.00 in0.0 mm 0.00 in0.0 mm 0.00 in0.0 mm
02:54 AM 60.4°F15.8°C 51.4°F10.8°C 72% Calm Calm -- 28.89 in978.3 mb 0.00 in0.0 mm 0.00 in0.0 mm 0.00 in0.0 mm
02:53 AM 60.4°F15.8°C 51.4°F10.8°C 72% Calm Calm -- 28.89 in978.3 mb 0.00 in0.0 mm 0.00 in0.0 mm 0.00 in0.0 mm
02:52 AM 60.4°F15.8°C 51.4°F10.8°C 72% Calm Calm -- 28.89 in978.3 mb 0.00 in0.0 mm 0.00 in0.0 mm 0.00 in0.0 mm
02:51 AM 60.4°F15.8°C 51.4°F10.8°C 72% Calm Calm -- 28.89 in978.3 mb 0.00 in0.0 mm 0.00 in0.0 mm 0.00 in0.0 mm
02:50 AM 60.4°F15.8°C 51.4°F10.8°C 72% Calm Calm -- 28.89 in978.3 mb 0.00 in0.0 mm 0.00 in0.0 mm 0.00 in0.0 mm
02:49 AM 60.4°F15.8°C 51.4°F10.8°C 72% Calm Calm -- 28.90 in978.7 mb 0.00 in0.0 mm 0.00 in0.0 mm 0.00 in0.0 mm
02:48 AM 60.6°F15.9°C 51.6°F10.9°C 72% Calm Calm -- 28.90 in978.7 mb 0.00 in0.0 mm 0.00 in0.0 mm 0.00 in0.0 mm
02:47 AM 60.6°F15.9°C 52.0°F11.1°C 73% Calm Calm -- 28.90 in978.7 mb 0.00 in0.0 mm 0.00 in0.0 mm 0.00 in0.0 mm
02:46 AM 60.6°F15.9°C 52.0°F11.1°C 73% Calm Calm -- 28.90 in978.7 mb 0.00 in0.0 mm 0.00 in0.0 mm 0.00 in0.0 mm
02:45 AM 60.6°F15.9°C 51.6°F10.9°C 72% Calm Calm -- 28.90 in978.7 mb 0.00 in0.0 mm 0.00 in0.0 mm 0.00 in0.0 mm
02:44 AM 60.6°F15.9°C 51.6°F10.9°C 72% Calm Calm -- 28.90 in978.7 mb 0.00 in0.0 mm 0.00 in0.0 mm 0.00 in0.0 mm
02:43 AM 60.6°F15.9°C 51.6°F10.9°C 72% Calm Calm -- 28.90 in978.7 mb 0.00 in0.0 mm 0.00 in0.0 mm 0.00 in0.0 mm
02:42 AM 60.6°F15.9°C 51.6°F10.9°C 72% Calm Calm -- 28.90 in978.7 mb 0.00 in0.0 mm 0.00 in0.0 mm 0.00 in0.0 mm
02:41 AM 60.6°F15.9°C 51.6°F10.9°C 72% Calm Calm -- 28.90 in978.7 mb 0.00 in0.0 mm 0.00 in0.0 mm 0.00 in0.0 mm
02:40 AM 60.6°F15.9°C 51.6°F10.9°C 72% Calm Calm -- 28.90 in978.7 mb 0.00 in0.0 mm 0.00 in0.0 mm 0.00 in0.0 mm
02:39 AM 60.6°F15.9°C 51.6°F10.9°C 72% Calm Calm -- 28.90 in978.7 mb 0.00 in0.0 mm 0.00 in0.0 mm 0.00 in0.0 mm
02:38 AM 60.6°F15.9°C 51.6°F10.9°C 72% Calm Calm -- 28.90 in978.7 mb 0.00 in0.0 mm 0.00 in0.0 mm 0.00 in0.0 mm
02:37 AM 60.6°F15.9°C 51.6°F10.9°C 72% Calm Calm -- 28.90 in978.7 mb 0.00 in0.0 mm 0.00 in0.0 mm 0.00 in0.0 mm
02:36 AM 60.6°F15.9°C 51.6°F10.9°C 72% Calm Calm -- 28.90 in978.7 mb 0.00 in0.0 mm 0.00 in0.0 mm 0.00 in0.0 mm
02:35 AM 60.6°F15.9°C 51.6°F10.9°C 72% Calm Calm -- 28.90 in978.7 mb 0.00 in0.0 mm 0.00 in0.0 mm 0.00 in0.0 mm
02:34 AM 60.6°F15.9°C 51.6°F10.9°C 72% Calm Calm -- 28.90 in978.7 mb 0.00 in0.0 mm 0.00 in0.0 mm 0.00 in0.0 mm
02:33 AM 60.6°F15.9°C 51.6°F10.9°C 72% Calm Calm -- 28.90 in978.7 mb 0.00 in0.0 mm 0.00 in0.0 mm 0.00 in0.0 mm
02:32 AM 60.6°F15.9°C 51.6°F10.9°C 72% Calm Calm -- 28.90 in978.7 mb 0.00 in0.0 mm 0.00 in0.0 mm 0.00 in0.0 mm
02:31 AM 60.6°F15.9°C 51.6°F10.9°C 72% Calm Calm -- 28.90 in978.7 mb 0.00 in0.0 mm 0.00 in0.0 mm 0.00 in0.0 mm
02:30 AM 60.6°F15.9°C 51.6°F10.9°C 72% Calm Calm -- 28.91 in979.0 mb 0.00 in0.0 mm 0.00 in0.0 mm 0.00 in0.0 mm
02:29 AM 60.6°F15.9°C 51.6°F10.9°C 72% Calm Calm -- 28.90 in978.7 mb 0.00 in0.0 mm 0.00 in0.0 mm 0.00 in0.0 mm
02:28 AM 60.6°F15.9°C 51.6°F10.9°C 72% Calm Calm -- 28.91 in979.0 mb 0.00 in0.0 mm 0.00 in0.0 mm 0.00 in0.0 mm
02:27 AM 60.6°F15.9°C 51.6°F10.9°C 72% Calm Calm -- 28.91 in979.0 mb 0.00 in0.0 mm 0.00 in0.0 mm 0.00 in0.0 mm
02:26 AM 60.6°F15.9°C 52.0°F11.1°C 73% Calm Calm -- 28.91 in979.0 mb 0.00 in0.0 mm 0.00 in0.0 mm 0.00 in0.0 mm
02:25 AM 60.6°F15.9°C 52.0°F11.1°C 73% Calm Calm -- 28.91 in979.0 mb 0.00 in0.0 mm 0.00 in0.0 mm 0.00 in0.0 mm
02:24 AM 60.6°F15.9°C 52.0°F11.1°C 73% Calm Calm -- 28.91 in979.0 mb 0.00 in0.0 mm 0.00 in0.0 mm 0.00 in0.0 mm
02:23 AM 60.8°F16.0°C 52.2°F11.2°C 73% Calm Calm -- 28.91 in979.0 mb 0.00 in0.0 mm 0.00 in0.0 mm 0.00 in0.0 mm
02:22 AM 61.0°F16.1°C 52.3°F11.3°C 73% Calm Calm -- 28.91 in979.0 mb 0.00 in0.0 mm 0.00 in0.0 mm 0.00 in0.0 mm
02:21 AM 61.0°F16.1°C 52.3°F11.3°C 73% Calm Calm -- 28.91 in979.0 mb 0.00 in0.0 mm 0.00 in0.0 mm 0.00 in0.0 mm
02:20 AM 61.0°F16.1°C 52.3°F11.3°C 73% Calm Calm -- 28.91 in979.0 mb 0.00 in0.0 mm 0.00 in0.0 mm 0.00 in0.0 mm
02:19 AM 61.0°F16.1°C 52.3°F11.3°C 73% Calm Calm -- 28.91 in979.0 mb 0.00 in0.0 mm 0.00 in0.0 mm 0.00 in0.0 mm
02:18 AM 61.0°F16.1°C 52.3°F11.3°C 73% Calm Calm -- 28.91 in979.0 mb 0.00 in0.0 mm 0.00 in0.0 mm 0.00 in0.0 mm
02:17 AM 61.0°F16.1°C 52.3°F11.3°C 73% Calm Calm -- 28.91 in979.0 mb 0.00 in0.0 mm 0.00 in0.0 mm 0.00 in0.0 mm
02:16 AM 61.0°F16.1°C 52.3°F11.3°C 73% Calm Calm -- 28.91 in979.0 mb 0.00 in0.0 mm 0.00 in0.0 mm 0.00 in0.0 mm
02:15 AM 61.0°F16.1°C 52.3°F11.3°C 73% Calm Calm -- 28.91 in979.0 mb 0.00 in0.0 mm 0.00 in0.0 mm 0.00 in0.0 mm
02:14 AM 61.0°F16.1°C 52.3°F11.3°C 73% Calm Calm -- 28.91 in979.0 mb 0.00 in0.0 mm 0.00 in0.0 mm 0.00 in0.0 mm
02:13 AM 61.0°F16.1°C 52.3°F11.3°C 73% Calm Calm -- 28.91 in979.0 mb 0.00 in0.0 mm 0.00 in0.0 mm 0.00 in0.0 mm
02:12 AM 61.2°F16.2°C 52.1°F11.2°C 72% Calm Calm -- 28.91 in979.0 mb 0.00 in0.0 mm 0.00 in0.0 mm 0.00 in0.0 mm
02:11 AM 61.2°F16.2°C 52.1°F11.2°C 72% Calm Calm -- 28.91 in979.0 mb 0.00 in0.0 mm 0.00 in0.0 mm 0.00 in0.0 mm
02:10 AM 61.2°F16.2°C 52.1°F11.2°C 72% Calm Calm -- 28.91 in979.0 mb 0.00 in0.0 mm 0.00 in0.0 mm 0.00 in0.0 mm
02:09 AM 61.3°F16.3°C 52.3°F11.3°C 72% Calm Calm -- 28.91 in979.0 mb 0.00 in0.0 mm 0.00 in0.0 mm 0.00 in0.0 mm
02:08 AM 61.2°F16.2°C 52.1°F11.2°C 72% Calm Calm -- 28.91 in979.0 mb 0.00 in0.0 mm 0.00 in0.0 mm 0.00 in0.0 mm
02:07 AM 61.2°F16.2°C 52.1°F11.2°C 72% Calm Calm -- 28.91 in979.0 mb 0.00 in0.0 mm 0.00 in0.0 mm 0.00 in0.0 mm
02:06 AM 61.3°F16.3°C 52.3°F11.3°C 72% Calm Calm -- 28.91 in979.0 mb 0.00 in0.0 mm 0.00 in0.0 mm 0.00 in0.0 mm
02:05 AM 61.3°F16.3°C 52.3°F11.3°C 72% Calm Calm -- 28.91 in979.0 mb 0.00 in0.0 mm 0.00 in0.0 mm 0.00 in0.0 mm
02:04 AM 61.3°F16.3°C 51.9°F11.1°C 71% Calm Calm -- 28.91 in979.0 mb 0.00 in0.0 mm 0.00 in0.0 mm 0.00 in0.0 mm
02:03 AM 61.3°F16.3°C 51.9°F11.1°C 71% Calm Calm -- 28.91 in979.0 mb 0.00 in0.0 mm 0.00 in0.0 mm 0.00 in0.0 mm
02:02 AM 61.3°F16.3°C 51.9°F11.1°C 71% Calm Calm -- 28.91 in979.0 mb 0.00 in0.0 mm 0.00 in0.0 mm 0.00 in0.0 mm
02:01 AM 61.3°F16.3°C 51.9°F11.1°C 71% Calm Calm -- 28.91 in979.0 mb 0.00 in0.0 mm 0.00 in0.0 mm 0.00 in0.0 mm
02:00 AM 61.3°F16.3°C 51.9°F11.1°C 71% Calm Calm -- 28.91 in979.0 mb 0.00 in0.0 mm 0.00 in0.0 mm 0.00 in0.0 mm
01:59 AM 61.3°F16.3°C 51.9°F11.1°C 71% Calm Calm -- 28.91 in979.0 mb 0.00 in0.0 mm 0.00 in0.0 mm 0.00 in0.0 mm
01:58 AM 61.5°F16.4°C 52.1°F11.2°C 71% Calm Calm -- 28.91 in979.0 mb 0.00 in0.0 mm 0.00 in0.0 mm 0.00 in0.0 mm
01:57 AM 61.5°F16.4°C 52.1°F11.2°C 71% Calm Calm -- 28.91 in979.0 mb 0.00 in0.0 mm 0.00 in0.0 mm 0.00 in0.0 mm
01:56 AM 61.5°F16.4°C 52.1°F11.2°C 71% Calm Calm -- 28.91 in979.0 mb 0.00 in0.0 mm 0.00 in0.0 mm 0.00 in0.0 mm
01:55 AM 61.5°F16.4°C 52.1°F11.2°C 71% Calm Calm -- 28.91 in979.0 mb 0.00 in0.0 mm 0.00 in0.0 mm 0.00 in0.0 mm
01:54 AM 61.5°F16.4°C 52.1°F11.2°C 71% Calm Calm -- 28.91 in979.0 mb 0.00 in0.0 mm 0.00 in0.0 mm 0.00 in0.0 mm
01:53 AM 61.5°F16.4°C 52.1°F11.2°C 71% Calm Calm -- 28.91 in979.0 mb 0.00 in0.0 mm 0.00 in0.0 mm 0.00 in0.0 mm
01:52 AM 61.5°F16.4°C 52.1°F11.2°C 71% Calm Calm -- 28.91 in979.0 mb 0.00 in0.0 mm 0.00 in0.0 mm 0.00 in0.0 mm
01:51 AM 61.5°F16.4°C 52.1°F11.2°C 71% Calm Calm -- 28.91 in979.0 mb 0.00 in0.0 mm 0.00 in0.0 mm 0.00 in0.0 mm
01:50 AM 61.5°F16.4°C 52.1°F11.2°C 71% Calm Calm -- 28.91 in979.0 mb 0.00 in0.0 mm 0.00 in0.0 mm 0.00 in0.0 mm
01:49 AM 61.5°F16.4°C 52.1°F11.2°C 71% Calm Calm -- 28.91 in979.0 mb 0.00 in0.0 mm 0.00 in0.0 mm 0.00 in0.0 mm
01:48 AM 61.7°F16.5°C 52.3°F11.3°C 71% Calm Calm -- 28.91 in979.0 mb 0.00 in0.0 mm 0.00 in0.0 mm 0.00 in0.0 mm
01:47 AM 61.7°F16.5°C 51.9°F11.1°C 70% Calm Calm -- 28.91 in979.0 mb 0.00 in0.0 mm 0.00 in0.0 mm 0.00 in0.0 mm
01:46 AM 61.7°F16.5°C 51.9°F11.1°C 70% Calm Calm -- 28.92 in979.3 mb 0.00 in0.0 mm 0.00 in0.0 mm 0.00 in0.0 mm
01:45 AM 61.7°F16.5°C 51.9°F11.1°C 70% Calm Calm -- 28.92 in979.3 mb 0.00 in0.0 mm 0.00 in0.0 mm 0.00 in0.0 mm
01:44 AM 61.7°F16.5°C 51.9°F11.1°C 70% Calm Calm -- 28.92 in979.3 mb 0.00 in0.0 mm 0.00 in0.0 mm 0.00 in0.0 mm
01:43 AM 61.7°F16.5°C 51.9°F11.1°C 70% Calm Calm -- 28.92 in979.3 mb 0.00 in0.0 mm 0.00 in0.0 mm 0.00 in0.0 mm
01:42 AM 61.7°F16.5°C 51.9°F11.1°C 70% Calm Calm -- 28.91 in979.0 mb 0.00 in0.0 mm 0.00 in0.0 mm 0.00 in0.0 mm
01:41 AM 61.7°F16.5°C 51.9°F11.1°C 70% Calm Calm -- 28.91 in979.0 mb 0.00 in0.0 mm 0.00 in0.0 mm 0.00 in0.0 mm
01:40 AM 61.7°F16.5°C 51.9°F11.1°C 70% Calm Calm -- 28.92 in979.3 mb 0.00 in0.0 mm 0.00 in0.0 mm 0.00 in0.0 mm
01:39 AM 61.9°F16.6°C 52.1°F11.2°C 70% Calm Calm -- 28.91 in979.0 mb 0.00 in0.0 mm 0.00 in0.0 mm 0.00 in0.0 mm
01:38 AM 61.9°F16.6°C 52.1°F11.2°C 70% Calm Calm -- 28.92 in979.3 mb 0.00 in0.0 mm 0.00 in0.0 mm 0.00 in0.0 mm
01:37 AM 61.9°F16.6°C 52.1°F11.2°C 70% Calm Calm -- 28.92 in979.3 mb 0.00 in0.0 mm 0.00 in0.0 mm 0.00 in0.0 mm
01:36 AM 61.9°F16.6°C 52.1°F11.2°C 70% Calm Calm -- 28.92 in979.3 mb 0.00 in0.0 mm 0.00 in0.0 mm 0.00 in0.0 mm
01:35 AM 61.9°F16.6°C 52.1°F11.2°C 70% Calm Calm -- 28.92 in979.3 mb 0.00 in0.0 mm 0.00 in0.0 mm 0.00 in0.0 mm
01:34 AM 61.9°F16.6°C 52.1°F11.2°C 70% Calm Calm -- 28.92 in979.3 mb 0.00 in0.0 mm 0.00 in0.0 mm 0.00 in0.0 mm
01:33 AM 61.9°F16.6°C 52.1°F11.2°C 70% Calm Calm -- 28.92 in979.3 mb 0.00 in0.0 mm 0.00 in0.0 mm 0.00 in0.0 mm
01:32 AM 61.9°F16.6°C 52.1°F11.2°C 70% Calm Calm -- 28.92 in979.3 mb 0.00 in0.0 mm 0.00 in0.0 mm 0.00 in0.0 mm
01:31 AM 61.9°F16.6°C 52.1°F11.2°C 70% Calm Calm -- 28.92 in979.3 mb 0.00 in0.0 mm 0.00 in0.0 mm 0.00 in0.0 mm
01:30 AM 61.9°F16.6°C 52.1°F11.2°C 70% Calm Calm -- 28.92 in979.3 mb 0.00 in0.0 mm 0.00 in0.0 mm 0.00 in0.0 mm
01:29 AM 62.1°F16.7°C 52.2°F11.2°C 70% Calm Calm -- 28.92 in979.3 mb 0.00 in0.0 mm 0.00 in0.0 mm 0.00 in0.0 mm
01:28 AM 62.1°F16.7°C 52.2°F11.2°C 70% Calm Calm -- 28.92 in979.3 mb 0.00 in0.0 mm 0.00 in0.0 mm 0.00 in0.0 mm
01:27 AM 62.1°F16.7°C 52.2°F11.2°C 70% Calm Calm -- 28.92 in979.3 mb 0.00 in0.0 mm 0.00 in0.0 mm 0.00 in0.0 mm
01:26 AM 62.1°F16.7°C 52.2°F11.2°C 70% Calm Calm -- 28.92 in979.3 mb 0.00 in0.0 mm 0.00 in0.0 mm 0.00 in0.0 mm
01:25 AM 62.1°F16.7°C 52.4°F11.3°C 70% Calm Calm -- 28.92 in979.3 mb 0.00 in0.0 mm 0.00 in0.0 mm 0.00 in0.0 mm
01:24 AM 62.1°F16.7°C 52.2°F11.2°C 70% Calm Calm -- 28.92 in979.3 mb 0.00 in0.0 mm 0.00 in0.0 mm 0.00 in0.0 mm
01:23 AM 62.2°F16.8°C 52.4°F11.3°C 70% Calm Calm -- 28.92 in979.3 mb 0.00 in0.0 mm 0.00 in0.0 mm 0.00 in0.0 mm
01:22 AM 62.2°F16.8°C 52.4°F11.3°C 70% Calm Calm -- 28.92 in979.3 mb 0.00 in0.0 mm 0.00 in0.0 mm 0.00 in0.0 mm
01:21 AM 62.2°F16.8°C 52.4°F11.3°C 70% Calm Calm -- 28.92 in979.3 mb 0.00 in0.0 mm 0.00 in0.0 mm 0.00 in0.0 mm
01:20 AM 62.2°F16.8°C 52.4°F11.3°C 70% Calm Calm -- 28.92 in979.3 mb 0.00 in0.0 mm 0.00 in0.0 mm 0.00 in0.0 mm
01:19 AM 62.2°F16.8°C 52.4°F11.3°C 70% Calm Calm -- 28.92 in979.3 mb 0.00 in0.0 mm 0.00 in0.0 mm 0.00 in0.0 mm
01:18 AM 62.2°F16.8°C 52.4°F11.3°C 70% Calm Calm -- 28.92 in979.3 mb 0.00 in0.0 mm 0.00 in0.0 mm 0.00 in0.0 mm
01:17 AM 62.2°F16.8°C 52.4°F11.3°C 70% Calm Calm -- 28.92 in979.3 mb 0.00 in0.0 mm 0.00 in0.0 mm 0.00 in0.0 mm
01:16 AM 62.2°F16.8°C 52.4°F11.3°C 70% Calm Calm -- 28.92 in979.3 mb 0.00 in0.0 mm 0.00 in0.0 mm 0.00 in0.0 mm
01:15 AM 62.4°F16.9°C 52.5°F11.4°C 70% Calm Calm -- 28.92 in979.3 mb 0.00 in0.0 mm 0.00 in0.0 mm 0.00 in0.0 mm
01:14 AM 62.4°F16.9°C 52.5°F11.4°C 70% Calm Calm -- 28.92 in979.3 mb 0.00 in0.0 mm 0.00 in0.0 mm 0.00 in0.0 mm
01:13 AM 62.4°F16.9°C 52.5°F11.4°C 70% Calm Calm -- 28.92 in979.3 mb 0.00 in0.0 mm 0.00 in0.0 mm 0.00 in0.0 mm
01:12 AM 62.4°F16.9°C 52.5°F11.4°C 70% Calm Calm -- 28.92 in979.3 mb 0.00 in0.0 mm 0.00 in0.0 mm 0.00 in0.0 mm
01:11 AM 62.4°F16.9°C 52.5°F11.4°C 70% Calm Calm -- 28.92 in979.3 mb 0.00 in0.0 mm 0.00 in0.0 mm 0.00 in0.0 mm
01:10 AM 62.4°F16.9°C 52.5°F11.4°C 70% Calm Calm -- 28.92 in979.3 mb 0.00 in0.0 mm 0.00 in0.0 mm 0.00 in0.0 mm
01:09 AM 62.4°F16.9°C 52.5°F11.4°C 70% Calm Calm -- 28.91 in979.0 mb 0.00 in0.0 mm 0.00 in0.0 mm 0.00 in0.0 mm
01:08 AM 62.4°F16.9°C 52.5°F11.4°C 70% Calm Calm -- 28.92 in979.3 mb 0.00 in0.0 mm 0.00 in0.0 mm 0.00 in0.0 mm
01:07 AM 62.4°F16.9°C 52.5°F11.4°C 70% Calm Calm -- 28.91 in979.0 mb 0.00 in0.0 mm 0.00 in0.0 mm 0.00 in0.0 mm
01:06 AM 62.4°F16.9°C 52.5°F11.4°C 70% Calm Calm -- 28.92 in979.3 mb 0.00 in0.0 mm 0.00 in0.0 mm 0.00 in0.0 mm
01:05 AM 62.4°F16.9°C 52.9°F11.6°C 71% Calm Calm -- 28.91 in979.0 mb 0.00 in0.0 mm 0.00 in0.0 mm 0.00 in0.0 mm
01:04 AM 62.4°F16.9°C 52.5°F11.4°C 70% Calm Calm -- 28.92 in979.3 mb 0.00 in0.0 mm 0.00 in0.0 mm 0.00 in0.0 mm
01:03 AM 62.4°F16.9°C 52.9°F11.6°C 71% Calm Calm -- 28.91 in979.0 mb 0.00 in0.0 mm 0.00 in0.0 mm 0.00 in0.0 mm
01:02 AM 62.4°F16.9°C 52.9°F11.6°C 71% Calm Calm -- 28.91 in979.0 mb 0.00 in0.0 mm 0.00 in0.0 mm 0.00 in0.0 mm
01:01 AM 62.4°F16.9°C 52.9°F11.6°C 71% Calm Calm -- 28.92 in979.3 mb 0.00 in0.0 mm 0.00 in0.0 mm 0.00 in0.0 mm
01:00 AM 62.4°F16.9°C 52.9°F11.6°C 71% Calm Calm -- 28.92 in979.3 mb 0.00 in0.0 mm 0.00 in0.0 mm 0.00 in0.0 mm
12:59 AM 62.6°F17.0°C 53.1°F11.7°C 71% Calm Calm -- 28.91 in979.0 mb 0.00 in0.0 mm 0.00 in0.0 mm 0.00 in0.0 mm
12:58 AM 62.6°F17.0°C 53.1°F11.7°C 71% Calm Calm -- 28.91 in979.0 mb 0.00 in0.0 mm 0.00 in0.0 mm 0.00 in0.0 mm
12:57 AM 62.6°F17.0°C 53.1°F11.7°C 71% Calm Calm -- 28.92 in979.3 mb 0.00 in0.0 mm 0.00 in0.0 mm 0.00 in0.0 mm
12:56 AM 62.6°F17.0°C 53.1°F11.7°C 71% Calm Calm -- 28.91 in979.0 mb 0.00 in0.0 mm 0.00 in0.0 mm 0.00 in0.0 mm
12:55 AM 62.6°F17.0°C 53.1°F11.7°C 71% Calm Calm -- 28.91 in979.0 mb 0.00 in0.0 mm 0.00 in0.0 mm 0.00 in0.0 mm
12:54 AM 62.8°F17.1°C 53.2°F11.8°C 71% Calm Calm -- 28.92 in979.3 mb 0.00 in0.0 mm 0.00 in0.0 mm 0.00 in0.0 mm
12:53 AM 62.8°F17.1°C 53.2°F11.8°C 71% Calm Calm -- 28.92 in979.3 mb 0.00 in0.0 mm 0.00 in0.0 mm 0.00 in0.0 mm
12:52 AM 62.8°F17.1°C 53.2°F11.8°C 71% Calm Calm 3.4 mph5.5 kmh 28.92 in979.3 mb 0.00 in0.0 mm 0.00 in0.0 mm 0.00 in0.0 mm
12:51 AM 62.8°F17.1°C 53.2°F11.8°C 71% Calm Calm 3.4 mph5.5 kmh 28.92 in979.3 mb 0.00 in0.0 mm 0.00 in0.0 mm 0.00 in0.0 mm
12:50 AM 62.8°F17.1°C 53.2°F11.8°C 71% Calm Calm 3.4 mph5.5 kmh 28.92 in979.3 mb 0.00 in0.0 mm 0.00 in0.0 mm 0.00 in0.0 mm
12:49 AM 62.8°F17.1°C 53.2°F11.8°C 71% Calm Calm 3.4 mph5.5 kmh 28.92 in979.3 mb 0.00 in0.0 mm 0.00 in0.0 mm 0.00 in0.0 mm
12:48 AM 62.8°F17.1°C 53.2°F11.8°C 71% Calm Calm 3.4 mph5.5 kmh 28.92 in979.3 mb 0.00 in0.0 mm 0.00 in0.0 mm 0.00 in0.0 mm
12:47 AM 62.8°F17.1°C 53.2°F11.8°C 71% Calm Calm 3.4 mph5.5 kmh 28.92 in979.3 mb 0.00 in0.0 mm 0.00 in0.0 mm 0.00 in0.0 mm
12:46 AM 62.8°F17.1°C 53.2°F11.8°C 71% Calm Calm 3.4 mph5.5 kmh 28.92 in979.3 mb 0.00 in0.0 mm 0.00 in0.0 mm 0.00 in0.0 mm
12:45 AM 62.8°F17.1°C 53.2°F11.8°C 71% Calm Calm 3.4 mph5.5 kmh 28.92 in979.3 mb 0.00 in0.0 mm 0.00 in0.0 mm 0.00 in0.0 mm
12:44 AM 62.8°F17.1°C 53.2°F11.8°C 71% Calm Calm 3.4 mph5.5 kmh 28.91 in979.0 mb 0.00 in0.0 mm 0.00 in0.0 mm 0.00 in0.0 mm
12:43 AM 62.8°F17.1°C 53.2°F11.8°C 71% Calm Calm 3.4 mph5.5 kmh 28.91 in979.0 mb 0.00 in0.0 mm 0.00 in0.0 mm 0.00 in0.0 mm
12:42 AM 62.8°F17.1°C 53.2°F11.8°C 71% Calm Calm 3.4 mph5.5 kmh 28.91 in979.0 mb 0.00 in0.0 mm 0.00 in0.0 mm 0.00 in0.0 mm
12:41 AM 62.8°F17.1°C 53.2°F11.8°C 71% Calm Calm 3.4 mph5.5 kmh 28.91 in979.0 mb 0.00 in0.0 mm 0.00 in0.0 mm 0.00 in0.0 mm
12:40 AM 62.8°F17.1°C 53.2°F11.8°C 71% Calm Calm 3.4 mph5.5 kmh 28.91 in979.0 mb 0.00 in0.0 mm 0.00 in0.0 mm 0.00 in0.0 mm
12:39 AM 62.8°F17.1°C 53.2°F11.8°C 71% Calm Calm 3.4 mph5.5 kmh 28.91 in979.0 mb 0.00 in0.0 mm 0.00 in0.0 mm 0.00 in0.0 mm
12:38 AM 62.8°F17.1°C 53.6°F12.0°C 72% Calm Calm 3.4 mph5.5 kmh 28.91 in979.0 mb 0.00 in0.0 mm 0.00 in0.0 mm 0.00 in0.0 mm
12:37 AM 62.8°F17.1°C 53.6°F12.0°C 72% Calm Calm 3.4 mph5.5 kmh 28.91 in979.0 mb 0.00 in0.0 mm 0.00 in0.0 mm 0.00 in0.0 mm
12:36 AM 62.8°F17.1°C 53.6°F12.0°C 72% Calm Calm 3.4 mph5.5 kmh 28.91 in979.0 mb 0.00 in0.0 mm 0.00 in0.0 mm 0.00 in0.0 mm
12:35 AM 62.8°F17.1°C 53.6°F12.0°C 72% Calm Calm 3.4 mph5.5 kmh 28.91 in979.0 mb 0.00 in0.0 mm 0.00 in0.0 mm 0.00 in0.0 mm
12:34 AM 62.8°F17.1°C 53.6°F12.0°C 72% Calm Calm 3.4 mph5.5 kmh 28.91 in979.0 mb 0.00 in0.0 mm 0.00 in0.0 mm 0.00 in0.0 mm
12:33 AM 62.8°F17.1°C 53.6°F12.0°C 72% Calm Calm 3.4 mph5.5 kmh 28.91 in979.0 mb 0.00 in0.0 mm 0.00 in0.0 mm 0.00 in0.0 mm
12:32 AM 62.8°F17.1°C 53.6°F12.0°C 72% Calm Calm 3.4 mph5.5 kmh 28.91 in979.0 mb 0.00 in0.0 mm 0.00 in0.0 mm 0.00 in0.0 mm
12:31 AM 62.8°F17.1°C 53.6°F12.0°C 72% Calm Calm 3.4 mph5.5 kmh 28.91 in979.0 mb 0.00 in0.0 mm 0.00 in0.0 mm 0.00 in0.0 mm
12:30 AM 63.0°F17.2°C 53.8°F12.1°C 72% Calm Calm 3.4 mph5.5 kmh 28.91 in979.0 mb 0.00 in0.0 mm 0.00 in0.0 mm 0.00 in0.0 mm
12:29 AM 62.8°F17.1°C 53.6°F12.0°C 72% Calm Calm 3.4 mph5.5 kmh 28.91 in979.0 mb 0.00 in0.0 mm 0.00 in0.0 mm 0.00 in0.0 mm
12:28 AM 63.0°F17.2°C 53.8°F12.1°C 72% Calm Calm 3.4 mph5.5 kmh 28.91 in979.0 mb 0.00 in0.0 mm 0.00 in0.0 mm 0.00 in0.0 mm
12:27 AM 63.0°F17.2°C 53.8°F12.1°C 72% Calm Calm 3.4 mph5.5 kmh 28.92 in979.3 mb 0.00 in0.0 mm 0.00 in0.0 mm 0.00 in0.0 mm
12:26 AM 63.0°F17.2°C 53.8°F12.1°C 72% Calm Calm 3.4 mph5.5 kmh 28.92 in979.3 mb 0.00 in0.0 mm 0.00 in0.0 mm 0.00 in0.0 mm
12:25 AM 63.0°F17.2°C 53.8°F12.1°C 72% Calm Calm 3.4 mph5.5 kmh 28.92 in979.3 mb 0.00 in0.0 mm 0.00 in0.0 mm 0.00 in0.0 mm
12:24 AM 63.0°F17.2°C 53.8°F12.1°C 72% Calm Calm 3.4 mph5.5 kmh 28.92 in979.3 mb 0.00 in0.0 mm 0.00 in0.0 mm 0.00 in0.0 mm
12:23 AM 63.0°F17.2°C 53.8°F12.1°C 72% Calm Calm 3.4 mph5.5 kmh 28.92 in979.3 mb 0.00 in0.0 mm 0.00 in0.0 mm 0.00 in0.0 mm
12:22 AM 63.0°F17.2°C 53.8°F12.1°C 72% Calm Calm 3.4 mph5.5 kmh 28.92 in979.3 mb 0.00 in0.0 mm 0.00 in0.0 mm 0.00 in0.0 mm
12:21 AM 63.0°F17.2°C 53.8°F12.1°C 72% Calm Calm 3.4 mph5.5 kmh 28.92 in979.3 mb 0.00 in0.0 mm 0.00 in0.0 mm 0.00 in0.0 mm
12:20 AM 63.0°F17.2°C 53.8°F12.1°C 72% Calm Calm 3.4 mph5.5 kmh 28.92 in979.3 mb 0.00 in0.0 mm 0.00 in0.0 mm 0.00 in0.0 mm
12:19 AM 63.0°F17.2°C 53.8°F12.1°C 72% Calm Calm 3.4 mph5.5 kmh 28.92 in979.3 mb 0.00 in0.0 mm 0.00 in0.0 mm 0.00 in0.0 mm
12:18 AM 63.0°F17.2°C 53.8°F12.1°C 72% Calm Calm 3.4 mph5.5 kmh 28.92 in979.3 mb 0.00 in0.0 mm 0.00 in0.0 mm 0.00 in0.0 mm
12:17 AM 63.0°F17.2°C 53.8°F12.1°C 72% Calm Calm 3.4 mph5.5 kmh 28.92 in979.3 mb 0.00 in0.0 mm 0.00 in0.0 mm 0.00 in0.0 mm
12:16 AM 63.0°F17.2°C 53.8°F12.1°C 72% Calm Calm 3.4 mph5.5 kmh 28.92 in979.3 mb 0.00 in0.0 mm 0.00 in0.0 mm 0.00 in0.0 mm
12:15 AM 63.0°F17.2°C 53.8°F12.1°C 72% Calm Calm 3.4 mph5.5 kmh 28.92 in979.3 mb 0.00 in0.0 mm 0.00 in0.0 mm 0.00 in0.0 mm
12:14 AM 63.1°F17.3°C 54.0°F12.2°C 72% Calm Calm 3.4 mph5.5 kmh 28.92 in979.3 mb 0.00 in0.0 mm 0.00 in0.0 mm 0.00 in0.0 mm
12:13 AM 63.1°F17.3°C 54.0°F12.2°C 72% Calm Calm 3.4 mph5.5 kmh 28.92 in979.3 mb 0.00 in0.0 mm 0.00 in0.0 mm 0.00 in0.0 mm
12:12 AM 63.1°F17.3°C 54.0°F12.2°C 72% Calm Calm 3.4 mph5.5 kmh 28.92 in979.3 mb 0.00 in0.0 mm 0.00 in0.0 mm 0.00 in0.0 mm
12:11 AM 63.1°F17.3°C 53.6°F12.0°C 71% Calm Calm 3.4 mph5.5 kmh 28.92 in979.3 mb 0.00 in0.0 mm 0.00 in0.0 mm 0.00 in0.0 mm
12:10 AM 63.1°F17.3°C 53.6°F12.0°C 71% 1.8 mph SE2.9 kmh SE 3.4 mph5.5 kmh 28.92 in979.3 mb 0.00 in0.0 mm 0.00 in0.0 mm 0.00 in0.0 mm
12:09 AM 63.1°F17.3°C 53.6°F12.0°C 71% 2.2 mph SE3.5 kmh SE 3.4 mph5.5 kmh 28.92 in979.3 mb 0.00 in0.0 mm 0.00 in0.0 mm 0.00 in0.0 mm
12:08 AM 63.1°F17.3°C 53.6°F12.0°C 71% 1.1 mph SE1.8 kmh SE 3.6 mph5.8 kmh 28.92 in979.3 mb 0.00 in0.0 mm 0.00 in0.0 mm 0.00 in0.0 mm
12:07 AM 63.1°F17.3°C 53.6°F12.0°C 71% 2.5 mph SE4.0 kmh SE 4.7 mph7.6 kmh 28.92 in979.3 mb 0.00 in0.0 mm 0.00 in0.0 mm 0.00 in0.0 mm
12:06 AM 63.1°F17.3°C 53.6°F12.0°C 71% 1.6 mph SE2.6 kmh SE 4.7 mph7.6 kmh 28.92 in979.3 mb 0.00 in0.0 mm 0.00 in0.0 mm 0.00 in0.0 mm
12:05 AM 63.1°F17.3°C 53.6°F12.0°C 71% 2.9 mph SE4.7 kmh SE 4.7 mph7.6 kmh 28.92 in979.3 mb 0.00 in0.0 mm 0.00 in0.0 mm 0.00 in0.0 mm
12:04 AM 63.1°F17.3°C 53.6°F12.0°C 71% 2.7 mph SE4.3 kmh SE 4.7 mph7.6 kmh 28.92 in979.3 mb 0.00 in0.0 mm 0.00 in0.0 mm 0.00 in0.0 mm
12:03 AM 63.3°F17.4°C 53.8°F12.1°C 71% 2.2 mph SE3.5 kmh SE 4.7 mph7.6 kmh 28.92 in979.3 mb 0.00 in0.0 mm 0.00 in0.0 mm